<?xml version="1.0" encoding="UTF-8" standalone="no" ?>
<gpx xmlns="http://www.topografix.com/GPX/1/1" xmlns:xsi="http://www.w3.org/2001/XMLSchema-instance" xsi:schemaLocation="http://www.topografix.com/GPX/1/1 http://www.topografix.com/GPX/1/1/gpx.xsd" version="1.1" creator="VisuGPX - https://www.visugpx.com">
  <metadata>
    <name>Arbir0816</name>
    <desc><![CDATA[avec Erwann, Gauvain et Rudy]]></desc>
  </metadata>
  <trk>
    <name><![CDATA[Tracé actuel: 25 AOU 2016 10:16]]></name>
    <trkseg>
      <trkpt lat="47.34691" lon="-3.1523">
        <ele>11.19</ele>
        <time>2016-08-25T08:16:49Z</time>
      </trkpt>
      <trkpt lat="47.34696" lon="-3.15242">
        <ele>13.12</ele>
        <time>2016-08-25T08:17:02Z</time>
      </trkpt>
      <trkpt lat="47.347" lon="-3.15253">
        <ele>13.12</ele>
        <time>2016-08-25T08:17:13Z</time>
      </trkpt>
      <trkpt lat="47.34699" lon="-3.15262">
        <ele>14.56</ele>
        <time>2016-08-25T08:17:20Z</time>
      </trkpt>
      <trkpt lat="47.34702" lon="-3.15269">
        <ele>15.52</ele>
        <time>2016-08-25T08:17:26Z</time>
      </trkpt>
      <trkpt lat="47.34691" lon="-3.15284">
        <ele>17.44</ele>
        <time>2016-08-25T08:17:40Z</time>
      </trkpt>
      <trkpt lat="47.34679" lon="-3.15298">
        <ele>19.36</ele>
        <time>2016-08-25T08:17:54Z</time>
      </trkpt>
      <trkpt lat="47.34667" lon="-3.15311">
        <ele>21.29</ele>
        <time>2016-08-25T08:18:11Z</time>
      </trkpt>
      <trkpt lat="47.34661" lon="-3.15329">
        <ele>20.81</ele>
        <time>2016-08-25T08:18:26Z</time>
      </trkpt>
      <trkpt lat="47.34657" lon="-3.15335">
        <ele>18.88</ele>
        <time>2016-08-25T08:18:36Z</time>
      </trkpt>
      <trkpt lat="47.3466" lon="-3.15358">
        <ele>17.44</ele>
        <time>2016-08-25T08:18:51Z</time>
      </trkpt>
      <trkpt lat="47.34656" lon="-3.15359">
        <ele>18.88</ele>
        <time>2016-08-25T08:19:05Z</time>
      </trkpt>
      <trkpt lat="47.34687" lon="-3.15329">
        <ele>24.17</ele>
        <time>2016-08-25T08:19:30Z</time>
      </trkpt>
      <trkpt lat="47.34688" lon="-3.15335">
        <ele>7.83</ele>
        <time>2016-08-25T08:19:52Z</time>
      </trkpt>
      <trkpt lat="47.34686" lon="-3.15334">
        <ele>10.23</ele>
        <time>2016-08-25T08:20:10Z</time>
      </trkpt>
      <trkpt lat="47.34687" lon="-3.15336">
        <ele>7.35</ele>
        <time>2016-08-25T08:20:33Z</time>
      </trkpt>
      <trkpt lat="47.34684" lon="-3.15328">
        <ele>6.39</ele>
        <time>2016-08-25T08:20:46Z</time>
      </trkpt>
      <trkpt lat="47.3468" lon="-3.15317">
        <ele>5.91</ele>
        <time>2016-08-25T08:20:59Z</time>
      </trkpt>
      <trkpt lat="47.34681" lon="-3.15316">
        <ele>5.42</ele>
        <time>2016-08-25T08:21:09Z</time>
      </trkpt>
      <trkpt lat="47.34681" lon="-3.15315">
        <ele>4.94</ele>
        <time>2016-08-25T08:21:20Z</time>
      </trkpt>
      <trkpt lat="47.34681" lon="-3.15315">
        <ele>4.94</ele>
        <time>2016-08-25T08:21:22Z</time>
      </trkpt>
      <trkpt lat="47.34682" lon="-3.15317">
        <ele>4.94</ele>
        <time>2016-08-25T08:21:34Z</time>
      </trkpt>
      <trkpt lat="47.34677" lon="-3.15316">
        <ele>4.46</ele>
        <time>2016-08-25T08:21:47Z</time>
      </trkpt>
      <trkpt lat="47.3467" lon="-3.15317">
        <ele>3.98</ele>
        <time>2016-08-25T08:21:59Z</time>
      </trkpt>
      <trkpt lat="47.34665" lon="-3.15317">
        <ele>5.42</ele>
        <time>2016-08-25T08:22:12Z</time>
      </trkpt>
      <trkpt lat="47.34665" lon="-3.15318">
        <ele>5.91</ele>
        <time>2016-08-25T08:22:26Z</time>
      </trkpt>
      <trkpt lat="47.34664" lon="-3.15318">
        <ele>6.39</ele>
        <time>2016-08-25T08:22:43Z</time>
      </trkpt>
      <trkpt lat="47.34665" lon="-3.1532">
        <ele>6.39</ele>
        <time>2016-08-25T08:22:53Z</time>
      </trkpt>
      <trkpt lat="47.34669" lon="-3.15327">
        <ele>7.83</ele>
        <time>2016-08-25T08:23:03Z</time>
      </trkpt>
      <trkpt lat="47.34677" lon="-3.15348">
        <ele>8.79</ele>
        <time>2016-08-25T08:23:17Z</time>
      </trkpt>
      <trkpt lat="47.34678" lon="-3.1535">
        <ele>8.79</ele>
        <time>2016-08-25T08:23:25Z</time>
      </trkpt>
      <trkpt lat="47.34687" lon="-3.15368">
        <ele>8.31</ele>
        <time>2016-08-25T08:23:37Z</time>
      </trkpt>
      <trkpt lat="47.34693" lon="-3.15377">
        <ele>5.91</ele>
        <time>2016-08-25T08:23:48Z</time>
      </trkpt>
      <trkpt lat="47.34694" lon="-3.15381">
        <ele>4.94</ele>
        <time>2016-08-25T08:24:04Z</time>
      </trkpt>
      <trkpt lat="47.34696" lon="-3.15384">
        <ele>4.94</ele>
        <time>2016-08-25T08:24:17Z</time>
      </trkpt>
      <trkpt lat="47.34696" lon="-3.15385">
        <ele>4.94</ele>
        <time>2016-08-25T08:24:19Z</time>
      </trkpt>
      <trkpt lat="47.34698" lon="-3.15386">
        <ele>4.94</ele>
        <time>2016-08-25T08:24:23Z</time>
      </trkpt>
      <trkpt lat="47.34707" lon="-3.15383">
        <ele>8.31</ele>
        <time>2016-08-25T08:24:30Z</time>
      </trkpt>
      <trkpt lat="47.34722" lon="-3.15383">
        <ele>9.75</ele>
        <time>2016-08-25T08:24:44Z</time>
      </trkpt>
      <trkpt lat="47.34735" lon="-3.15386">
        <ele>9.27</ele>
        <time>2016-08-25T08:24:57Z</time>
      </trkpt>
      <trkpt lat="47.34751" lon="-3.15389">
        <ele>9.27</ele>
        <time>2016-08-25T08:25:12Z</time>
      </trkpt>
      <trkpt lat="47.34768" lon="-3.15394">
        <ele>7.83</ele>
        <time>2016-08-25T08:25:28Z</time>
      </trkpt>
      <trkpt lat="47.34769" lon="-3.15397">
        <ele>6.87</ele>
        <time>2016-08-25T08:25:31Z</time>
      </trkpt>
      <trkpt lat="47.34773" lon="-3.15402">
        <ele>6.87</ele>
        <time>2016-08-25T08:25:36Z</time>
      </trkpt>
      <trkpt lat="47.34775" lon="-3.15404">
        <ele>6.39</ele>
        <time>2016-08-25T08:25:38Z</time>
      </trkpt>
      <trkpt lat="47.34777" lon="-3.15406">
        <ele>6.39</ele>
        <time>2016-08-25T08:25:40Z</time>
      </trkpt>
      <trkpt lat="47.34778" lon="-3.1542">
        <ele>4.94</ele>
        <time>2016-08-25T08:25:53Z</time>
      </trkpt>
      <trkpt lat="47.34778" lon="-3.15422">
        <ele>4.94</ele>
        <time>2016-08-25T08:26:07Z</time>
      </trkpt>
      <trkpt lat="47.34777" lon="-3.15422">
        <ele>5.42</ele>
        <time>2016-08-25T08:26:17Z</time>
      </trkpt>
      <trkpt lat="47.34774" lon="-3.15424">
        <ele>5.42</ele>
        <time>2016-08-25T08:26:20Z</time>
      </trkpt>
      <trkpt lat="47.34771" lon="-3.15431">
        <ele>5.91</ele>
        <time>2016-08-25T08:26:26Z</time>
      </trkpt>
      <trkpt lat="47.34774" lon="-3.15455">
        <ele>6.39</ele>
        <time>2016-08-25T08:26:41Z</time>
      </trkpt>
      <trkpt lat="47.34773" lon="-3.15467">
        <ele>6.39</ele>
        <time>2016-08-25T08:26:48Z</time>
      </trkpt>
      <trkpt lat="47.34776" lon="-3.15476">
        <ele>6.87</ele>
        <time>2016-08-25T08:26:54Z</time>
      </trkpt>
      <trkpt lat="47.34774" lon="-3.15478">
        <ele>6.87</ele>
        <time>2016-08-25T08:26:56Z</time>
      </trkpt>
      <trkpt lat="47.34767" lon="-3.1549">
        <ele>7.83</ele>
        <time>2016-08-25T08:27:11Z</time>
      </trkpt>
      <trkpt lat="47.34765" lon="-3.1549">
        <ele>7.35</ele>
        <time>2016-08-25T08:27:17Z</time>
      </trkpt>
      <trkpt lat="47.34755" lon="-3.15489">
        <ele>7.35</ele>
        <time>2016-08-25T08:27:26Z</time>
      </trkpt>
      <trkpt lat="47.34742" lon="-3.15488">
        <ele>7.35</ele>
        <time>2016-08-25T08:27:39Z</time>
      </trkpt>
      <trkpt lat="47.34726" lon="-3.15486">
        <ele>6.87</ele>
        <time>2016-08-25T08:27:55Z</time>
      </trkpt>
      <trkpt lat="47.34715" lon="-3.15481">
        <ele>6.87</ele>
        <time>2016-08-25T08:28:11Z</time>
      </trkpt>
      <trkpt lat="47.34715" lon="-3.15485">
        <ele>6.87</ele>
        <time>2016-08-25T08:28:15Z</time>
      </trkpt>
      <trkpt lat="47.34711" lon="-3.15486">
        <ele>7.35</ele>
        <time>2016-08-25T08:28:27Z</time>
      </trkpt>
      <trkpt lat="47.34709" lon="-3.15489">
        <ele>7.83</ele>
        <time>2016-08-25T08:28:32Z</time>
      </trkpt>
      <trkpt lat="47.34711" lon="-3.15493">
        <ele>7.83</ele>
        <time>2016-08-25T08:28:35Z</time>
      </trkpt>
      <trkpt lat="47.34713" lon="-3.15503">
        <ele>7.35</ele>
        <time>2016-08-25T08:28:42Z</time>
      </trkpt>
      <trkpt lat="47.34712" lon="-3.15508">
        <ele>7.83</ele>
        <time>2016-08-25T08:28:48Z</time>
      </trkpt>
      <trkpt lat="47.34713" lon="-3.15526">
        <ele>7.35</ele>
        <time>2016-08-25T08:28:59Z</time>
      </trkpt>
      <trkpt lat="47.34714" lon="-3.15538">
        <ele>7.35</ele>
        <time>2016-08-25T08:29:06Z</time>
      </trkpt>
      <trkpt lat="47.34717" lon="-3.15551">
        <ele>5.42</ele>
        <time>2016-08-25T08:29:21Z</time>
      </trkpt>
      <trkpt lat="47.34717" lon="-3.15553">
        <ele>5.42</ele>
        <time>2016-08-25T08:29:25Z</time>
      </trkpt>
      <trkpt lat="47.34718" lon="-3.1557">
        <ele>6.39</ele>
        <time>2016-08-25T08:29:38Z</time>
      </trkpt>
      <trkpt lat="47.34722" lon="-3.15598">
        <ele>4.94</ele>
        <time>2016-08-25T08:29:55Z</time>
      </trkpt>
      <trkpt lat="47.34727" lon="-3.15622">
        <ele>4.94</ele>
        <time>2016-08-25T08:30:10Z</time>
      </trkpt>
      <trkpt lat="47.3473" lon="-3.15636">
        <ele>5.42</ele>
        <time>2016-08-25T08:30:23Z</time>
      </trkpt>
      <trkpt lat="47.34732" lon="-3.15638">
        <ele>5.42</ele>
        <time>2016-08-25T08:30:32Z</time>
      </trkpt>
      <trkpt lat="47.34741" lon="-3.15657">
        <ele>4.94</ele>
        <time>2016-08-25T08:30:48Z</time>
      </trkpt>
      <trkpt lat="47.34742" lon="-3.15659">
        <ele>4.46</ele>
        <time>2016-08-25T08:30:50Z</time>
      </trkpt>
      <trkpt lat="47.34748" lon="-3.15671">
        <ele>4.94</ele>
        <time>2016-08-25T08:31:06Z</time>
      </trkpt>
      <trkpt lat="47.34748" lon="-3.15671">
        <ele>4.94</ele>
        <time>2016-08-25T08:31:20Z</time>
      </trkpt>
      <trkpt lat="47.34748" lon="-3.15671">
        <ele>5.42</ele>
        <time>2016-08-25T08:31:43Z</time>
      </trkpt>
      <trkpt lat="47.34749" lon="-3.15672">
        <ele>4.94</ele>
        <time>2016-08-25T08:32:04Z</time>
      </trkpt>
      <trkpt lat="47.34749" lon="-3.15673">
        <ele>4.94</ele>
        <time>2016-08-25T08:32:24Z</time>
      </trkpt>
      <trkpt lat="47.34751" lon="-3.15673">
        <ele>5.42</ele>
        <time>2016-08-25T08:32:45Z</time>
      </trkpt>
      <trkpt lat="47.3475" lon="-3.15674">
        <ele>5.42</ele>
        <time>2016-08-25T08:33:05Z</time>
      </trkpt>
      <trkpt lat="47.3475" lon="-3.15674">
        <ele>5.42</ele>
        <time>2016-08-25T08:33:18Z</time>
      </trkpt>
      <trkpt lat="47.3475" lon="-3.15674">
        <ele>5.42</ele>
        <time>2016-08-25T08:33:37Z</time>
      </trkpt>
      <trkpt lat="47.34751" lon="-3.15675">
        <ele>4.94</ele>
        <time>2016-08-25T08:33:57Z</time>
      </trkpt>
      <trkpt lat="47.34752" lon="-3.15678">
        <ele>4.94</ele>
        <time>2016-08-25T08:34:16Z</time>
      </trkpt>
      <trkpt lat="47.34762" lon="-3.15689">
        <ele>5.42</ele>
        <time>2016-08-25T08:34:29Z</time>
      </trkpt>
      <trkpt lat="47.34777" lon="-3.15697">
        <ele>6.39</ele>
        <time>2016-08-25T08:34:44Z</time>
      </trkpt>
      <trkpt lat="47.34788" lon="-3.15708">
        <ele>7.83</ele>
        <time>2016-08-25T08:34:59Z</time>
      </trkpt>
      <trkpt lat="47.34789" lon="-3.15709">
        <ele>7.83</ele>
        <time>2016-08-25T08:35:00Z</time>
      </trkpt>
      <trkpt lat="47.34792" lon="-3.1572">
        <ele>7.35</ele>
        <time>2016-08-25T08:35:08Z</time>
      </trkpt>
      <trkpt lat="47.34806" lon="-3.15717">
        <ele>6.87</ele>
        <time>2016-08-25T08:35:20Z</time>
      </trkpt>
      <trkpt lat="47.34819" lon="-3.15719">
        <ele>8.31</ele>
        <time>2016-08-25T08:35:37Z</time>
      </trkpt>
      <trkpt lat="47.34819" lon="-3.15719">
        <ele>8.79</ele>
        <time>2016-08-25T08:35:41Z</time>
      </trkpt>
      <trkpt lat="47.34825" lon="-3.15726">
        <ele>8.79</ele>
        <time>2016-08-25T08:35:48Z</time>
      </trkpt>
      <trkpt lat="47.34832" lon="-3.15708">
        <ele>10.23</ele>
        <time>2016-08-25T08:35:56Z</time>
      </trkpt>
      <trkpt lat="47.34846" lon="-3.15695">
        <ele>14.56</ele>
        <time>2016-08-25T08:36:07Z</time>
      </trkpt>
      <trkpt lat="47.34853" lon="-3.15688">
        <ele>16.48</ele>
        <time>2016-08-25T08:36:15Z</time>
      </trkpt>
      <trkpt lat="47.34851" lon="-3.15665">
        <ele>16.48</ele>
        <time>2016-08-25T08:36:31Z</time>
      </trkpt>
      <trkpt lat="47.34846" lon="-3.15652">
        <ele>16.48</ele>
        <time>2016-08-25T08:36:40Z</time>
      </trkpt>
      <trkpt lat="47.3484" lon="-3.15628">
        <ele>16.48</ele>
        <time>2016-08-25T08:36:58Z</time>
      </trkpt>
      <trkpt lat="47.34857" lon="-3.15612">
        <ele>16.96</ele>
        <time>2016-08-25T08:37:14Z</time>
      </trkpt>
      <trkpt lat="47.34877" lon="-3.15597">
        <ele>18.88</ele>
        <time>2016-08-25T08:37:31Z</time>
      </trkpt>
      <trkpt lat="47.34891" lon="-3.15576">
        <ele>25.13</ele>
        <time>2016-08-25T08:37:50Z</time>
      </trkpt>
      <trkpt lat="47.34912" lon="-3.15562">
        <ele>31.38</ele>
        <time>2016-08-25T08:38:10Z</time>
      </trkpt>
      <trkpt lat="47.34929" lon="-3.15564">
        <ele>38.11</ele>
        <time>2016-08-25T08:38:26Z</time>
      </trkpt>
      <trkpt lat="47.34946" lon="-3.1558">
        <ele>42.44</ele>
        <time>2016-08-25T08:38:44Z</time>
      </trkpt>
      <trkpt lat="47.34966" lon="-3.15594">
        <ele>43.88</ele>
        <time>2016-08-25T08:39:02Z</time>
      </trkpt>
      <trkpt lat="47.34968" lon="-3.15591">
        <ele>43.88</ele>
        <time>2016-08-25T08:39:05Z</time>
      </trkpt>
      <trkpt lat="47.34969" lon="-3.15588">
        <ele>43.88</ele>
        <time>2016-08-25T08:39:07Z</time>
      </trkpt>
      <trkpt lat="47.34977" lon="-3.15554">
        <ele>40.51</ele>
        <time>2016-08-25T08:39:27Z</time>
      </trkpt>
      <trkpt lat="47.3498" lon="-3.15526">
        <ele>41.95</ele>
        <time>2016-08-25T08:39:43Z</time>
      </trkpt>
      <trkpt lat="47.34981" lon="-3.15521">
        <ele>41.95</ele>
        <time>2016-08-25T08:39:46Z</time>
      </trkpt>
      <trkpt lat="47.34992" lon="-3.15496">
        <ele>44.84</ele>
        <time>2016-08-25T08:40:04Z</time>
      </trkpt>
      <trkpt lat="47.34997" lon="-3.1548">
        <ele>39.07</ele>
        <time>2016-08-25T08:40:17Z</time>
      </trkpt>
      <trkpt lat="47.34995" lon="-3.15474">
        <ele>38.11</ele>
        <time>2016-08-25T08:40:21Z</time>
      </trkpt>
      <trkpt lat="47.34983" lon="-3.15462">
        <ele>33.78</ele>
        <time>2016-08-25T08:40:36Z</time>
      </trkpt>
      <trkpt lat="47.34967" lon="-3.15456">
        <ele>33.78</ele>
        <time>2016-08-25T08:40:55Z</time>
      </trkpt>
      <trkpt lat="47.3498" lon="-3.15464">
        <ele>21.77</ele>
        <time>2016-08-25T08:43:32Z</time>
      </trkpt>
      <trkpt lat="47.34993" lon="-3.15471">
        <ele>35.71</ele>
        <time>2016-08-25T08:43:43Z</time>
      </trkpt>
      <trkpt lat="47.34998" lon="-3.15477">
        <ele>40.51</ele>
        <time>2016-08-25T08:43:55Z</time>
      </trkpt>
      <trkpt lat="47.35017" lon="-3.15491">
        <ele>41.47</ele>
        <time>2016-08-25T08:44:11Z</time>
      </trkpt>
      <trkpt lat="47.3504" lon="-3.15489">
        <ele>40.51</ele>
        <time>2016-08-25T08:44:28Z</time>
      </trkpt>
      <trkpt lat="47.35059" lon="-3.15483">
        <ele>39.07</ele>
        <time>2016-08-25T08:44:45Z</time>
      </trkpt>
      <trkpt lat="47.35076" lon="-3.15472">
        <ele>36.67</ele>
        <time>2016-08-25T08:45:01Z</time>
      </trkpt>
      <trkpt lat="47.35084" lon="-3.15465">
        <ele>37.63</ele>
        <time>2016-08-25T08:45:11Z</time>
      </trkpt>
      <trkpt lat="47.35092" lon="-3.15464">
        <ele>38.11</ele>
        <time>2016-08-25T08:45:18Z</time>
      </trkpt>
      <trkpt lat="47.35099" lon="-3.15468">
        <ele>39.07</ele>
        <time>2016-08-25T08:45:25Z</time>
      </trkpt>
      <trkpt lat="47.35117" lon="-3.15477">
        <ele>40.99</ele>
        <time>2016-08-25T08:45:42Z</time>
      </trkpt>
      <trkpt lat="47.35122" lon="-3.15473">
        <ele>40.51</ele>
        <time>2016-08-25T08:45:55Z</time>
      </trkpt>
      <trkpt lat="47.35122" lon="-3.1547">
        <ele>39.55</ele>
        <time>2016-08-25T08:46:18Z</time>
      </trkpt>
      <trkpt lat="47.35123" lon="-3.1547">
        <ele>38.59</ele>
        <time>2016-08-25T08:46:40Z</time>
      </trkpt>
      <trkpt lat="47.35123" lon="-3.15471">
        <ele>37.63</ele>
        <time>2016-08-25T08:46:58Z</time>
      </trkpt>
      <trkpt lat="47.35124" lon="-3.15471">
        <ele>37.63</ele>
        <time>2016-08-25T08:47:00Z</time>
      </trkpt>
      <trkpt lat="47.35116" lon="-3.15474">
        <ele>37.15</ele>
        <time>2016-08-25T08:47:08Z</time>
      </trkpt>
      <trkpt lat="47.35115" lon="-3.15473">
        <ele>37.15</ele>
        <time>2016-08-25T08:47:09Z</time>
      </trkpt>
      <trkpt lat="47.35101" lon="-3.15464">
        <ele>37.63</ele>
        <time>2016-08-25T08:47:24Z</time>
      </trkpt>
      <trkpt lat="47.35094" lon="-3.15462">
        <ele>37.63</ele>
        <time>2016-08-25T08:47:30Z</time>
      </trkpt>
      <trkpt lat="47.3509" lon="-3.15459">
        <ele>37.63</ele>
        <time>2016-08-25T08:47:41Z</time>
      </trkpt>
      <trkpt lat="47.35091" lon="-3.15459">
        <ele>37.15</ele>
        <time>2016-08-25T08:47:55Z</time>
      </trkpt>
      <trkpt lat="47.35089" lon="-3.15459">
        <ele>36.67</ele>
        <time>2016-08-25T08:48:05Z</time>
      </trkpt>
      <trkpt lat="47.35088" lon="-3.15458">
        <ele>34.74</ele>
        <time>2016-08-25T08:48:39Z</time>
      </trkpt>
      <trkpt lat="47.35087" lon="-3.15458">
        <ele>34.26</ele>
        <time>2016-08-25T08:49:11Z</time>
      </trkpt>
      <trkpt lat="47.35087" lon="-3.15457">
        <ele>33.78</ele>
        <time>2016-08-25T08:49:39Z</time>
      </trkpt>
      <trkpt lat="47.35084" lon="-3.1546">
        <ele>33.78</ele>
        <time>2016-08-25T08:50:00Z</time>
      </trkpt>
      <trkpt lat="47.35077" lon="-3.15472">
        <ele>33.78</ele>
        <time>2016-08-25T08:50:14Z</time>
      </trkpt>
      <trkpt lat="47.35068" lon="-3.1548">
        <ele>34.74</ele>
        <time>2016-08-25T08:50:28Z</time>
      </trkpt>
      <trkpt lat="47.35051" lon="-3.15483">
        <ele>38.59</ele>
        <time>2016-08-25T08:50:44Z</time>
      </trkpt>
      <trkpt lat="47.35038" lon="-3.15487">
        <ele>38.59</ele>
        <time>2016-08-25T08:50:58Z</time>
      </trkpt>
      <trkpt lat="47.35024" lon="-3.15488">
        <ele>38.59</ele>
        <time>2016-08-25T08:51:12Z</time>
      </trkpt>
      <trkpt lat="47.35013" lon="-3.15485">
        <ele>39.55</ele>
        <time>2016-08-25T08:51:25Z</time>
      </trkpt>
      <trkpt lat="47.35005" lon="-3.15477">
        <ele>37.15</ele>
        <time>2016-08-25T08:51:37Z</time>
      </trkpt>
      <trkpt lat="47.34999" lon="-3.15484">
        <ele>36.19</ele>
        <time>2016-08-25T08:51:50Z</time>
      </trkpt>
      <trkpt lat="47.34994" lon="-3.15501">
        <ele>35.23</ele>
        <time>2016-08-25T08:51:59Z</time>
      </trkpt>
      <trkpt lat="47.34988" lon="-3.15522">
        <ele>32.34</ele>
        <time>2016-08-25T08:52:12Z</time>
      </trkpt>
      <trkpt lat="47.34988" lon="-3.15524">
        <ele>32.34</ele>
        <time>2016-08-25T08:52:13Z</time>
      </trkpt>
      <trkpt lat="47.34987" lon="-3.15532">
        <ele>31.86</ele>
        <time>2016-08-25T08:52:17Z</time>
      </trkpt>
      <trkpt lat="47.34986" lon="-3.15542">
        <ele>31.86</ele>
        <time>2016-08-25T08:52:23Z</time>
      </trkpt>
      <trkpt lat="47.34981" lon="-3.15554">
        <ele>30.42</ele>
        <time>2016-08-25T08:52:31Z</time>
      </trkpt>
      <trkpt lat="47.34979" lon="-3.15565">
        <ele>28.98</ele>
        <time>2016-08-25T08:52:38Z</time>
      </trkpt>
      <trkpt lat="47.34977" lon="-3.15572">
        <ele>28.02</ele>
        <time>2016-08-25T08:52:42Z</time>
      </trkpt>
      <trkpt lat="47.34972" lon="-3.15593">
        <ele>26.57</ele>
        <time>2016-08-25T08:52:57Z</time>
      </trkpt>
      <trkpt lat="47.34971" lon="-3.15596">
        <ele>27.05</ele>
        <time>2016-08-25T08:52:59Z</time>
      </trkpt>
      <trkpt lat="47.34953" lon="-3.15582">
        <ele>34.74</ele>
        <time>2016-08-25T08:53:17Z</time>
      </trkpt>
      <trkpt lat="47.34939" lon="-3.15571">
        <ele>39.55</ele>
        <time>2016-08-25T08:53:31Z</time>
      </trkpt>
      <trkpt lat="47.34918" lon="-3.1556">
        <ele>40.03</ele>
        <time>2016-08-25T08:53:48Z</time>
      </trkpt>
      <trkpt lat="47.34916" lon="-3.15561">
        <ele>40.99</ele>
        <time>2016-08-25T08:53:51Z</time>
      </trkpt>
      <trkpt lat="47.34915" lon="-3.15565">
        <ele>40.99</ele>
        <time>2016-08-25T08:53:54Z</time>
      </trkpt>
      <trkpt lat="47.34902" lon="-3.15582">
        <ele>42.92</ele>
        <time>2016-08-25T08:54:09Z</time>
      </trkpt>
      <trkpt lat="47.34874" lon="-3.15591">
        <ele>46.76</ele>
        <time>2016-08-25T08:54:26Z</time>
      </trkpt>
      <trkpt lat="47.34853" lon="-3.15603">
        <ele>53.49</ele>
        <time>2016-08-25T08:54:42Z</time>
      </trkpt>
      <trkpt lat="47.34831" lon="-3.15614">
        <ele>57.34</ele>
        <time>2016-08-25T08:54:57Z</time>
      </trkpt>
      <trkpt lat="47.3483" lon="-3.15621">
        <ele>56.86</ele>
        <time>2016-08-25T08:55:08Z</time>
      </trkpt>
      <trkpt lat="47.34849" lon="-3.15652">
        <ele>39.07</ele>
        <time>2016-08-25T08:55:18Z</time>
      </trkpt>
      <trkpt lat="47.34849" lon="-3.15653">
        <ele>27.53</ele>
        <time>2016-08-25T08:55:34Z</time>
      </trkpt>
      <trkpt lat="47.3485" lon="-3.15654">
        <ele>27.05</ele>
        <time>2016-08-25T08:55:38Z</time>
      </trkpt>
      <trkpt lat="47.34847" lon="-3.15661">
        <ele>28.98</ele>
        <time>2016-08-25T08:55:47Z</time>
      </trkpt>
      <trkpt lat="47.34849" lon="-3.15673">
        <ele>36.19</ele>
        <time>2016-08-25T08:55:57Z</time>
      </trkpt>
      <trkpt lat="47.34848" lon="-3.15683">
        <ele>35.71</ele>
        <time>2016-08-25T08:56:06Z</time>
      </trkpt>
      <trkpt lat="47.34839" lon="-3.15692">
        <ele>33.78</ele>
        <time>2016-08-25T08:56:17Z</time>
      </trkpt>
      <trkpt lat="47.34837" lon="-3.15697">
        <ele>31.38</ele>
        <time>2016-08-25T08:56:28Z</time>
      </trkpt>
      <trkpt lat="47.34832" lon="-3.15705">
        <ele>28.98</ele>
        <time>2016-08-25T08:56:35Z</time>
      </trkpt>
      <trkpt lat="47.34824" lon="-3.1572">
        <ele>21.29</ele>
        <time>2016-08-25T08:56:46Z</time>
      </trkpt>
      <trkpt lat="47.34812" lon="-3.15712">
        <ele>16.96</ele>
        <time>2016-08-25T08:57:02Z</time>
      </trkpt>
      <trkpt lat="47.3481" lon="-3.15711">
        <ele>16.48</ele>
        <time>2016-08-25T08:57:14Z</time>
      </trkpt>
      <trkpt lat="47.34815" lon="-3.15715">
        <ele>19.36</ele>
        <time>2016-08-25T08:57:28Z</time>
      </trkpt>
      <trkpt lat="47.34814" lon="-3.15715">
        <ele>19.36</ele>
        <time>2016-08-25T08:57:29Z</time>
      </trkpt>
      <trkpt lat="47.3481" lon="-3.15713">
        <ele>17.44</ele>
        <time>2016-08-25T08:57:42Z</time>
      </trkpt>
      <trkpt lat="47.3481" lon="-3.15712">
        <ele>15.52</ele>
        <time>2016-08-25T08:57:53Z</time>
      </trkpt>
      <trkpt lat="47.3481" lon="-3.15713">
        <ele>14.56</ele>
        <time>2016-08-25T08:58:08Z</time>
      </trkpt>
      <trkpt lat="47.34809" lon="-3.15712">
        <ele>13.6</ele>
        <time>2016-08-25T08:58:31Z</time>
      </trkpt>
      <trkpt lat="47.34809" lon="-3.15713">
        <ele>12.15</ele>
        <time>2016-08-25T08:58:57Z</time>
      </trkpt>
      <trkpt lat="47.34809" lon="-3.15713">
        <ele>11.67</ele>
        <time>2016-08-25T08:59:17Z</time>
      </trkpt>
      <trkpt lat="47.3481" lon="-3.15714">
        <ele>11.67</ele>
        <time>2016-08-25T08:59:38Z</time>
      </trkpt>
      <trkpt lat="47.34809" lon="-3.15714">
        <ele>11.19</ele>
        <time>2016-08-25T08:59:54Z</time>
      </trkpt>
      <trkpt lat="47.34809" lon="-3.15719">
        <ele>10.71</ele>
        <time>2016-08-25T09:00:11Z</time>
      </trkpt>
      <trkpt lat="47.34809" lon="-3.15721">
        <ele>10.23</ele>
        <time>2016-08-25T09:00:38Z</time>
      </trkpt>
      <trkpt lat="47.3481" lon="-3.15718">
        <ele>9.27</ele>
        <time>2016-08-25T09:00:53Z</time>
      </trkpt>
      <trkpt lat="47.34809" lon="-3.15716">
        <ele>8.31</ele>
        <time>2016-08-25T09:01:21Z</time>
      </trkpt>
      <trkpt lat="47.3481" lon="-3.15716">
        <ele>8.31</ele>
        <time>2016-08-25T09:01:48Z</time>
      </trkpt>
      <trkpt lat="47.3481" lon="-3.15716">
        <ele>8.31</ele>
        <time>2016-08-25T09:02:10Z</time>
      </trkpt>
      <trkpt lat="47.34805" lon="-3.15718">
        <ele>7.83</ele>
        <time>2016-08-25T09:02:22Z</time>
      </trkpt>
      <trkpt lat="47.34799" lon="-3.15719">
        <ele>8.31</ele>
        <time>2016-08-25T09:02:36Z</time>
      </trkpt>
      <trkpt lat="47.34798" lon="-3.15719">
        <ele>8.79</ele>
        <time>2016-08-25T09:02:50Z</time>
      </trkpt>
      <trkpt lat="47.34798" lon="-3.15719">
        <ele>8.79</ele>
        <time>2016-08-25T09:02:51Z</time>
      </trkpt>
      <trkpt lat="47.34757" lon="-3.14537">
        <ele>6.39</ele>
        <time>2016-08-25T09:55:17Z</time>
      </trkpt>
      <trkpt lat="47.34765" lon="-3.14506">
        <ele>1.1</ele>
        <time>2016-08-25T09:55:31Z</time>
      </trkpt>
      <trkpt lat="47.34783" lon="-3.14452">
        <ele>2.06</ele>
        <time>2016-08-25T09:55:55Z</time>
      </trkpt>
      <trkpt lat="47.34794" lon="-3.14419">
        <ele>2.54</ele>
        <time>2016-08-25T09:56:10Z</time>
      </trkpt>
      <trkpt lat="47.34803" lon="-3.14385">
        <ele>2.54</ele>
        <time>2016-08-25T09:56:25Z</time>
      </trkpt>
      <trkpt lat="47.34823" lon="-3.14346">
        <ele>3.02</ele>
        <time>2016-08-25T09:56:45Z</time>
      </trkpt>
      <trkpt lat="47.34846" lon="-3.14315">
        <ele>3.02</ele>
        <time>2016-08-25T09:57:03Z</time>
      </trkpt>
      <trkpt lat="47.34854" lon="-3.14302">
        <ele>3.02</ele>
        <time>2016-08-25T09:57:10Z</time>
      </trkpt>
      <trkpt lat="47.34855" lon="-3.14298">
        <ele>2.54</ele>
        <time>2016-08-25T09:57:12Z</time>
      </trkpt>
      <trkpt lat="47.34861" lon="-3.14278">
        <ele>1.58</ele>
        <time>2016-08-25T09:57:21Z</time>
      </trkpt>
      <trkpt lat="47.34872" lon="-3.14242">
        <ele>1.58</ele>
        <time>2016-08-25T09:57:37Z</time>
      </trkpt>
      <trkpt lat="47.34883" lon="-3.14204">
        <ele>1.58</ele>
        <time>2016-08-25T09:57:54Z</time>
      </trkpt>
      <trkpt lat="47.34892" lon="-3.1417">
        <ele>2.06</ele>
        <time>2016-08-25T09:58:09Z</time>
      </trkpt>
      <trkpt lat="47.349" lon="-3.14136">
        <ele>1.58</ele>
        <time>2016-08-25T09:58:24Z</time>
      </trkpt>
      <trkpt lat="47.34916" lon="-3.14086">
        <ele>1.58</ele>
        <time>2016-08-25T09:58:46Z</time>
      </trkpt>
      <trkpt lat="47.34927" lon="-3.14038">
        <ele>1.1</ele>
        <time>2016-08-25T09:59:07Z</time>
      </trkpt>
      <trkpt lat="47.3494" lon="-3.13997">
        <ele>1.58</ele>
        <time>2016-08-25T09:59:26Z</time>
      </trkpt>
      <trkpt lat="47.34956" lon="-3.13951">
        <ele>2.54</ele>
        <time>2016-08-25T09:59:48Z</time>
      </trkpt>
      <trkpt lat="47.34968" lon="-3.13907">
        <ele>2.54</ele>
        <time>2016-08-25T10:00:09Z</time>
      </trkpt>
      <trkpt lat="47.34978" lon="-3.13851">
        <ele>1.58</ele>
        <time>2016-08-25T10:00:35Z</time>
      </trkpt>
      <trkpt lat="47.34989" lon="-3.13804">
        <ele>1.58</ele>
        <time>2016-08-25T10:00:57Z</time>
      </trkpt>
      <trkpt lat="47.34999" lon="-3.13759">
        <ele>2.54</ele>
        <time>2016-08-25T10:01:18Z</time>
      </trkpt>
      <trkpt lat="47.35011" lon="-3.13718">
        <ele>2.54</ele>
        <time>2016-08-25T10:01:38Z</time>
      </trkpt>
      <trkpt lat="47.35022" lon="-3.13666">
        <ele>2.54</ele>
        <time>2016-08-25T10:02:02Z</time>
      </trkpt>
      <trkpt lat="47.35033" lon="-3.13617">
        <ele>2.54</ele>
        <time>2016-08-25T10:02:25Z</time>
      </trkpt>
      <trkpt lat="47.35041" lon="-3.13569">
        <ele>3.02</ele>
        <time>2016-08-25T10:02:47Z</time>
      </trkpt>
      <trkpt lat="47.35045" lon="-3.13518">
        <ele>2.54</ele>
        <time>2016-08-25T10:03:11Z</time>
      </trkpt>
      <trkpt lat="47.35047" lon="-3.13466">
        <ele>2.54</ele>
        <time>2016-08-25T10:03:34Z</time>
      </trkpt>
      <trkpt lat="47.3505" lon="-3.13421">
        <ele>2.54</ele>
        <time>2016-08-25T10:03:55Z</time>
      </trkpt>
      <trkpt lat="47.35036" lon="-3.13381">
        <ele>2.06</ele>
        <time>2016-08-25T10:04:15Z</time>
      </trkpt>
      <trkpt lat="47.35003" lon="-3.13354">
        <ele>2.06</ele>
        <time>2016-08-25T10:04:38Z</time>
      </trkpt>
      <trkpt lat="47.34972" lon="-3.13357">
        <ele>2.54</ele>
        <time>2016-08-25T10:04:56Z</time>
      </trkpt>
      <trkpt lat="47.34945" lon="-3.13342">
        <ele>3.02</ele>
        <time>2016-08-25T10:05:15Z</time>
      </trkpt>
      <trkpt lat="47.34945" lon="-3.13289">
        <ele>3.02</ele>
        <time>2016-08-25T10:05:39Z</time>
      </trkpt>
      <trkpt lat="47.34944" lon="-3.13236">
        <ele>2.06</ele>
        <time>2016-08-25T10:06:02Z</time>
      </trkpt>
      <trkpt lat="47.34932" lon="-3.13183">
        <ele>2.06</ele>
        <time>2016-08-25T10:06:27Z</time>
      </trkpt>
      <trkpt lat="47.34928" lon="-3.13139">
        <ele>2.06</ele>
        <time>2016-08-25T10:06:48Z</time>
      </trkpt>
      <trkpt lat="47.34933" lon="-3.131">
        <ele>3.98</ele>
        <time>2016-08-25T10:07:15Z</time>
      </trkpt>
      <trkpt lat="47.34934" lon="-3.1307">
        <ele>2.54</ele>
        <time>2016-08-25T10:07:41Z</time>
      </trkpt>
      <trkpt lat="47.3494" lon="-3.13042">
        <ele>2.54</ele>
        <time>2016-08-25T10:08:06Z</time>
      </trkpt>
      <trkpt lat="47.34941" lon="-3.13013">
        <ele>2.54</ele>
        <time>2016-08-25T10:08:32Z</time>
      </trkpt>
      <trkpt lat="47.34948" lon="-3.12985">
        <ele>2.06</ele>
        <time>2016-08-25T10:08:56Z</time>
      </trkpt>
      <trkpt lat="47.34959" lon="-3.12958">
        <ele>2.54</ele>
        <time>2016-08-25T10:09:19Z</time>
      </trkpt>
      <trkpt lat="47.34981" lon="-3.12919">
        <ele>3.02</ele>
        <time>2016-08-25T10:09:44Z</time>
      </trkpt>
      <trkpt lat="47.34996" lon="-3.12868">
        <ele>2.54</ele>
        <time>2016-08-25T10:10:11Z</time>
      </trkpt>
      <trkpt lat="47.35016" lon="-3.12822">
        <ele>2.54</ele>
        <time>2016-08-25T10:10:37Z</time>
      </trkpt>
      <trkpt lat="47.35039" lon="-3.12766">
        <ele>1.58</ele>
        <time>2016-08-25T10:11:05Z</time>
      </trkpt>
      <trkpt lat="47.35054" lon="-3.12707">
        <ele>2.06</ele>
        <time>2016-08-25T10:11:29Z</time>
      </trkpt>
      <trkpt lat="47.35079" lon="-3.12636">
        <ele>2.06</ele>
        <time>2016-08-25T10:11:57Z</time>
      </trkpt>
      <trkpt lat="47.35088" lon="-3.12597">
        <ele>3.02</ele>
        <time>2016-08-25T10:12:12Z</time>
      </trkpt>
      <trkpt lat="47.35095" lon="-3.1257">
        <ele>2.54</ele>
        <time>2016-08-25T10:12:23Z</time>
      </trkpt>
      <trkpt lat="47.35106" lon="-3.12521">
        <ele>2.54</ele>
        <time>2016-08-25T10:12:43Z</time>
      </trkpt>
      <trkpt lat="47.35106" lon="-3.12486">
        <ele>2.54</ele>
        <time>2016-08-25T10:13:01Z</time>
      </trkpt>
      <trkpt lat="47.35115" lon="-3.12444">
        <ele>3.02</ele>
        <time>2016-08-25T10:13:22Z</time>
      </trkpt>
      <trkpt lat="47.35129" lon="-3.12401">
        <ele>3.02</ele>
        <time>2016-08-25T10:13:40Z</time>
      </trkpt>
      <trkpt lat="47.35142" lon="-3.12356">
        <ele>2.54</ele>
        <time>2016-08-25T10:13:59Z</time>
      </trkpt>
      <trkpt lat="47.3515" lon="-3.12316">
        <ele>2.54</ele>
        <time>2016-08-25T10:14:16Z</time>
      </trkpt>
      <trkpt lat="47.35161" lon="-3.1227">
        <ele>3.02</ele>
        <time>2016-08-25T10:14:36Z</time>
      </trkpt>
      <trkpt lat="47.35172" lon="-3.12226">
        <ele>2.06</ele>
        <time>2016-08-25T10:14:57Z</time>
      </trkpt>
      <trkpt lat="47.35187" lon="-3.12183">
        <ele>2.54</ele>
        <time>2016-08-25T10:15:19Z</time>
      </trkpt>
      <trkpt lat="47.352" lon="-3.12151">
        <ele>2.54</ele>
        <time>2016-08-25T10:15:36Z</time>
      </trkpt>
      <trkpt lat="47.35209" lon="-3.12129">
        <ele>3.5</ele>
        <time>2016-08-25T10:15:49Z</time>
      </trkpt>
      <trkpt lat="47.35225" lon="-3.12096">
        <ele>3.02</ele>
        <time>2016-08-25T10:16:11Z</time>
      </trkpt>
      <trkpt lat="47.35236" lon="-3.12065">
        <ele>3.02</ele>
        <time>2016-08-25T10:16:31Z</time>
      </trkpt>
      <trkpt lat="47.35248" lon="-3.12028">
        <ele>4.46</ele>
        <time>2016-08-25T10:16:56Z</time>
      </trkpt>
      <trkpt lat="47.35253" lon="-3.12008">
        <ele>4.46</ele>
        <time>2016-08-25T10:17:11Z</time>
      </trkpt>
      <trkpt lat="47.35261" lon="-3.11986">
        <ele>3.98</ele>
        <time>2016-08-25T10:17:29Z</time>
      </trkpt>
      <trkpt lat="47.35273" lon="-3.11964">
        <ele>3.5</ele>
        <time>2016-08-25T10:17:48Z</time>
      </trkpt>
      <trkpt lat="47.35274" lon="-3.11963">
        <ele>3.5</ele>
        <time>2016-08-25T10:17:49Z</time>
      </trkpt>
      <trkpt lat="47.35276" lon="-3.11961">
        <ele>3.02</ele>
        <time>2016-08-25T10:17:51Z</time>
      </trkpt>
      <trkpt lat="47.35283" lon="-3.11945">
        <ele>2.54</ele>
        <time>2016-08-25T10:18:05Z</time>
      </trkpt>
      <trkpt lat="47.35287" lon="-3.11929">
        <ele>2.54</ele>
        <time>2016-08-25T10:18:19Z</time>
      </trkpt>
      <trkpt lat="47.35289" lon="-3.11925">
        <ele>2.06</ele>
        <time>2016-08-25T10:18:23Z</time>
      </trkpt>
      <trkpt lat="47.35295" lon="-3.11913">
        <ele>2.06</ele>
        <time>2016-08-25T10:18:36Z</time>
      </trkpt>
      <trkpt lat="47.35305" lon="-3.11897">
        <ele>2.06</ele>
        <time>2016-08-25T10:18:55Z</time>
      </trkpt>
      <trkpt lat="47.35311" lon="-3.11887">
        <ele>2.06</ele>
        <time>2016-08-25T10:19:09Z</time>
      </trkpt>
      <trkpt lat="47.35318" lon="-3.11882">
        <ele>1.58</ele>
        <time>2016-08-25T10:19:20Z</time>
      </trkpt>
      <trkpt lat="47.3533" lon="-3.11872">
        <ele>1.58</ele>
        <time>2016-08-25T10:19:40Z</time>
      </trkpt>
      <trkpt lat="47.35338" lon="-3.11865">
        <ele>1.58</ele>
        <time>2016-08-25T10:19:53Z</time>
      </trkpt>
      <trkpt lat="47.35342" lon="-3.11859">
        <ele>1.1</ele>
        <time>2016-08-25T10:20:09Z</time>
      </trkpt>
      <trkpt lat="47.35349" lon="-3.11851">
        <ele>1.58</ele>
        <time>2016-08-25T10:20:30Z</time>
      </trkpt>
      <trkpt lat="47.35352" lon="-3.11845">
        <ele>2.54</ele>
        <time>2016-08-25T10:20:44Z</time>
      </trkpt>
      <trkpt lat="47.35354" lon="-3.11841">
        <ele>2.06</ele>
        <time>2016-08-25T10:20:55Z</time>
      </trkpt>
      <trkpt lat="47.35354" lon="-3.11839">
        <ele>2.06</ele>
        <time>2016-08-25T10:21:10Z</time>
      </trkpt>
      <trkpt lat="47.35355" lon="-3.11836">
        <ele>1.58</ele>
        <time>2016-08-25T10:21:22Z</time>
      </trkpt>
      <trkpt lat="47.35355" lon="-3.11834">
        <ele>1.1</ele>
        <time>2016-08-25T10:21:36Z</time>
      </trkpt>
      <trkpt lat="47.35355" lon="-3.11831">
        <ele>1.1</ele>
        <time>2016-08-25T10:21:54Z</time>
      </trkpt>
      <trkpt lat="47.35355" lon="-3.11829">
        <ele>1.58</ele>
        <time>2016-08-25T10:22:07Z</time>
      </trkpt>
      <trkpt lat="47.35355" lon="-3.11825">
        <ele>1.58</ele>
        <time>2016-08-25T10:22:26Z</time>
      </trkpt>
      <trkpt lat="47.35355" lon="-3.11822">
        <ele>1.1</ele>
        <time>2016-08-25T10:22:48Z</time>
      </trkpt>
      <trkpt lat="47.35356" lon="-3.1182">
        <ele>1.1</ele>
        <time>2016-08-25T10:23:06Z</time>
      </trkpt>
      <trkpt lat="47.35357" lon="-3.11818">
        <ele>1.58</ele>
        <time>2016-08-25T10:23:26Z</time>
      </trkpt>
      <trkpt lat="47.35358" lon="-3.11818">
        <ele>1.58</ele>
        <time>2016-08-25T10:23:44Z</time>
      </trkpt>
      <trkpt lat="47.3536" lon="-3.11819">
        <ele>2.06</ele>
        <time>2016-08-25T10:24:06Z</time>
      </trkpt>
      <trkpt lat="47.35362" lon="-3.1182">
        <ele>3.02</ele>
        <time>2016-08-25T10:24:31Z</time>
      </trkpt>
      <trkpt lat="47.35363" lon="-3.11822">
        <ele>3.98</ele>
        <time>2016-08-25T10:24:54Z</time>
      </trkpt>
      <trkpt lat="47.35365" lon="-3.11823">
        <ele>3.98</ele>
        <time>2016-08-25T10:25:17Z</time>
      </trkpt>
      <trkpt lat="47.35366" lon="-3.11824">
        <ele>3.98</ele>
        <time>2016-08-25T10:25:38Z</time>
      </trkpt>
      <trkpt lat="47.35368" lon="-3.11825">
        <ele>4.46</ele>
        <time>2016-08-25T10:25:56Z</time>
      </trkpt>
      <trkpt lat="47.35369" lon="-3.11827">
        <ele>4.46</ele>
        <time>2016-08-25T10:26:17Z</time>
      </trkpt>
      <trkpt lat="47.35371" lon="-3.11829">
        <ele>3.5</ele>
        <time>2016-08-25T10:26:28Z</time>
      </trkpt>
      <trkpt lat="47.35373" lon="-3.11832">
        <ele>3.5</ele>
        <time>2016-08-25T10:26:41Z</time>
      </trkpt>
      <trkpt lat="47.35374" lon="-3.11837">
        <ele>3.02</ele>
        <time>2016-08-25T10:27:05Z</time>
      </trkpt>
      <trkpt lat="47.35375" lon="-3.11841">
        <ele>3.02</ele>
        <time>2016-08-25T10:27:26Z</time>
      </trkpt>
      <trkpt lat="47.35376" lon="-3.11844">
        <ele>3.5</ele>
        <time>2016-08-25T10:27:40Z</time>
      </trkpt>
      <trkpt lat="47.35376" lon="-3.11848">
        <ele>4.46</ele>
        <time>2016-08-25T10:27:57Z</time>
      </trkpt>
      <trkpt lat="47.35376" lon="-3.11853">
        <ele>4.46</ele>
        <time>2016-08-25T10:28:11Z</time>
      </trkpt>
      <trkpt lat="47.35377" lon="-3.11862">
        <ele>3.98</ele>
        <time>2016-08-25T10:28:28Z</time>
      </trkpt>
      <trkpt lat="47.35379" lon="-3.11874">
        <ele>4.94</ele>
        <time>2016-08-25T10:28:39Z</time>
      </trkpt>
      <trkpt lat="47.35381" lon="-3.11881">
        <ele>4.46</ele>
        <time>2016-08-25T10:28:47Z</time>
      </trkpt>
      <trkpt lat="47.35383" lon="-3.11889">
        <ele>3.98</ele>
        <time>2016-08-25T10:28:59Z</time>
      </trkpt>
      <trkpt lat="47.35392" lon="-3.11913">
        <ele>3.98</ele>
        <time>2016-08-25T10:29:13Z</time>
      </trkpt>
      <trkpt lat="47.35395" lon="-3.11915">
        <ele>3.02</ele>
        <time>2016-08-25T10:29:15Z</time>
      </trkpt>
      <trkpt lat="47.35413" lon="-3.11895">
        <ele>2.06</ele>
        <time>2016-08-25T10:29:31Z</time>
      </trkpt>
      <trkpt lat="47.35415" lon="-3.11886">
        <ele>2.54</ele>
        <time>2016-08-25T10:29:35Z</time>
      </trkpt>
      <trkpt lat="47.35413" lon="-3.11854">
        <ele>3.5</ele>
        <time>2016-08-25T10:29:48Z</time>
      </trkpt>
      <trkpt lat="47.35409" lon="-3.1182">
        <ele>4.94</ele>
        <time>2016-08-25T10:30:03Z</time>
      </trkpt>
      <trkpt lat="47.35415" lon="-3.11779">
        <ele>7.35</ele>
        <time>2016-08-25T10:30:21Z</time>
      </trkpt>
      <trkpt lat="47.35421" lon="-3.1175">
        <ele>8.31</ele>
        <time>2016-08-25T10:30:33Z</time>
      </trkpt>
      <trkpt lat="47.35428" lon="-3.11708">
        <ele>7.83</ele>
        <time>2016-08-25T10:30:50Z</time>
      </trkpt>
      <trkpt lat="47.35429" lon="-3.11666">
        <ele>8.31</ele>
        <time>2016-08-25T10:31:07Z</time>
      </trkpt>
      <trkpt lat="47.3543" lon="-3.11654">
        <ele>7.83</ele>
        <time>2016-08-25T10:31:12Z</time>
      </trkpt>
      <trkpt lat="47.3544" lon="-3.1162">
        <ele>6.87</ele>
        <time>2016-08-25T10:31:28Z</time>
      </trkpt>
      <trkpt lat="47.35446" lon="-3.11576">
        <ele>4.46</ele>
        <time>2016-08-25T10:31:46Z</time>
      </trkpt>
      <trkpt lat="47.35451" lon="-3.11537">
        <ele>3.5</ele>
        <time>2016-08-25T10:32:02Z</time>
      </trkpt>
      <trkpt lat="47.35461" lon="-3.11492">
        <ele>3.5</ele>
        <time>2016-08-25T10:32:21Z</time>
      </trkpt>
      <trkpt lat="47.3547" lon="-3.11456">
        <ele>3.98</ele>
        <time>2016-08-25T10:32:36Z</time>
      </trkpt>
      <trkpt lat="47.35473" lon="-3.11447">
        <ele>3.5</ele>
        <time>2016-08-25T10:32:40Z</time>
      </trkpt>
      <trkpt lat="47.35489" lon="-3.11397">
        <ele>2.54</ele>
        <time>2016-08-25T10:33:01Z</time>
      </trkpt>
      <trkpt lat="47.35492" lon="-3.11347">
        <ele>3.5</ele>
        <time>2016-08-25T10:33:21Z</time>
      </trkpt>
      <trkpt lat="47.35482" lon="-3.11298">
        <ele>3.98</ele>
        <time>2016-08-25T10:33:41Z</time>
      </trkpt>
      <trkpt lat="47.35481" lon="-3.11256">
        <ele>3.5</ele>
        <time>2016-08-25T10:33:59Z</time>
      </trkpt>
      <trkpt lat="47.35497" lon="-3.11217">
        <ele>3.02</ele>
        <time>2016-08-25T10:34:17Z</time>
      </trkpt>
      <trkpt lat="47.35506" lon="-3.11181">
        <ele>1.58</ele>
        <time>2016-08-25T10:34:31Z</time>
      </trkpt>
      <trkpt lat="47.35512" lon="-3.11152">
        <ele>0.62</ele>
        <time>2016-08-25T10:34:43Z</time>
      </trkpt>
      <trkpt lat="47.35518" lon="-3.11105">
        <ele>-0.34</ele>
        <time>2016-08-25T10:35:02Z</time>
      </trkpt>
      <trkpt lat="47.35517" lon="-3.11062">
        <ele>-0.34</ele>
        <time>2016-08-25T10:35:19Z</time>
      </trkpt>
      <trkpt lat="47.35516" lon="-3.11024">
        <ele>1.1</ele>
        <time>2016-08-25T10:35:34Z</time>
      </trkpt>
      <trkpt lat="47.35513" lon="-3.10986">
        <ele>0.62</ele>
        <time>2016-08-25T10:35:49Z</time>
      </trkpt>
      <trkpt lat="47.35506" lon="-3.10953">
        <ele>0.62</ele>
        <time>2016-08-25T10:36:03Z</time>
      </trkpt>
      <trkpt lat="47.35511" lon="-3.10895">
        <ele>1.58</ele>
        <time>2016-08-25T10:36:25Z</time>
      </trkpt>
      <trkpt lat="47.35519" lon="-3.10831">
        <ele>2.54</ele>
        <time>2016-08-25T10:36:50Z</time>
      </trkpt>
      <trkpt lat="47.35525" lon="-3.10774">
        <ele>2.54</ele>
        <time>2016-08-25T10:37:12Z</time>
      </trkpt>
      <trkpt lat="47.3553" lon="-3.10718">
        <ele>2.54</ele>
        <time>2016-08-25T10:37:34Z</time>
      </trkpt>
      <trkpt lat="47.35535" lon="-3.1066">
        <ele>2.54</ele>
        <time>2016-08-25T10:37:56Z</time>
      </trkpt>
      <trkpt lat="47.35538" lon="-3.10589">
        <ele>2.54</ele>
        <time>2016-08-25T10:38:23Z</time>
      </trkpt>
      <trkpt lat="47.35537" lon="-3.10523">
        <ele>3.02</ele>
        <time>2016-08-25T10:38:48Z</time>
      </trkpt>
      <trkpt lat="47.35533" lon="-3.10464">
        <ele>3.5</ele>
        <time>2016-08-25T10:39:11Z</time>
      </trkpt>
      <trkpt lat="47.35529" lon="-3.10414">
        <ele>2.54</ele>
        <time>2016-08-25T10:39:31Z</time>
      </trkpt>
      <trkpt lat="47.35523" lon="-3.10352">
        <ele>2.54</ele>
        <time>2016-08-25T10:39:56Z</time>
      </trkpt>
      <trkpt lat="47.35531" lon="-3.10292">
        <ele>3.02</ele>
        <time>2016-08-25T10:40:19Z</time>
      </trkpt>
      <trkpt lat="47.35537" lon="-3.10249">
        <ele>3.02</ele>
        <time>2016-08-25T10:40:37Z</time>
      </trkpt>
      <trkpt lat="47.35548" lon="-3.10218">
        <ele>3.02</ele>
        <time>2016-08-25T10:40:59Z</time>
      </trkpt>
      <trkpt lat="47.35561" lon="-3.10187">
        <ele>2.54</ele>
        <time>2016-08-25T10:41:26Z</time>
      </trkpt>
      <trkpt lat="47.35576" lon="-3.10134">
        <ele>1.58</ele>
        <time>2016-08-25T10:41:49Z</time>
      </trkpt>
      <trkpt lat="47.35591" lon="-3.10067">
        <ele>1.58</ele>
        <time>2016-08-25T10:42:15Z</time>
      </trkpt>
      <trkpt lat="47.35606" lon="-3.1001">
        <ele>0.62</ele>
        <time>2016-08-25T10:42:37Z</time>
      </trkpt>
      <trkpt lat="47.35622" lon="-3.09959">
        <ele>0.62</ele>
        <time>2016-08-25T10:42:57Z</time>
      </trkpt>
      <trkpt lat="47.35633" lon="-3.09907">
        <ele>1.1</ele>
        <time>2016-08-25T10:43:17Z</time>
      </trkpt>
      <trkpt lat="47.35652" lon="-3.09845">
        <ele>1.58</ele>
        <time>2016-08-25T10:43:41Z</time>
      </trkpt>
      <trkpt lat="47.35669" lon="-3.09789">
        <ele>1.58</ele>
        <time>2016-08-25T10:44:03Z</time>
      </trkpt>
      <trkpt lat="47.35684" lon="-3.09731">
        <ele>2.06</ele>
        <time>2016-08-25T10:44:25Z</time>
      </trkpt>
      <trkpt lat="47.35699" lon="-3.09669">
        <ele>2.06</ele>
        <time>2016-08-25T10:44:48Z</time>
      </trkpt>
      <trkpt lat="47.35718" lon="-3.09607">
        <ele>2.06</ele>
        <time>2016-08-25T10:45:12Z</time>
      </trkpt>
      <trkpt lat="47.35733" lon="-3.09547">
        <ele>1.1</ele>
        <time>2016-08-25T10:45:35Z</time>
      </trkpt>
      <trkpt lat="47.3575" lon="-3.09489">
        <ele>1.1</ele>
        <time>2016-08-25T10:45:57Z</time>
      </trkpt>
      <trkpt lat="47.35763" lon="-3.09433">
        <ele>1.58</ele>
        <time>2016-08-25T10:46:18Z</time>
      </trkpt>
      <trkpt lat="47.35781" lon="-3.09374">
        <ele>2.06</ele>
        <time>2016-08-25T10:46:41Z</time>
      </trkpt>
      <trkpt lat="47.35795" lon="-3.09316">
        <ele>1.1</ele>
        <time>2016-08-25T10:47:03Z</time>
      </trkpt>
      <trkpt lat="47.35805" lon="-3.09282">
        <ele>2.06</ele>
        <time>2016-08-25T10:47:23Z</time>
      </trkpt>
      <trkpt lat="47.35812" lon="-3.09255">
        <ele>2.06</ele>
        <time>2016-08-25T10:47:47Z</time>
      </trkpt>
      <trkpt lat="47.35827" lon="-3.09232">
        <ele>2.54</ele>
        <time>2016-08-25T10:48:14Z</time>
      </trkpt>
      <trkpt lat="47.35843" lon="-3.09199">
        <ele>3.02</ele>
        <time>2016-08-25T10:48:40Z</time>
      </trkpt>
      <trkpt lat="47.35865" lon="-3.09162">
        <ele>2.54</ele>
        <time>2016-08-25T10:49:05Z</time>
      </trkpt>
      <trkpt lat="47.3588" lon="-3.09126">
        <ele>3.5</ele>
        <time>2016-08-25T10:49:28Z</time>
      </trkpt>
      <trkpt lat="47.35897" lon="-3.09088">
        <ele>3.5</ele>
        <time>2016-08-25T10:49:54Z</time>
      </trkpt>
      <trkpt lat="47.35911" lon="-3.09051">
        <ele>2.54</ele>
        <time>2016-08-25T10:50:20Z</time>
      </trkpt>
      <trkpt lat="47.3593" lon="-3.09015">
        <ele>3.02</ele>
        <time>2016-08-25T10:50:44Z</time>
      </trkpt>
      <trkpt lat="47.35951" lon="-3.08973">
        <ele>2.54</ele>
        <time>2016-08-25T10:51:10Z</time>
      </trkpt>
      <trkpt lat="47.35968" lon="-3.0893">
        <ele>3.02</ele>
        <time>2016-08-25T10:51:33Z</time>
      </trkpt>
      <trkpt lat="47.35988" lon="-3.08883">
        <ele>3.02</ele>
        <time>2016-08-25T10:51:57Z</time>
      </trkpt>
      <trkpt lat="47.36004" lon="-3.08842">
        <ele>2.54</ele>
        <time>2016-08-25T10:52:17Z</time>
      </trkpt>
      <trkpt lat="47.36025" lon="-3.0879">
        <ele>2.54</ele>
        <time>2016-08-25T10:52:41Z</time>
      </trkpt>
      <trkpt lat="47.36044" lon="-3.08741">
        <ele>2.54</ele>
        <time>2016-08-25T10:53:04Z</time>
      </trkpt>
      <trkpt lat="47.36063" lon="-3.08692">
        <ele>1.1</ele>
        <time>2016-08-25T10:53:26Z</time>
      </trkpt>
      <trkpt lat="47.36085" lon="-3.08647">
        <ele>0.14</ele>
        <time>2016-08-25T10:53:48Z</time>
      </trkpt>
      <trkpt lat="47.36112" lon="-3.08602">
        <ele>-0.34</ele>
        <time>2016-08-25T10:54:11Z</time>
      </trkpt>
      <trkpt lat="47.36139" lon="-3.08562">
        <ele>0.14</ele>
        <time>2016-08-25T10:54:33Z</time>
      </trkpt>
      <trkpt lat="47.36167" lon="-3.08526">
        <ele>0.62</ele>
        <time>2016-08-25T10:54:56Z</time>
      </trkpt>
      <trkpt lat="47.36186" lon="-3.08485">
        <ele>1.1</ele>
        <time>2016-08-25T10:55:20Z</time>
      </trkpt>
      <trkpt lat="47.36196" lon="-3.08449">
        <ele>1.58</ele>
        <time>2016-08-25T10:55:40Z</time>
      </trkpt>
      <trkpt lat="47.36207" lon="-3.08415">
        <ele>2.06</ele>
        <time>2016-08-25T10:56:01Z</time>
      </trkpt>
      <trkpt lat="47.36224" lon="-3.08375">
        <ele>1.58</ele>
        <time>2016-08-25T10:56:24Z</time>
      </trkpt>
      <trkpt lat="47.36237" lon="-3.08344">
        <ele>1.58</ele>
        <time>2016-08-25T10:56:42Z</time>
      </trkpt>
      <trkpt lat="47.36251" lon="-3.0831">
        <ele>2.06</ele>
        <time>2016-08-25T10:57:02Z</time>
      </trkpt>
      <trkpt lat="47.36268" lon="-3.08272">
        <ele>1.58</ele>
        <time>2016-08-25T10:57:25Z</time>
      </trkpt>
      <trkpt lat="47.36284" lon="-3.0824">
        <ele>1.58</ele>
        <time>2016-08-25T10:57:46Z</time>
      </trkpt>
      <trkpt lat="47.36298" lon="-3.08212">
        <ele>1.58</ele>
        <time>2016-08-25T10:58:05Z</time>
      </trkpt>
      <trkpt lat="47.36318" lon="-3.08177">
        <ele>1.1</ele>
        <time>2016-08-25T10:58:29Z</time>
      </trkpt>
      <trkpt lat="47.3634" lon="-3.08151">
        <ele>0.62</ele>
        <time>2016-08-25T10:58:50Z</time>
      </trkpt>
      <trkpt lat="47.36362" lon="-3.08119">
        <ele>1.1</ele>
        <time>2016-08-25T10:59:13Z</time>
      </trkpt>
      <trkpt lat="47.36387" lon="-3.08084">
        <ele>0.14</ele>
        <time>2016-08-25T10:59:38Z</time>
      </trkpt>
      <trkpt lat="47.36401" lon="-3.08048">
        <ele>-0.34</ele>
        <time>2016-08-25T11:00:00Z</time>
      </trkpt>
      <trkpt lat="47.36412" lon="-3.08009">
        <ele>2.54</ele>
        <time>2016-08-25T11:00:23Z</time>
      </trkpt>
      <trkpt lat="47.36423" lon="-3.07964">
        <ele>3.02</ele>
        <time>2016-08-25T11:00:52Z</time>
      </trkpt>
      <trkpt lat="47.36437" lon="-3.07928">
        <ele>3.5</ele>
        <time>2016-08-25T11:01:17Z</time>
      </trkpt>
      <trkpt lat="47.36451" lon="-3.07891">
        <ele>2.54</ele>
        <time>2016-08-25T11:01:41Z</time>
      </trkpt>
      <trkpt lat="47.36464" lon="-3.07859">
        <ele>2.06</ele>
        <time>2016-08-25T11:02:05Z</time>
      </trkpt>
      <trkpt lat="47.36477" lon="-3.07828">
        <ele>1.1</ele>
        <time>2016-08-25T11:02:31Z</time>
      </trkpt>
      <trkpt lat="47.36489" lon="-3.07801">
        <ele>0.14</ele>
        <time>2016-08-25T11:02:55Z</time>
      </trkpt>
      <trkpt lat="47.36504" lon="-3.07774">
        <ele>1.58</ele>
        <time>2016-08-25T11:03:20Z</time>
      </trkpt>
      <trkpt lat="47.36519" lon="-3.07744">
        <ele>1.58</ele>
        <time>2016-08-25T11:03:45Z</time>
      </trkpt>
      <trkpt lat="47.36533" lon="-3.07719">
        <ele>2.06</ele>
        <time>2016-08-25T11:04:04Z</time>
      </trkpt>
      <trkpt lat="47.36551" lon="-3.07678">
        <ele>1.58</ele>
        <time>2016-08-25T11:04:32Z</time>
      </trkpt>
      <trkpt lat="47.36564" lon="-3.07649">
        <ele>1.58</ele>
        <time>2016-08-25T11:04:51Z</time>
      </trkpt>
      <trkpt lat="47.36578" lon="-3.07617">
        <ele>2.06</ele>
        <time>2016-08-25T11:05:11Z</time>
      </trkpt>
      <trkpt lat="47.36598" lon="-3.07573">
        <ele>3.02</ele>
        <time>2016-08-25T11:05:37Z</time>
      </trkpt>
      <trkpt lat="47.36615" lon="-3.07532">
        <ele>2.06</ele>
        <time>2016-08-25T11:06:02Z</time>
      </trkpt>
      <trkpt lat="47.36632" lon="-3.07491">
        <ele>1.58</ele>
        <time>2016-08-25T11:06:29Z</time>
      </trkpt>
      <trkpt lat="47.36649" lon="-3.07455">
        <ele>1.58</ele>
        <time>2016-08-25T11:06:55Z</time>
      </trkpt>
      <trkpt lat="47.36664" lon="-3.07421">
        <ele>2.06</ele>
        <time>2016-08-25T11:07:20Z</time>
      </trkpt>
      <trkpt lat="47.3668" lon="-3.07388">
        <ele>2.06</ele>
        <time>2016-08-25T11:07:45Z</time>
      </trkpt>
      <trkpt lat="47.36694" lon="-3.07355">
        <ele>1.1</ele>
        <time>2016-08-25T11:08:09Z</time>
      </trkpt>
      <trkpt lat="47.3671" lon="-3.07319">
        <ele>1.1</ele>
        <time>2016-08-25T11:08:39Z</time>
      </trkpt>
      <trkpt lat="47.36725" lon="-3.07286">
        <ele>1.58</ele>
        <time>2016-08-25T11:09:01Z</time>
      </trkpt>
      <trkpt lat="47.36739" lon="-3.07255">
        <ele>1.1</ele>
        <time>2016-08-25T11:09:24Z</time>
      </trkpt>
      <trkpt lat="47.36755" lon="-3.07222">
        <ele>1.58</ele>
        <time>2016-08-25T11:09:48Z</time>
      </trkpt>
      <trkpt lat="47.36771" lon="-3.07188">
        <ele>2.54</ele>
        <time>2016-08-25T11:10:12Z</time>
      </trkpt>
      <trkpt lat="47.36782" lon="-3.07163">
        <ele>2.06</ele>
        <time>2016-08-25T11:10:30Z</time>
      </trkpt>
      <trkpt lat="47.36795" lon="-3.07132">
        <ele>2.06</ele>
        <time>2016-08-25T11:10:51Z</time>
      </trkpt>
      <trkpt lat="47.36812" lon="-3.071">
        <ele>2.54</ele>
        <time>2016-08-25T11:11:14Z</time>
      </trkpt>
      <trkpt lat="47.36835" lon="-3.07055">
        <ele>2.54</ele>
        <time>2016-08-25T11:11:41Z</time>
      </trkpt>
      <trkpt lat="47.36853" lon="-3.07018">
        <ele>2.54</ele>
        <time>2016-08-25T11:12:02Z</time>
      </trkpt>
      <trkpt lat="47.36871" lon="-3.06979">
        <ele>2.54</ele>
        <time>2016-08-25T11:12:24Z</time>
      </trkpt>
      <trkpt lat="47.36892" lon="-3.06934">
        <ele>3.02</ele>
        <time>2016-08-25T11:12:48Z</time>
      </trkpt>
      <trkpt lat="47.36909" lon="-3.06897">
        <ele>2.54</ele>
        <time>2016-08-25T11:13:09Z</time>
      </trkpt>
      <trkpt lat="47.36925" lon="-3.06864">
        <ele>2.54</ele>
        <time>2016-08-25T11:13:28Z</time>
      </trkpt>
      <trkpt lat="47.36939" lon="-3.0683">
        <ele>2.06</ele>
        <time>2016-08-25T11:13:47Z</time>
      </trkpt>
      <trkpt lat="47.36956" lon="-3.06784">
        <ele>2.54</ele>
        <time>2016-08-25T11:14:10Z</time>
      </trkpt>
      <trkpt lat="47.36968" lon="-3.06755">
        <ele>2.06</ele>
        <time>2016-08-25T11:14:25Z</time>
      </trkpt>
      <trkpt lat="47.36982" lon="-3.06718">
        <ele>2.06</ele>
        <time>2016-08-25T11:14:43Z</time>
      </trkpt>
      <trkpt lat="47.37002" lon="-3.06667">
        <ele>2.06</ele>
        <time>2016-08-25T11:15:07Z</time>
      </trkpt>
      <trkpt lat="47.37022" lon="-3.06615">
        <ele>1.58</ele>
        <time>2016-08-25T11:15:32Z</time>
      </trkpt>
      <trkpt lat="47.3704" lon="-3.0657">
        <ele>1.58</ele>
        <time>2016-08-25T11:15:54Z</time>
      </trkpt>
      <trkpt lat="47.37057" lon="-3.0653">
        <ele>1.1</ele>
        <time>2016-08-25T11:16:14Z</time>
      </trkpt>
      <trkpt lat="47.37075" lon="-3.06492">
        <ele>1.58</ele>
        <time>2016-08-25T11:16:34Z</time>
      </trkpt>
      <trkpt lat="47.37092" lon="-3.06453">
        <ele>1.1</ele>
        <time>2016-08-25T11:16:57Z</time>
      </trkpt>
      <trkpt lat="47.37107" lon="-3.06422">
        <ele>1.1</ele>
        <time>2016-08-25T11:17:18Z</time>
      </trkpt>
      <trkpt lat="47.37116" lon="-3.06402">
        <ele>1.1</ele>
        <time>2016-08-25T11:17:33Z</time>
      </trkpt>
      <trkpt lat="47.37128" lon="-3.06378">
        <ele>2.06</ele>
        <time>2016-08-25T11:17:52Z</time>
      </trkpt>
      <trkpt lat="47.37144" lon="-3.06347">
        <ele>2.06</ele>
        <time>2016-08-25T11:18:16Z</time>
      </trkpt>
      <trkpt lat="47.37157" lon="-3.06321">
        <ele>1.1</ele>
        <time>2016-08-25T11:18:35Z</time>
      </trkpt>
      <trkpt lat="47.37169" lon="-3.0629">
        <ele>1.1</ele>
        <time>2016-08-25T11:18:58Z</time>
      </trkpt>
      <trkpt lat="47.37178" lon="-3.06252">
        <ele>1.58</ele>
        <time>2016-08-25T11:19:21Z</time>
      </trkpt>
      <trkpt lat="47.37183" lon="-3.06211">
        <ele>1.58</ele>
        <time>2016-08-25T11:19:45Z</time>
      </trkpt>
      <trkpt lat="47.37187" lon="-3.0617">
        <ele>2.06</ele>
        <time>2016-08-25T11:20:11Z</time>
      </trkpt>
      <trkpt lat="47.37192" lon="-3.06135">
        <ele>2.06</ele>
        <time>2016-08-25T11:20:34Z</time>
      </trkpt>
      <trkpt lat="47.37195" lon="-3.06103">
        <ele>1.58</ele>
        <time>2016-08-25T11:20:57Z</time>
      </trkpt>
      <trkpt lat="47.37197" lon="-3.06075">
        <ele>1.58</ele>
        <time>2016-08-25T11:21:20Z</time>
      </trkpt>
      <trkpt lat="47.37201" lon="-3.06049">
        <ele>1.1</ele>
        <time>2016-08-25T11:21:44Z</time>
      </trkpt>
      <trkpt lat="47.37207" lon="-3.06023">
        <ele>1.1</ele>
        <time>2016-08-25T11:22:09Z</time>
      </trkpt>
      <trkpt lat="47.37211" lon="-3.06002">
        <ele>2.06</ele>
        <time>2016-08-25T11:22:30Z</time>
      </trkpt>
      <trkpt lat="47.37215" lon="-3.05987">
        <ele>1.58</ele>
        <time>2016-08-25T11:22:48Z</time>
      </trkpt>
      <trkpt lat="47.3722" lon="-3.05971">
        <ele>2.54</ele>
        <time>2016-08-25T11:23:09Z</time>
      </trkpt>
      <trkpt lat="47.37227" lon="-3.05956">
        <ele>2.06</ele>
        <time>2016-08-25T11:23:31Z</time>
      </trkpt>
      <trkpt lat="47.37236" lon="-3.0594">
        <ele>2.54</ele>
        <time>2016-08-25T11:23:56Z</time>
      </trkpt>
      <trkpt lat="47.37244" lon="-3.05923">
        <ele>3.02</ele>
        <time>2016-08-25T11:24:19Z</time>
      </trkpt>
      <trkpt lat="47.37249" lon="-3.0591">
        <ele>3.02</ele>
        <time>2016-08-25T11:24:37Z</time>
      </trkpt>
      <trkpt lat="47.37254" lon="-3.05895">
        <ele>2.54</ele>
        <time>2016-08-25T11:24:58Z</time>
      </trkpt>
      <trkpt lat="47.37259" lon="-3.05879">
        <ele>2.54</ele>
        <time>2016-08-25T11:25:20Z</time>
      </trkpt>
      <trkpt lat="47.37263" lon="-3.05863">
        <ele>2.06</ele>
        <time>2016-08-25T11:25:42Z</time>
      </trkpt>
      <trkpt lat="47.37266" lon="-3.05847">
        <ele>2.06</ele>
        <time>2016-08-25T11:26:02Z</time>
      </trkpt>
      <trkpt lat="47.37269" lon="-3.0583">
        <ele>2.54</ele>
        <time>2016-08-25T11:26:22Z</time>
      </trkpt>
      <trkpt lat="47.37273" lon="-3.05805">
        <ele>2.54</ele>
        <time>2016-08-25T11:26:46Z</time>
      </trkpt>
      <trkpt lat="47.37276" lon="-3.05781">
        <ele>2.06</ele>
        <time>2016-08-25T11:27:09Z</time>
      </trkpt>
      <trkpt lat="47.37276" lon="-3.05756">
        <ele>2.06</ele>
        <time>2016-08-25T11:27:32Z</time>
      </trkpt>
      <trkpt lat="47.37275" lon="-3.05734">
        <ele>1.1</ele>
        <time>2016-08-25T11:27:54Z</time>
      </trkpt>
      <trkpt lat="47.37273" lon="-3.05712">
        <ele>1.58</ele>
        <time>2016-08-25T11:28:17Z</time>
      </trkpt>
      <trkpt lat="47.37272" lon="-3.0569">
        <ele>1.58</ele>
        <time>2016-08-25T11:28:42Z</time>
      </trkpt>
      <trkpt lat="47.37276" lon="-3.05672">
        <ele>2.54</ele>
        <time>2016-08-25T11:29:03Z</time>
      </trkpt>
      <trkpt lat="47.37279" lon="-3.05655">
        <ele>3.02</ele>
        <time>2016-08-25T11:29:25Z</time>
      </trkpt>
      <trkpt lat="47.37282" lon="-3.05641">
        <ele>3.02</ele>
        <time>2016-08-25T11:29:44Z</time>
      </trkpt>
      <trkpt lat="47.37283" lon="-3.05625">
        <ele>2.54</ele>
        <time>2016-08-25T11:30:07Z</time>
      </trkpt>
      <trkpt lat="47.37284" lon="-3.05615">
        <ele>2.06</ele>
        <time>2016-08-25T11:30:27Z</time>
      </trkpt>
      <trkpt lat="47.37283" lon="-3.05607">
        <ele>1.1</ele>
        <time>2016-08-25T11:30:52Z</time>
      </trkpt>
      <trkpt lat="47.37283" lon="-3.05603">
        <ele>0.14</ele>
        <time>2016-08-25T11:31:17Z</time>
      </trkpt>
      <trkpt lat="47.37281" lon="-3.05598">
        <ele>0.14</ele>
        <time>2016-08-25T11:31:37Z</time>
      </trkpt>
      <trkpt lat="47.37281" lon="-3.05596">
        <ele>0.62</ele>
        <time>2016-08-25T11:32:00Z</time>
      </trkpt>
      <trkpt lat="47.3728" lon="-3.05594">
        <ele>0.62</ele>
        <time>2016-08-25T11:32:21Z</time>
      </trkpt>
      <trkpt lat="47.3728" lon="-3.05592">
        <ele>0.62</ele>
        <time>2016-08-25T11:32:44Z</time>
      </trkpt>
      <trkpt lat="47.37279" lon="-3.05591">
        <ele>0.62</ele>
        <time>2016-08-25T11:33:06Z</time>
      </trkpt>
      <trkpt lat="47.37278" lon="-3.0559">
        <ele>0.62</ele>
        <time>2016-08-25T11:33:27Z</time>
      </trkpt>
      <trkpt lat="47.37277" lon="-3.05591">
        <ele>0.62</ele>
        <time>2016-08-25T11:33:50Z</time>
      </trkpt>
      <trkpt lat="47.37276" lon="-3.05592">
        <ele>1.1</ele>
        <time>2016-08-25T11:34:12Z</time>
      </trkpt>
      <trkpt lat="47.37275" lon="-3.05595">
        <ele>1.1</ele>
        <time>2016-08-25T11:34:35Z</time>
      </trkpt>
      <trkpt lat="47.37274" lon="-3.056">
        <ele>2.06</ele>
        <time>2016-08-25T11:35:02Z</time>
      </trkpt>
      <trkpt lat="47.37274" lon="-3.05604">
        <ele>3.02</ele>
        <time>2016-08-25T11:35:25Z</time>
      </trkpt>
      <trkpt lat="47.37274" lon="-3.0561">
        <ele>4.46</ele>
        <time>2016-08-25T11:35:51Z</time>
      </trkpt>
      <trkpt lat="47.37275" lon="-3.05615">
        <ele>5.42</ele>
        <time>2016-08-25T11:36:15Z</time>
      </trkpt>
      <trkpt lat="47.37275" lon="-3.0562">
        <ele>5.42</ele>
        <time>2016-08-25T11:36:38Z</time>
      </trkpt>
      <trkpt lat="47.37277" lon="-3.05625">
        <ele>6.39</ele>
        <time>2016-08-25T11:36:54Z</time>
      </trkpt>
      <trkpt lat="47.37314" lon="-3.0565">
        <ele>5.42</ele>
        <time>2016-08-25T11:37:16Z</time>
      </trkpt>
      <trkpt lat="47.37332" lon="-3.05625">
        <ele>4.94</ele>
        <time>2016-08-25T11:37:31Z</time>
      </trkpt>
      <trkpt lat="47.37332" lon="-3.05567">
        <ele>3.5</ele>
        <time>2016-08-25T11:37:53Z</time>
      </trkpt>
      <trkpt lat="47.37329" lon="-3.05512">
        <ele>3.02</ele>
        <time>2016-08-25T11:38:13Z</time>
      </trkpt>
      <trkpt lat="47.37326" lon="-3.05459">
        <ele>2.54</ele>
        <time>2016-08-25T11:38:33Z</time>
      </trkpt>
      <trkpt lat="47.3732" lon="-3.05393">
        <ele>1.58</ele>
        <time>2016-08-25T11:38:57Z</time>
      </trkpt>
      <trkpt lat="47.37312" lon="-3.05325">
        <ele>1.1</ele>
        <time>2016-08-25T11:39:22Z</time>
      </trkpt>
      <trkpt lat="47.37309" lon="-3.05265">
        <ele>1.1</ele>
        <time>2016-08-25T11:39:44Z</time>
      </trkpt>
      <trkpt lat="47.3731" lon="-3.05201">
        <ele>0.62</ele>
        <time>2016-08-25T11:40:07Z</time>
      </trkpt>
      <trkpt lat="47.37304" lon="-3.05138">
        <ele>0.62</ele>
        <time>2016-08-25T11:40:30Z</time>
      </trkpt>
      <trkpt lat="47.373" lon="-3.05073">
        <ele>0.14</ele>
        <time>2016-08-25T11:40:53Z</time>
      </trkpt>
      <trkpt lat="47.37296" lon="-3.0501">
        <ele>-0.34</ele>
        <time>2016-08-25T11:41:15Z</time>
      </trkpt>
      <trkpt lat="47.37295" lon="-3.04945">
        <ele>0.14</ele>
        <time>2016-08-25T11:41:38Z</time>
      </trkpt>
      <trkpt lat="47.37287" lon="-3.04888">
        <ele>0.62</ele>
        <time>2016-08-25T11:41:58Z</time>
      </trkpt>
      <trkpt lat="47.37285" lon="-3.04825">
        <ele>0.14</ele>
        <time>2016-08-25T11:42:20Z</time>
      </trkpt>
      <trkpt lat="47.37287" lon="-3.04761">
        <ele>0.62</ele>
        <time>2016-08-25T11:42:42Z</time>
      </trkpt>
      <trkpt lat="47.37287" lon="-3.04699">
        <ele>0.14</ele>
        <time>2016-08-25T11:43:04Z</time>
      </trkpt>
      <trkpt lat="47.37281" lon="-3.04647">
        <ele>0.14</ele>
        <time>2016-08-25T11:43:23Z</time>
      </trkpt>
      <trkpt lat="47.37268" lon="-3.04589">
        <ele>1.58</ele>
        <time>2016-08-25T11:43:44Z</time>
      </trkpt>
      <trkpt lat="47.37254" lon="-3.04529">
        <ele>1.1</ele>
        <time>2016-08-25T11:44:06Z</time>
      </trkpt>
      <trkpt lat="47.37252" lon="-3.04463">
        <ele>2.06</ele>
        <time>2016-08-25T11:44:29Z</time>
      </trkpt>
      <trkpt lat="47.37262" lon="-3.04399">
        <ele>1.58</ele>
        <time>2016-08-25T11:44:52Z</time>
      </trkpt>
      <trkpt lat="47.37271" lon="-3.04347">
        <ele>0.62</ele>
        <time>2016-08-25T11:45:11Z</time>
      </trkpt>
      <trkpt lat="47.37278" lon="-3.04289">
        <ele>0.62</ele>
        <time>2016-08-25T11:45:32Z</time>
      </trkpt>
      <trkpt lat="47.37292" lon="-3.04223">
        <ele>0.62</ele>
        <time>2016-08-25T11:45:56Z</time>
      </trkpt>
      <trkpt lat="47.37298" lon="-3.04162">
        <ele>0.14</ele>
        <time>2016-08-25T11:46:18Z</time>
      </trkpt>
      <trkpt lat="47.37295" lon="-3.04095">
        <ele>1.1</ele>
        <time>2016-08-25T11:46:41Z</time>
      </trkpt>
      <trkpt lat="47.37286" lon="-3.04039">
        <ele>0.62</ele>
        <time>2016-08-25T11:47:01Z</time>
      </trkpt>
      <trkpt lat="47.37281" lon="-3.03986">
        <ele>0.62</ele>
        <time>2016-08-25T11:47:20Z</time>
      </trkpt>
      <trkpt lat="47.37282" lon="-3.03931">
        <ele>0.62</ele>
        <time>2016-08-25T11:47:39Z</time>
      </trkpt>
      <trkpt lat="47.37283" lon="-3.03864">
        <ele>1.58</ele>
        <time>2016-08-25T11:48:02Z</time>
      </trkpt>
      <trkpt lat="47.37276" lon="-3.03811">
        <ele>1.58</ele>
        <time>2016-08-25T11:48:21Z</time>
      </trkpt>
      <trkpt lat="47.37272" lon="-3.03761">
        <ele>1.58</ele>
        <time>2016-08-25T11:48:39Z</time>
      </trkpt>
      <trkpt lat="47.37273" lon="-3.03699">
        <ele>1.58</ele>
        <time>2016-08-25T11:49:03Z</time>
      </trkpt>
      <trkpt lat="47.37268" lon="-3.03673">
        <ele>1.58</ele>
        <time>2016-08-25T11:49:22Z</time>
      </trkpt>
      <trkpt lat="47.37261" lon="-3.03656">
        <ele>3.02</ele>
        <time>2016-08-25T11:49:46Z</time>
      </trkpt>
      <trkpt lat="47.37254" lon="-3.03651">
        <ele>3.02</ele>
        <time>2016-08-25T11:50:09Z</time>
      </trkpt>
      <trkpt lat="47.37246" lon="-3.03651">
        <ele>2.06</ele>
        <time>2016-08-25T11:50:32Z</time>
      </trkpt>
      <trkpt lat="47.37243" lon="-3.03652">
        <ele>2.54</ele>
        <time>2016-08-25T11:50:52Z</time>
      </trkpt>
      <trkpt lat="47.37238" lon="-3.03654">
        <ele>2.54</ele>
        <time>2016-08-25T11:51:14Z</time>
      </trkpt>
      <trkpt lat="47.37235" lon="-3.03656">
        <ele>2.06</ele>
        <time>2016-08-25T11:51:33Z</time>
      </trkpt>
      <trkpt lat="47.37233" lon="-3.03657">
        <ele>1.58</ele>
        <time>2016-08-25T11:51:47Z</time>
      </trkpt>
      <trkpt lat="47.3723" lon="-3.03658">
        <ele>1.58</ele>
        <time>2016-08-25T11:52:06Z</time>
      </trkpt>
      <trkpt lat="47.37226" lon="-3.03662">
        <ele>0.14</ele>
        <time>2016-08-25T11:52:26Z</time>
      </trkpt>
      <trkpt lat="47.37211" lon="-3.0368">
        <ele>0.14</ele>
        <time>2016-08-25T11:52:44Z</time>
      </trkpt>
      <trkpt lat="47.37199" lon="-3.03697">
        <ele>0.14</ele>
        <time>2016-08-25T11:53:00Z</time>
      </trkpt>
      <trkpt lat="47.37184" lon="-3.03716">
        <ele>1.1</ele>
        <time>2016-08-25T11:53:23Z</time>
      </trkpt>
      <trkpt lat="47.37173" lon="-3.03731">
        <ele>1.1</ele>
        <time>2016-08-25T11:53:48Z</time>
      </trkpt>
      <trkpt lat="47.37166" lon="-3.03742">
        <ele>1.1</ele>
        <time>2016-08-25T11:54:11Z</time>
      </trkpt>
      <trkpt lat="47.3716" lon="-3.03751">
        <ele>1.1</ele>
        <time>2016-08-25T11:54:29Z</time>
      </trkpt>
      <trkpt lat="47.37155" lon="-3.0376">
        <ele>0.62</ele>
        <time>2016-08-25T11:54:50Z</time>
      </trkpt>
      <trkpt lat="47.37149" lon="-3.0377">
        <ele>0.62</ele>
        <time>2016-08-25T11:55:12Z</time>
      </trkpt>
      <trkpt lat="47.37142" lon="-3.03781">
        <ele>0.14</ele>
        <time>2016-08-25T11:55:37Z</time>
      </trkpt>
      <trkpt lat="47.37137" lon="-3.03789">
        <ele>0.62</ele>
        <time>2016-08-25T11:55:58Z</time>
      </trkpt>
      <trkpt lat="47.37132" lon="-3.03798">
        <ele>0.62</ele>
        <time>2016-08-25T11:56:18Z</time>
      </trkpt>
      <trkpt lat="47.37125" lon="-3.03809">
        <ele>0.62</ele>
        <time>2016-08-25T11:56:43Z</time>
      </trkpt>
      <trkpt lat="47.3712" lon="-3.03815">
        <ele>1.58</ele>
        <time>2016-08-25T11:57:09Z</time>
      </trkpt>
      <trkpt lat="47.37119" lon="-3.03818">
        <ele>1.1</ele>
        <time>2016-08-25T11:57:30Z</time>
      </trkpt>
      <trkpt lat="47.37118" lon="-3.03821">
        <ele>0.14</ele>
        <time>2016-08-25T11:57:48Z</time>
      </trkpt>
      <trkpt lat="47.37115" lon="-3.03826">
        <ele>-0.34</ele>
        <time>2016-08-25T11:58:08Z</time>
      </trkpt>
      <trkpt lat="47.37114" lon="-3.03831">
        <ele>-0.82</ele>
        <time>2016-08-25T11:58:28Z</time>
      </trkpt>
      <trkpt lat="47.3711" lon="-3.03839">
        <ele>0.14</ele>
        <time>2016-08-25T11:58:53Z</time>
      </trkpt>
      <trkpt lat="47.37107" lon="-3.03847">
        <ele>0.62</ele>
        <time>2016-08-25T11:59:13Z</time>
      </trkpt>
      <trkpt lat="47.37101" lon="-3.03862">
        <ele>0.14</ele>
        <time>2016-08-25T11:59:37Z</time>
      </trkpt>
      <trkpt lat="47.37089" lon="-3.03885">
        <ele>0.14</ele>
        <time>2016-08-25T11:59:56Z</time>
      </trkpt>
      <trkpt lat="47.3708" lon="-3.03895">
        <ele>1.58</ele>
        <time>2016-08-25T12:00:13Z</time>
      </trkpt>
      <trkpt lat="47.37074" lon="-3.03905">
        <ele>2.54</ele>
        <time>2016-08-25T12:00:33Z</time>
      </trkpt>
      <trkpt lat="47.37067" lon="-3.03914">
        <ele>3.02</ele>
        <time>2016-08-25T12:00:58Z</time>
      </trkpt>
      <trkpt lat="47.37063" lon="-3.03918">
        <ele>3.02</ele>
        <time>2016-08-25T12:01:19Z</time>
      </trkpt>
      <trkpt lat="47.37056" lon="-3.03923">
        <ele>3.5</ele>
        <time>2016-08-25T12:01:38Z</time>
      </trkpt>
      <trkpt lat="47.37048" lon="-3.03922">
        <ele>1.1</ele>
        <time>2016-08-25T12:02:00Z</time>
      </trkpt>
      <trkpt lat="47.37039" lon="-3.03922">
        <ele>0.14</ele>
        <time>2016-08-25T12:02:22Z</time>
      </trkpt>
      <trkpt lat="47.37032" lon="-3.03918">
        <ele>-0.82</ele>
        <time>2016-08-25T12:02:43Z</time>
      </trkpt>
      <trkpt lat="47.37008" lon="-3.03913">
        <ele>-1.3</ele>
        <time>2016-08-25T12:03:05Z</time>
      </trkpt>
      <trkpt lat="47.36988" lon="-3.03913">
        <ele>0.62</ele>
        <time>2016-08-25T12:03:27Z</time>
      </trkpt>
      <trkpt lat="47.36972" lon="-3.03916">
        <ele>1.58</ele>
        <time>2016-08-25T12:03:48Z</time>
      </trkpt>
      <trkpt lat="47.36961" lon="-3.03917">
        <ele>1.1</ele>
        <time>2016-08-25T12:04:07Z</time>
      </trkpt>
      <trkpt lat="47.36955" lon="-3.03918">
        <ele>1.1</ele>
        <time>2016-08-25T12:04:28Z</time>
      </trkpt>
      <trkpt lat="47.36951" lon="-3.03917">
        <ele>1.1</ele>
        <time>2016-08-25T12:04:51Z</time>
      </trkpt>
      <trkpt lat="47.36945" lon="-3.03917">
        <ele>1.1</ele>
        <time>2016-08-25T12:05:14Z</time>
      </trkpt>
      <trkpt lat="47.36939" lon="-3.03919">
        <ele>1.1</ele>
        <time>2016-08-25T12:05:35Z</time>
      </trkpt>
      <trkpt lat="47.36932" lon="-3.03917">
        <ele>1.58</ele>
        <time>2016-08-25T12:05:57Z</time>
      </trkpt>
      <trkpt lat="47.36925" lon="-3.03918">
        <ele>1.1</ele>
        <time>2016-08-25T12:06:19Z</time>
      </trkpt>
      <trkpt lat="47.36915" lon="-3.03919">
        <ele>0.62</ele>
        <time>2016-08-25T12:06:45Z</time>
      </trkpt>
      <trkpt lat="47.36904" lon="-3.03921">
        <ele>0.14</ele>
        <time>2016-08-25T12:07:10Z</time>
      </trkpt>
      <trkpt lat="47.36897" lon="-3.03922">
        <ele>-0.34</ele>
        <time>2016-08-25T12:07:33Z</time>
      </trkpt>
      <trkpt lat="47.3689" lon="-3.03926">
        <ele>1.58</ele>
        <time>2016-08-25T12:07:54Z</time>
      </trkpt>
      <trkpt lat="47.3688" lon="-3.03931">
        <ele>2.54</ele>
        <time>2016-08-25T12:08:20Z</time>
      </trkpt>
      <trkpt lat="47.3687" lon="-3.03936">
        <ele>1.1</ele>
        <time>2016-08-25T12:08:43Z</time>
      </trkpt>
      <trkpt lat="47.36841" lon="-3.0396">
        <ele>-0.82</ele>
        <time>2016-08-25T12:09:06Z</time>
      </trkpt>
      <trkpt lat="47.3682" lon="-3.03971">
        <ele>1.1</ele>
        <time>2016-08-25T12:09:27Z</time>
      </trkpt>
      <trkpt lat="47.36815" lon="-3.03974">
        <ele>2.06</ele>
        <time>2016-08-25T12:09:49Z</time>
      </trkpt>
      <trkpt lat="47.36812" lon="-3.03974">
        <ele>2.06</ele>
        <time>2016-08-25T12:10:11Z</time>
      </trkpt>
      <trkpt lat="47.36829" lon="-3.03963">
        <ele>1.1</ele>
        <time>2016-08-25T12:10:34Z</time>
      </trkpt>
      <trkpt lat="47.36829" lon="-3.03963">
        <ele>1.1</ele>
        <time>2016-08-25T12:10:35Z</time>
      </trkpt>
      <trkpt lat="47.36851" lon="-3.03942">
        <ele>1.1</ele>
        <time>2016-08-25T12:11:00Z</time>
      </trkpt>
      <trkpt lat="47.36864" lon="-3.0392">
        <ele>1.1</ele>
        <time>2016-08-25T12:11:22Z</time>
      </trkpt>
      <trkpt lat="47.36871" lon="-3.03891">
        <ele>0.62</ele>
        <time>2016-08-25T12:11:47Z</time>
      </trkpt>
      <trkpt lat="47.36877" lon="-3.03865">
        <ele>0.14</ele>
        <time>2016-08-25T12:12:10Z</time>
      </trkpt>
      <trkpt lat="47.36882" lon="-3.03843">
        <ele>0.14</ele>
        <time>2016-08-25T12:12:31Z</time>
      </trkpt>
      <trkpt lat="47.36889" lon="-3.03825">
        <ele>0.14</ele>
        <time>2016-08-25T12:12:49Z</time>
      </trkpt>
      <trkpt lat="47.36893" lon="-3.03817">
        <ele>-0.34</ele>
        <time>2016-08-25T12:12:57Z</time>
      </trkpt>
      <trkpt lat="47.36903" lon="-3.0379">
        <ele>-0.34</ele>
        <time>2016-08-25T12:13:19Z</time>
      </trkpt>
      <trkpt lat="47.36913" lon="-3.03761">
        <ele>-0.82</ele>
        <time>2016-08-25T12:13:42Z</time>
      </trkpt>
      <trkpt lat="47.36925" lon="-3.03732">
        <ele>-0.34</ele>
        <time>2016-08-25T12:14:04Z</time>
      </trkpt>
      <trkpt lat="47.36944" lon="-3.03693">
        <ele>0.14</ele>
        <time>2016-08-25T12:14:30Z</time>
      </trkpt>
      <trkpt lat="47.3695" lon="-3.03677">
        <ele>0.14</ele>
        <time>2016-08-25T12:14:40Z</time>
      </trkpt>
      <trkpt lat="47.36957" lon="-3.03656">
        <ele>0.14</ele>
        <time>2016-08-25T12:14:53Z</time>
      </trkpt>
      <trkpt lat="47.3697" lon="-3.03622">
        <ele>0.62</ele>
        <time>2016-08-25T12:15:14Z</time>
      </trkpt>
      <trkpt lat="47.36981" lon="-3.03586">
        <ele>1.58</ele>
        <time>2016-08-25T12:15:37Z</time>
      </trkpt>
      <trkpt lat="47.36991" lon="-3.03553">
        <ele>0.62</ele>
        <time>2016-08-25T12:15:58Z</time>
      </trkpt>
      <trkpt lat="47.37004" lon="-3.0352">
        <ele>1.58</ele>
        <time>2016-08-25T12:16:21Z</time>
      </trkpt>
      <trkpt lat="47.37022" lon="-3.03486">
        <ele>1.58</ele>
        <time>2016-08-25T12:16:44Z</time>
      </trkpt>
      <trkpt lat="47.37039" lon="-3.03447">
        <ele>1.1</ele>
        <time>2016-08-25T12:17:08Z</time>
      </trkpt>
      <trkpt lat="47.37049" lon="-3.03411">
        <ele>2.54</ele>
        <time>2016-08-25T12:17:31Z</time>
      </trkpt>
      <trkpt lat="47.37067" lon="-3.03384">
        <ele>2.06</ele>
        <time>2016-08-25T12:17:52Z</time>
      </trkpt>
      <trkpt lat="47.37089" lon="-3.03351">
        <ele>1.1</ele>
        <time>2016-08-25T12:18:14Z</time>
      </trkpt>
      <trkpt lat="47.37104" lon="-3.03312">
        <ele>1.58</ele>
        <time>2016-08-25T12:18:38Z</time>
      </trkpt>
      <trkpt lat="47.37122" lon="-3.03273">
        <ele>2.06</ele>
        <time>2016-08-25T12:19:04Z</time>
      </trkpt>
      <trkpt lat="47.37137" lon="-3.03234">
        <ele>1.58</ele>
        <time>2016-08-25T12:19:30Z</time>
      </trkpt>
      <trkpt lat="47.3715" lon="-3.03206">
        <ele>1.1</ele>
        <time>2016-08-25T12:19:51Z</time>
      </trkpt>
      <trkpt lat="47.37164" lon="-3.0317">
        <ele>0.62</ele>
        <time>2016-08-25T12:20:16Z</time>
      </trkpt>
      <trkpt lat="47.37178" lon="-3.03137">
        <ele>0.62</ele>
        <time>2016-08-25T12:20:40Z</time>
      </trkpt>
      <trkpt lat="47.37192" lon="-3.03105">
        <ele>0.62</ele>
        <time>2016-08-25T12:21:03Z</time>
      </trkpt>
      <trkpt lat="47.37205" lon="-3.03076">
        <ele>0.14</ele>
        <time>2016-08-25T12:21:23Z</time>
      </trkpt>
      <trkpt lat="47.37224" lon="-3.03039">
        <ele>0.62</ele>
        <time>2016-08-25T12:21:49Z</time>
      </trkpt>
      <trkpt lat="47.37241" lon="-3.03005">
        <ele>0.14</ele>
        <time>2016-08-25T12:22:12Z</time>
      </trkpt>
      <trkpt lat="47.3725" lon="-3.02972">
        <ele>0.62</ele>
        <time>2016-08-25T12:22:33Z</time>
      </trkpt>
      <trkpt lat="47.37259" lon="-3.02937">
        <ele>1.58</ele>
        <time>2016-08-25T12:22:55Z</time>
      </trkpt>
      <trkpt lat="47.37262" lon="-3.02902">
        <ele>1.1</ele>
        <time>2016-08-25T12:23:18Z</time>
      </trkpt>
      <trkpt lat="47.37263" lon="-3.02871">
        <ele>1.1</ele>
        <time>2016-08-25T12:23:40Z</time>
      </trkpt>
      <trkpt lat="47.37265" lon="-3.02841">
        <ele>1.1</ele>
        <time>2016-08-25T12:24:00Z</time>
      </trkpt>
      <trkpt lat="47.37267" lon="-3.02809">
        <ele>1.1</ele>
        <time>2016-08-25T12:24:22Z</time>
      </trkpt>
      <trkpt lat="47.37269" lon="-3.02781">
        <ele>1.1</ele>
        <time>2016-08-25T12:24:42Z</time>
      </trkpt>
      <trkpt lat="47.37275" lon="-3.02749">
        <ele>0.62</ele>
        <time>2016-08-25T12:25:04Z</time>
      </trkpt>
      <trkpt lat="47.37285" lon="-3.02709">
        <ele>0.62</ele>
        <time>2016-08-25T12:25:29Z</time>
      </trkpt>
      <trkpt lat="47.37293" lon="-3.02674">
        <ele>0.62</ele>
        <time>2016-08-25T12:25:52Z</time>
      </trkpt>
      <trkpt lat="47.37298" lon="-3.02643">
        <ele>0.14</ele>
        <time>2016-08-25T12:26:14Z</time>
      </trkpt>
      <trkpt lat="47.37307" lon="-3.02605">
        <ele>0.14</ele>
        <time>2016-08-25T12:26:40Z</time>
      </trkpt>
      <trkpt lat="47.37316" lon="-3.02572">
        <ele>0.14</ele>
        <time>2016-08-25T12:27:03Z</time>
      </trkpt>
      <trkpt lat="47.37322" lon="-3.02541">
        <ele>-0.82</ele>
        <time>2016-08-25T12:27:25Z</time>
      </trkpt>
      <trkpt lat="47.37327" lon="-3.02513">
        <ele>-1.3</ele>
        <time>2016-08-25T12:27:46Z</time>
      </trkpt>
      <trkpt lat="47.37333" lon="-3.02485">
        <ele>-1.3</ele>
        <time>2016-08-25T12:28:07Z</time>
      </trkpt>
      <trkpt lat="47.37338" lon="-3.02456">
        <ele>-1.3</ele>
        <time>2016-08-25T12:28:28Z</time>
      </trkpt>
      <trkpt lat="47.37343" lon="-3.02426">
        <ele>-1.3</ele>
        <time>2016-08-25T12:28:51Z</time>
      </trkpt>
      <trkpt lat="47.37355" lon="-3.02396">
        <ele>-1.3</ele>
        <time>2016-08-25T12:29:13Z</time>
      </trkpt>
      <trkpt lat="47.37369" lon="-3.02366">
        <ele>-0.34</ele>
        <time>2016-08-25T12:29:33Z</time>
      </trkpt>
      <trkpt lat="47.37378" lon="-3.02331">
        <ele>0.14</ele>
        <time>2016-08-25T12:29:55Z</time>
      </trkpt>
      <trkpt lat="47.37384" lon="-3.02305">
        <ele>0.14</ele>
        <time>2016-08-25T12:30:14Z</time>
      </trkpt>
      <trkpt lat="47.37393" lon="-3.02274">
        <ele>-0.82</ele>
        <time>2016-08-25T12:30:36Z</time>
      </trkpt>
      <trkpt lat="47.37404" lon="-3.02243">
        <ele>-0.82</ele>
        <time>2016-08-25T12:30:59Z</time>
      </trkpt>
      <trkpt lat="47.37418" lon="-3.02208">
        <ele>-0.34</ele>
        <time>2016-08-25T12:31:23Z</time>
      </trkpt>
      <trkpt lat="47.3743" lon="-3.0218">
        <ele>-0.34</ele>
        <time>2016-08-25T12:31:43Z</time>
      </trkpt>
      <trkpt lat="47.37442" lon="-3.02152">
        <ele>0.14</ele>
        <time>2016-08-25T12:32:04Z</time>
      </trkpt>
      <trkpt lat="47.37451" lon="-3.02123">
        <ele>0.14</ele>
        <time>2016-08-25T12:32:25Z</time>
      </trkpt>
      <trkpt lat="47.37457" lon="-3.02092">
        <ele>-0.34</ele>
        <time>2016-08-25T12:32:52Z</time>
      </trkpt>
      <trkpt lat="47.37466" lon="-3.02063">
        <ele>-0.34</ele>
        <time>2016-08-25T12:33:17Z</time>
      </trkpt>
      <trkpt lat="47.37474" lon="-3.02033">
        <ele>0.62</ele>
        <time>2016-08-25T12:33:41Z</time>
      </trkpt>
      <trkpt lat="47.37483" lon="-3.02004">
        <ele>0.14</ele>
        <time>2016-08-25T12:34:03Z</time>
      </trkpt>
      <trkpt lat="47.37491" lon="-3.01971">
        <ele>0.62</ele>
        <time>2016-08-25T12:34:26Z</time>
      </trkpt>
      <trkpt lat="47.37495" lon="-3.01945">
        <ele>-0.34</ele>
        <time>2016-08-25T12:34:47Z</time>
      </trkpt>
      <trkpt lat="47.375" lon="-3.01915">
        <ele>-0.34</ele>
        <time>2016-08-25T12:35:09Z</time>
      </trkpt>
      <trkpt lat="47.37503" lon="-3.01889">
        <ele>-0.82</ele>
        <time>2016-08-25T12:35:30Z</time>
      </trkpt>
      <trkpt lat="47.37506" lon="-3.01863">
        <ele>-1.3</ele>
        <time>2016-08-25T12:35:53Z</time>
      </trkpt>
      <trkpt lat="47.37507" lon="-3.01839">
        <ele>-0.34</ele>
        <time>2016-08-25T12:36:16Z</time>
      </trkpt>
      <trkpt lat="47.37509" lon="-3.01821">
        <ele>-1.3</ele>
        <time>2016-08-25T12:36:36Z</time>
      </trkpt>
      <trkpt lat="47.37514" lon="-3.01794">
        <ele>-2.27</ele>
        <time>2016-08-25T12:36:59Z</time>
      </trkpt>
      <trkpt lat="47.37517" lon="-3.01767">
        <ele>-1.79</ele>
        <time>2016-08-25T12:37:21Z</time>
      </trkpt>
      <trkpt lat="47.3752" lon="-3.01735">
        <ele>-1.79</ele>
        <time>2016-08-25T12:37:47Z</time>
      </trkpt>
      <trkpt lat="47.37525" lon="-3.01704">
        <ele>-1.79</ele>
        <time>2016-08-25T12:38:12Z</time>
      </trkpt>
      <trkpt lat="47.37528" lon="-3.01677">
        <ele>-2.27</ele>
        <time>2016-08-25T12:38:36Z</time>
      </trkpt>
      <trkpt lat="47.3753" lon="-3.01655">
        <ele>-1.79</ele>
        <time>2016-08-25T12:38:57Z</time>
      </trkpt>
      <trkpt lat="47.3753" lon="-3.01632">
        <ele>-1.79</ele>
        <time>2016-08-25T12:39:26Z</time>
      </trkpt>
      <trkpt lat="47.37535" lon="-3.01613">
        <ele>-1.79</ele>
        <time>2016-08-25T12:39:49Z</time>
      </trkpt>
      <trkpt lat="47.3754" lon="-3.01605">
        <ele>-1.79</ele>
        <time>2016-08-25T12:39:57Z</time>
      </trkpt>
      <trkpt lat="47.37554" lon="-3.01572">
        <ele>-0.82</ele>
        <time>2016-08-25T12:40:23Z</time>
      </trkpt>
      <trkpt lat="47.3756" lon="-3.01541">
        <ele>-1.79</ele>
        <time>2016-08-25T12:40:46Z</time>
      </trkpt>
      <trkpt lat="47.37567" lon="-3.01513">
        <ele>-1.79</ele>
        <time>2016-08-25T12:41:06Z</time>
      </trkpt>
      <trkpt lat="47.37572" lon="-3.0148">
        <ele>-0.82</ele>
        <time>2016-08-25T12:41:30Z</time>
      </trkpt>
      <trkpt lat="47.37576" lon="-3.01446">
        <ele>-0.82</ele>
        <time>2016-08-25T12:41:55Z</time>
      </trkpt>
      <trkpt lat="47.37571" lon="-3.01425">
        <ele>-0.34</ele>
        <time>2016-08-25T12:42:17Z</time>
      </trkpt>
      <trkpt lat="47.37566" lon="-3.01425">
        <ele>0.14</ele>
        <time>2016-08-25T12:42:41Z</time>
      </trkpt>
      <trkpt lat="47.37556" lon="-3.01439">
        <ele>0.62</ele>
        <time>2016-08-25T12:43:04Z</time>
      </trkpt>
      <trkpt lat="47.37532" lon="-3.01448">
        <ele>0.14</ele>
        <time>2016-08-25T12:43:30Z</time>
      </trkpt>
      <trkpt lat="47.3753" lon="-3.01446">
        <ele>0.14</ele>
        <time>2016-08-25T12:43:55Z</time>
      </trkpt>
      <trkpt lat="47.3753" lon="-3.01446">
        <ele>0.14</ele>
        <time>2016-08-25T12:43:56Z</time>
      </trkpt>
      <trkpt lat="47.37539" lon="-3.01432">
        <ele>-0.34</ele>
        <time>2016-08-25T12:44:08Z</time>
      </trkpt>
      <trkpt lat="47.37557" lon="-3.01387">
        <ele>-0.34</ele>
        <time>2016-08-25T12:44:34Z</time>
      </trkpt>
      <trkpt lat="47.37583" lon="-3.01355">
        <ele>0.14</ele>
        <time>2016-08-25T12:44:58Z</time>
      </trkpt>
      <trkpt lat="47.37597" lon="-3.01321">
        <ele>-0.34</ele>
        <time>2016-08-25T12:45:19Z</time>
      </trkpt>
      <trkpt lat="47.37616" lon="-3.01282">
        <ele>0.14</ele>
        <time>2016-08-25T12:45:42Z</time>
      </trkpt>
      <trkpt lat="47.37635" lon="-3.01238">
        <ele>0.14</ele>
        <time>2016-08-25T12:46:06Z</time>
      </trkpt>
      <trkpt lat="47.37651" lon="-3.01182">
        <ele>-0.34</ele>
        <time>2016-08-25T12:46:31Z</time>
      </trkpt>
      <trkpt lat="47.37663" lon="-3.01126">
        <ele>-0.82</ele>
        <time>2016-08-25T12:46:56Z</time>
      </trkpt>
      <trkpt lat="47.37673" lon="-3.01072">
        <ele>-1.3</ele>
        <time>2016-08-25T12:47:19Z</time>
      </trkpt>
      <trkpt lat="47.37678" lon="-3.01019">
        <ele>-1.3</ele>
        <time>2016-08-25T12:47:43Z</time>
      </trkpt>
      <trkpt lat="47.37684" lon="-3.00958">
        <ele>-0.34</ele>
        <time>2016-08-25T12:48:10Z</time>
      </trkpt>
      <trkpt lat="47.37688" lon="-3.00898">
        <ele>-0.34</ele>
        <time>2016-08-25T12:48:37Z</time>
      </trkpt>
      <trkpt lat="47.37694" lon="-3.00844">
        <ele>0.14</ele>
        <time>2016-08-25T12:49:00Z</time>
      </trkpt>
      <trkpt lat="47.37698" lon="-3.00793">
        <ele>0.14</ele>
        <time>2016-08-25T12:49:24Z</time>
      </trkpt>
      <trkpt lat="47.37706" lon="-3.00723">
        <ele>-0.34</ele>
        <time>2016-08-25T12:49:54Z</time>
      </trkpt>
      <trkpt lat="47.37712" lon="-3.00678">
        <ele>-0.82</ele>
        <time>2016-08-25T12:50:13Z</time>
      </trkpt>
      <trkpt lat="47.37718" lon="-3.00623">
        <ele>-0.82</ele>
        <time>2016-08-25T12:50:37Z</time>
      </trkpt>
      <trkpt lat="47.37723" lon="-3.00575">
        <ele>-0.82</ele>
        <time>2016-08-25T12:50:58Z</time>
      </trkpt>
      <trkpt lat="47.37726" lon="-3.00517">
        <ele>-1.3</ele>
        <time>2016-08-25T12:51:24Z</time>
      </trkpt>
      <trkpt lat="47.37733" lon="-3.00461">
        <ele>-0.82</ele>
        <time>2016-08-25T12:51:48Z</time>
      </trkpt>
      <trkpt lat="47.37737" lon="-3.00407">
        <ele>-0.82</ele>
        <time>2016-08-25T12:52:10Z</time>
      </trkpt>
      <trkpt lat="47.37742" lon="-3.00348">
        <ele>-1.3</ele>
        <time>2016-08-25T12:52:36Z</time>
      </trkpt>
      <trkpt lat="47.37747" lon="-3.00289">
        <ele>-0.82</ele>
        <time>2016-08-25T12:53:04Z</time>
      </trkpt>
      <trkpt lat="47.37751" lon="-3.00238">
        <ele>-1.3</ele>
        <time>2016-08-25T12:53:28Z</time>
      </trkpt>
      <trkpt lat="47.37756" lon="-3.00192">
        <ele>-0.34</ele>
        <time>2016-08-25T12:53:50Z</time>
      </trkpt>
      <trkpt lat="47.37762" lon="-3.00143">
        <ele>0.14</ele>
        <time>2016-08-25T12:54:15Z</time>
      </trkpt>
      <trkpt lat="47.3777" lon="-3.00084">
        <ele>-1.3</ele>
        <time>2016-08-25T12:54:43Z</time>
      </trkpt>
      <trkpt lat="47.37778" lon="-3.00028">
        <ele>-0.34</ele>
        <time>2016-08-25T12:55:11Z</time>
      </trkpt>
      <trkpt lat="47.37784" lon="-2.99985">
        <ele>-1.3</ele>
        <time>2016-08-25T12:55:34Z</time>
      </trkpt>
      <trkpt lat="47.37789" lon="-2.99951">
        <ele>-0.82</ele>
        <time>2016-08-25T12:55:53Z</time>
      </trkpt>
      <trkpt lat="47.37796" lon="-2.99913">
        <ele>-0.82</ele>
        <time>2016-08-25T12:56:17Z</time>
      </trkpt>
      <trkpt lat="47.37803" lon="-2.99877">
        <ele>-0.82</ele>
        <time>2016-08-25T12:56:41Z</time>
      </trkpt>
      <trkpt lat="47.37813" lon="-2.99843">
        <ele>-0.34</ele>
        <time>2016-08-25T12:57:02Z</time>
      </trkpt>
      <trkpt lat="47.37826" lon="-2.99802">
        <ele>-0.34</ele>
        <time>2016-08-25T12:57:25Z</time>
      </trkpt>
      <trkpt lat="47.37839" lon="-2.99759">
        <ele>0.14</ele>
        <time>2016-08-25T12:57:48Z</time>
      </trkpt>
      <trkpt lat="47.37853" lon="-2.9971">
        <ele>-0.34</ele>
        <time>2016-08-25T12:58:13Z</time>
      </trkpt>
      <trkpt lat="47.37865" lon="-2.99658">
        <ele>-0.82</ele>
        <time>2016-08-25T12:58:39Z</time>
      </trkpt>
      <trkpt lat="47.37877" lon="-2.99606">
        <ele>-0.34</ele>
        <time>2016-08-25T12:59:03Z</time>
      </trkpt>
      <trkpt lat="47.3789" lon="-2.99542">
        <ele>-0.82</ele>
        <time>2016-08-25T12:59:31Z</time>
      </trkpt>
      <trkpt lat="47.379" lon="-2.99484">
        <ele>-0.82</ele>
        <time>2016-08-25T12:59:55Z</time>
      </trkpt>
      <trkpt lat="47.37903" lon="-2.99427">
        <ele>-0.34</ele>
        <time>2016-08-25T13:00:19Z</time>
      </trkpt>
      <trkpt lat="47.37907" lon="-2.99372">
        <ele>-0.82</ele>
        <time>2016-08-25T13:00:43Z</time>
      </trkpt>
      <trkpt lat="47.3791" lon="-2.99316">
        <ele>-0.82</ele>
        <time>2016-08-25T13:01:07Z</time>
      </trkpt>
      <trkpt lat="47.37913" lon="-2.99262">
        <ele>-0.82</ele>
        <time>2016-08-25T13:01:32Z</time>
      </trkpt>
      <trkpt lat="47.37916" lon="-2.99212">
        <ele>-0.82</ele>
        <time>2016-08-25T13:01:57Z</time>
      </trkpt>
      <trkpt lat="47.37923" lon="-2.99163">
        <ele>0.14</ele>
        <time>2016-08-25T13:02:23Z</time>
      </trkpt>
      <trkpt lat="47.37929" lon="-2.99124">
        <ele>0.14</ele>
        <time>2016-08-25T13:02:45Z</time>
      </trkpt>
      <trkpt lat="47.37935" lon="-2.99079">
        <ele>0.14</ele>
        <time>2016-08-25T13:03:13Z</time>
      </trkpt>
      <trkpt lat="47.37943" lon="-2.99036">
        <ele>-0.34</ele>
        <time>2016-08-25T13:03:41Z</time>
      </trkpt>
      <trkpt lat="47.37949" lon="-2.99005">
        <ele>-0.34</ele>
        <time>2016-08-25T13:04:04Z</time>
      </trkpt>
      <trkpt lat="47.37956" lon="-2.98974">
        <ele>0.14</ele>
        <time>2016-08-25T13:04:30Z</time>
      </trkpt>
      <trkpt lat="47.37962" lon="-2.98946">
        <ele>0.14</ele>
        <time>2016-08-25T13:04:55Z</time>
      </trkpt>
      <trkpt lat="47.37968" lon="-2.98924">
        <ele>0.14</ele>
        <time>2016-08-25T13:05:17Z</time>
      </trkpt>
      <trkpt lat="47.37975" lon="-2.989">
        <ele>0.14</ele>
        <time>2016-08-25T13:05:43Z</time>
      </trkpt>
      <trkpt lat="47.37983" lon="-2.9888">
        <ele>-0.34</ele>
        <time>2016-08-25T13:06:10Z</time>
      </trkpt>
      <trkpt lat="47.3799" lon="-2.98866">
        <ele>0.14</ele>
        <time>2016-08-25T13:06:33Z</time>
      </trkpt>
      <trkpt lat="47.37996" lon="-2.98855">
        <ele>-0.34</ele>
        <time>2016-08-25T13:06:53Z</time>
      </trkpt>
      <trkpt lat="47.38002" lon="-2.98845">
        <ele>-0.34</ele>
        <time>2016-08-25T13:07:18Z</time>
      </trkpt>
      <trkpt lat="47.38008" lon="-2.98837">
        <ele>0.14</ele>
        <time>2016-08-25T13:07:42Z</time>
      </trkpt>
      <trkpt lat="47.38011" lon="-2.98833">
        <ele>0.14</ele>
        <time>2016-08-25T13:08:00Z</time>
      </trkpt>
      <trkpt lat="47.38016" lon="-2.98828">
        <ele>0.14</ele>
        <time>2016-08-25T13:08:22Z</time>
      </trkpt>
      <trkpt lat="47.38019" lon="-2.98824">
        <ele>0.14</ele>
        <time>2016-08-25T13:08:42Z</time>
      </trkpt>
      <trkpt lat="47.38023" lon="-2.98821">
        <ele>0.14</ele>
        <time>2016-08-25T13:09:03Z</time>
      </trkpt>
      <trkpt lat="47.38025" lon="-2.98818">
        <ele>0.14</ele>
        <time>2016-08-25T13:09:24Z</time>
      </trkpt>
      <trkpt lat="47.38028" lon="-2.98816">
        <ele>0.62</ele>
        <time>2016-08-25T13:09:47Z</time>
      </trkpt>
      <trkpt lat="47.38029" lon="-2.98815">
        <ele>0.62</ele>
        <time>2016-08-25T13:10:09Z</time>
      </trkpt>
      <trkpt lat="47.38032" lon="-2.98814">
        <ele>0.62</ele>
        <time>2016-08-25T13:10:32Z</time>
      </trkpt>
      <trkpt lat="47.38035" lon="-2.98813">
        <ele>0.62</ele>
        <time>2016-08-25T13:10:55Z</time>
      </trkpt>
      <trkpt lat="47.38039" lon="-2.98812">
        <ele>0.62</ele>
        <time>2016-08-25T13:11:15Z</time>
      </trkpt>
      <trkpt lat="47.38042" lon="-2.98813">
        <ele>0.14</ele>
        <time>2016-08-25T13:11:37Z</time>
      </trkpt>
      <trkpt lat="47.38045" lon="-2.98812">
        <ele>0.14</ele>
        <time>2016-08-25T13:12:01Z</time>
      </trkpt>
      <trkpt lat="47.38048" lon="-2.98812">
        <ele>0.14</ele>
        <time>2016-08-25T13:12:26Z</time>
      </trkpt>
      <trkpt lat="47.3805" lon="-2.98811">
        <ele>0.14</ele>
        <time>2016-08-25T13:12:51Z</time>
      </trkpt>
      <trkpt lat="47.38053" lon="-2.98811">
        <ele>0.14</ele>
        <time>2016-08-25T13:13:17Z</time>
      </trkpt>
      <trkpt lat="47.38056" lon="-2.9881">
        <ele>0.14</ele>
        <time>2016-08-25T13:13:44Z</time>
      </trkpt>
      <trkpt lat="47.38058" lon="-2.98809">
        <ele>0.14</ele>
        <time>2016-08-25T13:14:06Z</time>
      </trkpt>
      <trkpt lat="47.38061" lon="-2.98809">
        <ele>0.62</ele>
        <time>2016-08-25T13:14:30Z</time>
      </trkpt>
      <trkpt lat="47.38064" lon="-2.98808">
        <ele>0.62</ele>
        <time>2016-08-25T13:14:53Z</time>
      </trkpt>
      <trkpt lat="47.38067" lon="-2.98807">
        <ele>0.62</ele>
        <time>2016-08-25T13:15:17Z</time>
      </trkpt>
      <trkpt lat="47.38071" lon="-2.98805">
        <ele>1.1</ele>
        <time>2016-08-25T13:15:44Z</time>
      </trkpt>
      <trkpt lat="47.38076" lon="-2.98803">
        <ele>1.58</ele>
        <time>2016-08-25T13:16:10Z</time>
      </trkpt>
      <trkpt lat="47.38079" lon="-2.98801">
        <ele>2.06</ele>
        <time>2016-08-25T13:16:35Z</time>
      </trkpt>
      <trkpt lat="47.38082" lon="-2.988">
        <ele>2.54</ele>
        <time>2016-08-25T13:16:55Z</time>
      </trkpt>
      <trkpt lat="47.38086" lon="-2.98799">
        <ele>2.54</ele>
        <time>2016-08-25T13:17:16Z</time>
      </trkpt>
      <trkpt lat="47.38091" lon="-2.98797">
        <ele>3.02</ele>
        <time>2016-08-25T13:17:43Z</time>
      </trkpt>
      <trkpt lat="47.38095" lon="-2.98794">
        <ele>3.02</ele>
        <time>2016-08-25T13:18:08Z</time>
      </trkpt>
      <trkpt lat="47.381" lon="-2.9879">
        <ele>2.54</ele>
        <time>2016-08-25T13:18:33Z</time>
      </trkpt>
      <trkpt lat="47.38104" lon="-2.98786">
        <ele>2.54</ele>
        <time>2016-08-25T13:18:58Z</time>
      </trkpt>
      <trkpt lat="47.38109" lon="-2.98783">
        <ele>2.54</ele>
        <time>2016-08-25T13:19:21Z</time>
      </trkpt>
      <trkpt lat="47.38113" lon="-2.9878">
        <ele>3.5</ele>
        <time>2016-08-25T13:19:44Z</time>
      </trkpt>
      <trkpt lat="47.38117" lon="-2.98777">
        <ele>3.98</ele>
        <time>2016-08-25T13:20:06Z</time>
      </trkpt>
      <trkpt lat="47.38123" lon="-2.98767">
        <ele>2.54</ele>
        <time>2016-08-25T13:20:30Z</time>
      </trkpt>
      <trkpt lat="47.38125" lon="-2.98765">
        <ele>3.02</ele>
        <time>2016-08-25T13:20:51Z</time>
      </trkpt>
      <trkpt lat="47.38131" lon="-2.98758">
        <ele>3.02</ele>
        <time>2016-08-25T13:21:18Z</time>
      </trkpt>
      <trkpt lat="47.38136" lon="-2.98753">
        <ele>2.54</ele>
        <time>2016-08-25T13:21:43Z</time>
      </trkpt>
      <trkpt lat="47.38144" lon="-2.98745">
        <ele>2.54</ele>
        <time>2016-08-25T13:22:03Z</time>
      </trkpt>
      <trkpt lat="47.38154" lon="-2.98739">
        <ele>1.58</ele>
        <time>2016-08-25T13:22:27Z</time>
      </trkpt>
      <trkpt lat="47.3816" lon="-2.98735">
        <ele>0.62</ele>
        <time>2016-08-25T13:22:49Z</time>
      </trkpt>
      <trkpt lat="47.38163" lon="-2.98732">
        <ele>0.14</ele>
        <time>2016-08-25T13:23:11Z</time>
      </trkpt>
      <trkpt lat="47.38166" lon="-2.98729">
        <ele>0.62</ele>
        <time>2016-08-25T13:23:34Z</time>
      </trkpt>
      <trkpt lat="47.38169" lon="-2.98725">
        <ele>1.1</ele>
        <time>2016-08-25T13:23:54Z</time>
      </trkpt>
      <trkpt lat="47.38172" lon="-2.98722">
        <ele>2.06</ele>
        <time>2016-08-25T13:24:16Z</time>
      </trkpt>
      <trkpt lat="47.38175" lon="-2.98718">
        <ele>3.02</ele>
        <time>2016-08-25T13:24:39Z</time>
      </trkpt>
      <trkpt lat="47.38178" lon="-2.98713">
        <ele>3.5</ele>
        <time>2016-08-25T13:25:00Z</time>
      </trkpt>
      <trkpt lat="47.38181" lon="-2.98704">
        <ele>3.98</ele>
        <time>2016-08-25T13:25:21Z</time>
      </trkpt>
      <trkpt lat="47.38185" lon="-2.98693">
        <ele>3.02</ele>
        <time>2016-08-25T13:25:44Z</time>
      </trkpt>
      <trkpt lat="47.38187" lon="-2.98682">
        <ele>3.98</ele>
        <time>2016-08-25T13:26:12Z</time>
      </trkpt>
      <trkpt lat="47.38189" lon="-2.98675">
        <ele>5.42</ele>
        <time>2016-08-25T13:26:35Z</time>
      </trkpt>
      <trkpt lat="47.38192" lon="-2.98666">
        <ele>6.87</ele>
        <time>2016-08-25T13:26:58Z</time>
      </trkpt>
      <trkpt lat="47.38196" lon="-2.98655">
        <ele>7.35</ele>
        <time>2016-08-25T13:27:20Z</time>
      </trkpt>
      <trkpt lat="47.38199" lon="-2.98644">
        <ele>9.75</ele>
        <time>2016-08-25T13:27:45Z</time>
      </trkpt>
      <trkpt lat="47.38202" lon="-2.98628">
        <ele>11.67</ele>
        <time>2016-08-25T13:28:05Z</time>
      </trkpt>
      <trkpt lat="47.38213" lon="-2.98596">
        <ele>11.67</ele>
        <time>2016-08-25T13:28:23Z</time>
      </trkpt>
      <trkpt lat="47.3822" lon="-2.9857">
        <ele>7.83</ele>
        <time>2016-08-25T13:28:43Z</time>
      </trkpt>
      <trkpt lat="47.38228" lon="-2.98544">
        <ele>3.98</ele>
        <time>2016-08-25T13:29:08Z</time>
      </trkpt>
      <trkpt lat="47.38236" lon="-2.9853">
        <ele>3.02</ele>
        <time>2016-08-25T13:29:22Z</time>
      </trkpt>
      <trkpt lat="47.38244" lon="-2.98506">
        <ele>1.58</ele>
        <time>2016-08-25T13:29:41Z</time>
      </trkpt>
      <trkpt lat="47.38251" lon="-2.9848">
        <ele>0.62</ele>
        <time>2016-08-25T13:30:02Z</time>
      </trkpt>
      <trkpt lat="47.38261" lon="-2.98446">
        <ele>0.14</ele>
        <time>2016-08-25T13:30:28Z</time>
      </trkpt>
      <trkpt lat="47.38267" lon="-2.98419">
        <ele>0.14</ele>
        <time>2016-08-25T13:30:50Z</time>
      </trkpt>
      <trkpt lat="47.3827" lon="-2.98392">
        <ele>0.62</ele>
        <time>2016-08-25T13:31:12Z</time>
      </trkpt>
      <trkpt lat="47.38273" lon="-2.98372">
        <ele>0.14</ele>
        <time>2016-08-25T13:31:32Z</time>
      </trkpt>
      <trkpt lat="47.38274" lon="-2.98364">
        <ele>-0.34</ele>
        <time>2016-08-25T13:31:41Z</time>
      </trkpt>
      <trkpt lat="47.38272" lon="-2.98341">
        <ele>-0.34</ele>
        <time>2016-08-25T13:32:03Z</time>
      </trkpt>
      <trkpt lat="47.38271" lon="-2.98319">
        <ele>0.14</ele>
        <time>2016-08-25T13:32:25Z</time>
      </trkpt>
      <trkpt lat="47.38269" lon="-2.98299">
        <ele>0.14</ele>
        <time>2016-08-25T13:32:47Z</time>
      </trkpt>
      <trkpt lat="47.38264" lon="-2.98279">
        <ele>-0.34</ele>
        <time>2016-08-25T13:33:11Z</time>
      </trkpt>
      <trkpt lat="47.38254" lon="-2.9826">
        <ele>-0.82</ele>
        <time>2016-08-25T13:33:36Z</time>
      </trkpt>
      <trkpt lat="47.38242" lon="-2.98243">
        <ele>-0.34</ele>
        <time>2016-08-25T13:34:01Z</time>
      </trkpt>
      <trkpt lat="47.38234" lon="-2.98233">
        <ele>0.14</ele>
        <time>2016-08-25T13:34:16Z</time>
      </trkpt>
      <trkpt lat="47.38222" lon="-2.98212">
        <ele>-0.34</ele>
        <time>2016-08-25T13:34:41Z</time>
      </trkpt>
      <trkpt lat="47.38213" lon="-2.9819">
        <ele>-0.82</ele>
        <time>2016-08-25T13:35:06Z</time>
      </trkpt>
      <trkpt lat="47.38208" lon="-2.98172">
        <ele>-0.34</ele>
        <time>2016-08-25T13:35:27Z</time>
      </trkpt>
      <trkpt lat="47.38205" lon="-2.98156">
        <ele>-0.82</ele>
        <time>2016-08-25T13:35:49Z</time>
      </trkpt>
      <trkpt lat="47.38203" lon="-2.98139">
        <ele>-0.82</ele>
        <time>2016-08-25T13:36:11Z</time>
      </trkpt>
      <trkpt lat="47.38202" lon="-2.98134">
        <ele>0.62</ele>
        <time>2016-08-25T13:36:31Z</time>
      </trkpt>
      <trkpt lat="47.382" lon="-2.98124">
        <ele>1.58</ele>
        <time>2016-08-25T13:36:49Z</time>
      </trkpt>
      <trkpt lat="47.38194" lon="-2.98103">
        <ele>3.5</ele>
        <time>2016-08-25T13:37:07Z</time>
      </trkpt>
      <trkpt lat="47.3819" lon="-2.98085">
        <ele>2.54</ele>
        <time>2016-08-25T13:37:27Z</time>
      </trkpt>
      <trkpt lat="47.38188" lon="-2.98069">
        <ele>0.62</ele>
        <time>2016-08-25T13:37:46Z</time>
      </trkpt>
      <trkpt lat="47.38185" lon="-2.98054">
        <ele>0.14</ele>
        <time>2016-08-25T13:38:03Z</time>
      </trkpt>
      <trkpt lat="47.38173" lon="-2.98041">
        <ele>-0.34</ele>
        <time>2016-08-25T13:38:26Z</time>
      </trkpt>
      <trkpt lat="47.3816" lon="-2.98029">
        <ele>-0.82</ele>
        <time>2016-08-25T13:38:49Z</time>
      </trkpt>
      <trkpt lat="47.38146" lon="-2.98017">
        <ele>-0.34</ele>
        <time>2016-08-25T13:39:12Z</time>
      </trkpt>
      <trkpt lat="47.38133" lon="-2.98007">
        <ele>0.14</ele>
        <time>2016-08-25T13:39:33Z</time>
      </trkpt>
      <trkpt lat="47.38122" lon="-2.97997">
        <ele>-0.34</ele>
        <time>2016-08-25T13:39:53Z</time>
      </trkpt>
      <trkpt lat="47.38112" lon="-2.97985">
        <ele>0.14</ele>
        <time>2016-08-25T13:40:10Z</time>
      </trkpt>
      <trkpt lat="47.381" lon="-2.97972">
        <ele>-0.34</ele>
        <time>2016-08-25T13:40:33Z</time>
      </trkpt>
      <trkpt lat="47.38091" lon="-2.97959">
        <ele>-0.34</ele>
        <time>2016-08-25T13:40:57Z</time>
      </trkpt>
      <trkpt lat="47.38085" lon="-2.97947">
        <ele>0.62</ele>
        <time>2016-08-25T13:41:19Z</time>
      </trkpt>
      <trkpt lat="47.3808" lon="-2.97936">
        <ele>0.62</ele>
        <time>2016-08-25T13:41:43Z</time>
      </trkpt>
      <trkpt lat="47.38078" lon="-2.97932">
        <ele>1.1</ele>
        <time>2016-08-25T13:42:04Z</time>
      </trkpt>
      <trkpt lat="47.38076" lon="-2.97928">
        <ele>0.62</ele>
        <time>2016-08-25T13:42:23Z</time>
      </trkpt>
      <trkpt lat="47.38073" lon="-2.97923">
        <ele>0.14</ele>
        <time>2016-08-25T13:42:48Z</time>
      </trkpt>
      <trkpt lat="47.3807" lon="-2.97918">
        <ele>1.1</ele>
        <time>2016-08-25T13:43:09Z</time>
      </trkpt>
      <trkpt lat="47.38061" lon="-2.97911">
        <ele>1.1</ele>
        <time>2016-08-25T13:43:30Z</time>
      </trkpt>
      <trkpt lat="47.38057" lon="-2.97906">
        <ele>0.62</ele>
        <time>2016-08-25T13:43:54Z</time>
      </trkpt>
      <trkpt lat="47.38053" lon="-2.97899">
        <ele>1.1</ele>
        <time>2016-08-25T13:44:15Z</time>
      </trkpt>
      <trkpt lat="47.38037" lon="-2.97877">
        <ele>2.06</ele>
        <time>2016-08-25T13:44:38Z</time>
      </trkpt>
      <trkpt lat="47.38007" lon="-2.97819">
        <ele>2.06</ele>
        <time>2016-08-25T13:45:00Z</time>
      </trkpt>
      <trkpt lat="47.37983" lon="-2.97765">
        <ele>1.1</ele>
        <time>2016-08-25T13:45:21Z</time>
      </trkpt>
      <trkpt lat="47.37966" lon="-2.9772">
        <ele>1.58</ele>
        <time>2016-08-25T13:45:38Z</time>
      </trkpt>
      <trkpt lat="47.37941" lon="-2.97659">
        <ele>1.1</ele>
        <time>2016-08-25T13:46:01Z</time>
      </trkpt>
      <trkpt lat="47.37923" lon="-2.97617">
        <ele>0.62</ele>
        <time>2016-08-25T13:46:18Z</time>
      </trkpt>
      <trkpt lat="47.37897" lon="-2.97566">
        <ele>0.62</ele>
        <time>2016-08-25T13:46:38Z</time>
      </trkpt>
      <trkpt lat="47.37875" lon="-2.97519">
        <ele>-0.34</ele>
        <time>2016-08-25T13:46:57Z</time>
      </trkpt>
      <trkpt lat="47.3785" lon="-2.97467">
        <ele>0.62</ele>
        <time>2016-08-25T13:47:18Z</time>
      </trkpt>
      <trkpt lat="47.37813" lon="-2.97412">
        <ele>0.14</ele>
        <time>2016-08-25T13:47:44Z</time>
      </trkpt>
      <trkpt lat="47.37776" lon="-2.9736">
        <ele>0.62</ele>
        <time>2016-08-25T13:48:09Z</time>
      </trkpt>
      <trkpt lat="47.37746" lon="-2.9731">
        <ele>0.62</ele>
        <time>2016-08-25T13:48:31Z</time>
      </trkpt>
      <trkpt lat="47.37717" lon="-2.97251">
        <ele>0.14</ele>
        <time>2016-08-25T13:48:55Z</time>
      </trkpt>
      <trkpt lat="47.37688" lon="-2.97189">
        <ele>0.62</ele>
        <time>2016-08-25T13:49:19Z</time>
      </trkpt>
      <trkpt lat="47.37663" lon="-2.97139">
        <ele>0.62</ele>
        <time>2016-08-25T13:49:39Z</time>
      </trkpt>
      <trkpt lat="47.37633" lon="-2.97083">
        <ele>1.1</ele>
        <time>2016-08-25T13:50:02Z</time>
      </trkpt>
      <trkpt lat="47.37606" lon="-2.9703">
        <ele>1.1</ele>
        <time>2016-08-25T13:50:23Z</time>
      </trkpt>
      <trkpt lat="47.37578" lon="-2.9699">
        <ele>1.1</ele>
        <time>2016-08-25T13:50:41Z</time>
      </trkpt>
      <trkpt lat="47.37549" lon="-2.96938">
        <ele>1.1</ele>
        <time>2016-08-25T13:51:02Z</time>
      </trkpt>
      <trkpt lat="47.37528" lon="-2.96888">
        <ele>0.62</ele>
        <time>2016-08-25T13:51:20Z</time>
      </trkpt>
      <trkpt lat="47.37507" lon="-2.96838">
        <ele>0.62</ele>
        <time>2016-08-25T13:51:39Z</time>
      </trkpt>
      <trkpt lat="47.37477" lon="-2.9678">
        <ele>0.62</ele>
        <time>2016-08-25T13:52:01Z</time>
      </trkpt>
      <trkpt lat="47.37453" lon="-2.96724">
        <ele>1.1</ele>
        <time>2016-08-25T13:52:22Z</time>
      </trkpt>
      <trkpt lat="47.37427" lon="-2.96668">
        <ele>1.58</ele>
        <time>2016-08-25T13:52:44Z</time>
      </trkpt>
      <trkpt lat="47.37405" lon="-2.96618">
        <ele>1.1</ele>
        <time>2016-08-25T13:53:03Z</time>
      </trkpt>
      <trkpt lat="47.37379" lon="-2.96556">
        <ele>1.58</ele>
        <time>2016-08-25T13:53:26Z</time>
      </trkpt>
      <trkpt lat="47.37348" lon="-2.96487">
        <ele>0.62</ele>
        <time>2016-08-25T13:53:52Z</time>
      </trkpt>
      <trkpt lat="47.37315" lon="-2.96432">
        <ele>0.62</ele>
        <time>2016-08-25T13:54:15Z</time>
      </trkpt>
      <trkpt lat="47.37273" lon="-2.96388">
        <ele>0.62</ele>
        <time>2016-08-25T13:54:39Z</time>
      </trkpt>
      <trkpt lat="47.37239" lon="-2.9634">
        <ele>0.14</ele>
        <time>2016-08-25T13:55:01Z</time>
      </trkpt>
      <trkpt lat="47.37208" lon="-2.96282">
        <ele>1.1</ele>
        <time>2016-08-25T13:55:25Z</time>
      </trkpt>
      <trkpt lat="47.37169" lon="-2.96231">
        <ele>1.1</ele>
        <time>2016-08-25T13:55:49Z</time>
      </trkpt>
      <trkpt lat="47.37144" lon="-2.96164">
        <ele>1.1</ele>
        <time>2016-08-25T13:56:14Z</time>
      </trkpt>
      <trkpt lat="47.37116" lon="-2.96086">
        <ele>1.1</ele>
        <time>2016-08-25T13:56:42Z</time>
      </trkpt>
      <trkpt lat="47.37093" lon="-2.96022">
        <ele>1.1</ele>
        <time>2016-08-25T13:57:05Z</time>
      </trkpt>
      <trkpt lat="47.3707" lon="-2.95959">
        <ele>1.58</ele>
        <time>2016-08-25T13:57:28Z</time>
      </trkpt>
      <trkpt lat="47.37052" lon="-2.95893">
        <ele>2.54</ele>
        <time>2016-08-25T13:57:51Z</time>
      </trkpt>
      <trkpt lat="47.37029" lon="-2.95829">
        <ele>1.58</ele>
        <time>2016-08-25T13:58:14Z</time>
      </trkpt>
      <trkpt lat="47.37006" lon="-2.95766">
        <ele>1.1</ele>
        <time>2016-08-25T13:58:36Z</time>
      </trkpt>
      <trkpt lat="47.36989" lon="-2.95707">
        <ele>1.1</ele>
        <time>2016-08-25T13:58:56Z</time>
      </trkpt>
      <trkpt lat="47.36973" lon="-2.95644">
        <ele>1.58</ele>
        <time>2016-08-25T13:59:17Z</time>
      </trkpt>
      <trkpt lat="47.3696" lon="-2.95582">
        <ele>1.58</ele>
        <time>2016-08-25T13:59:37Z</time>
      </trkpt>
      <trkpt lat="47.36947" lon="-2.95517">
        <ele>1.58</ele>
        <time>2016-08-25T13:59:58Z</time>
      </trkpt>
      <trkpt lat="47.36924" lon="-2.95473">
        <ele>1.58</ele>
        <time>2016-08-25T14:00:16Z</time>
      </trkpt>
      <trkpt lat="47.36906" lon="-2.95408">
        <ele>2.06</ele>
        <time>2016-08-25T14:00:38Z</time>
      </trkpt>
      <trkpt lat="47.36893" lon="-2.95348">
        <ele>1.58</ele>
        <time>2016-08-25T14:00:58Z</time>
      </trkpt>
      <trkpt lat="47.36878" lon="-2.95278">
        <ele>1.1</ele>
        <time>2016-08-25T14:01:21Z</time>
      </trkpt>
      <trkpt lat="47.36861" lon="-2.9521">
        <ele>1.58</ele>
        <time>2016-08-25T14:01:44Z</time>
      </trkpt>
      <trkpt lat="47.36846" lon="-2.95143">
        <ele>1.1</ele>
        <time>2016-08-25T14:02:06Z</time>
      </trkpt>
      <trkpt lat="47.36833" lon="-2.95089">
        <ele>1.58</ele>
        <time>2016-08-25T14:02:24Z</time>
      </trkpt>
      <trkpt lat="47.36811" lon="-2.95015">
        <ele>1.58</ele>
        <time>2016-08-25T14:02:49Z</time>
      </trkpt>
      <trkpt lat="47.36781" lon="-2.9497">
        <ele>2.06</ele>
        <time>2016-08-25T14:03:09Z</time>
      </trkpt>
      <trkpt lat="47.36757" lon="-2.94917">
        <ele>1.1</ele>
        <time>2016-08-25T14:03:30Z</time>
      </trkpt>
      <trkpt lat="47.36738" lon="-2.94839">
        <ele>1.58</ele>
        <time>2016-08-25T14:03:57Z</time>
      </trkpt>
      <trkpt lat="47.36731" lon="-2.94761">
        <ele>2.06</ele>
        <time>2016-08-25T14:04:22Z</time>
      </trkpt>
      <trkpt lat="47.3672" lon="-2.94691">
        <ele>1.58</ele>
        <time>2016-08-25T14:04:45Z</time>
      </trkpt>
      <trkpt lat="47.3671" lon="-2.9462">
        <ele>2.06</ele>
        <time>2016-08-25T14:05:08Z</time>
      </trkpt>
      <trkpt lat="47.36698" lon="-2.94562">
        <ele>2.06</ele>
        <time>2016-08-25T14:05:29Z</time>
      </trkpt>
      <trkpt lat="47.36704" lon="-2.94513">
        <ele>1.58</ele>
        <time>2016-08-25T14:05:50Z</time>
      </trkpt>
      <trkpt lat="47.36723" lon="-2.94466">
        <ele>1.58</ele>
        <time>2016-08-25T14:06:13Z</time>
      </trkpt>
      <trkpt lat="47.36745" lon="-2.94429">
        <ele>1.58</ele>
        <time>2016-08-25T14:06:35Z</time>
      </trkpt>
      <trkpt lat="47.36776" lon="-2.94393">
        <ele>2.06</ele>
        <time>2016-08-25T14:07:00Z</time>
      </trkpt>
      <trkpt lat="47.36804" lon="-2.94349">
        <ele>1.58</ele>
        <time>2016-08-25T14:07:25Z</time>
      </trkpt>
      <trkpt lat="47.36827" lon="-2.94324">
        <ele>1.58</ele>
        <time>2016-08-25T14:07:43Z</time>
      </trkpt>
      <trkpt lat="47.36861" lon="-2.94291">
        <ele>2.06</ele>
        <time>2016-08-25T14:08:07Z</time>
      </trkpt>
      <trkpt lat="47.36894" lon="-2.94248">
        <ele>1.58</ele>
        <time>2016-08-25T14:08:33Z</time>
      </trkpt>
      <trkpt lat="47.36926" lon="-2.94232">
        <ele>1.58</ele>
        <time>2016-08-25T14:08:53Z</time>
      </trkpt>
      <trkpt lat="47.36968" lon="-2.94222">
        <ele>1.1</ele>
        <time>2016-08-25T14:09:17Z</time>
      </trkpt>
      <trkpt lat="47.37009" lon="-2.94221">
        <ele>0.62</ele>
        <time>2016-08-25T14:09:40Z</time>
      </trkpt>
      <trkpt lat="47.37058" lon="-2.94221">
        <ele>1.58</ele>
        <time>2016-08-25T14:10:07Z</time>
      </trkpt>
      <trkpt lat="47.37107" lon="-2.94217">
        <ele>1.58</ele>
        <time>2016-08-25T14:10:35Z</time>
      </trkpt>
      <trkpt lat="47.37152" lon="-2.94221">
        <ele>2.06</ele>
        <time>2016-08-25T14:11:00Z</time>
      </trkpt>
      <trkpt lat="47.37199" lon="-2.94227">
        <ele>1.58</ele>
        <time>2016-08-25T14:11:26Z</time>
      </trkpt>
      <trkpt lat="47.37249" lon="-2.94224">
        <ele>1.1</ele>
        <time>2016-08-25T14:11:53Z</time>
      </trkpt>
      <trkpt lat="47.37292" lon="-2.94225">
        <ele>0.62</ele>
        <time>2016-08-25T14:12:16Z</time>
      </trkpt>
      <trkpt lat="47.37343" lon="-2.94241">
        <ele>1.1</ele>
        <time>2016-08-25T14:12:44Z</time>
      </trkpt>
      <trkpt lat="47.37383" lon="-2.94248">
        <ele>0.62</ele>
        <time>2016-08-25T14:13:06Z</time>
      </trkpt>
      <trkpt lat="47.37434" lon="-2.94261">
        <ele>0.62</ele>
        <time>2016-08-25T14:13:34Z</time>
      </trkpt>
      <trkpt lat="47.37478" lon="-2.94278">
        <ele>0.14</ele>
        <time>2016-08-25T14:13:57Z</time>
      </trkpt>
      <trkpt lat="47.37517" lon="-2.94289">
        <ele>0.14</ele>
        <time>2016-08-25T14:14:18Z</time>
      </trkpt>
      <trkpt lat="47.37579" lon="-2.94306">
        <ele>1.1</ele>
        <time>2016-08-25T14:14:51Z</time>
      </trkpt>
      <trkpt lat="47.3762" lon="-2.94304">
        <ele>0.62</ele>
        <time>2016-08-25T14:15:12Z</time>
      </trkpt>
      <trkpt lat="47.37658" lon="-2.9432">
        <ele>1.1</ele>
        <time>2016-08-25T14:15:32Z</time>
      </trkpt>
      <trkpt lat="47.37699" lon="-2.94359">
        <ele>1.1</ele>
        <time>2016-08-25T14:15:56Z</time>
      </trkpt>
      <trkpt lat="47.3774" lon="-2.94416">
        <ele>0.62</ele>
        <time>2016-08-25T14:16:23Z</time>
      </trkpt>
      <trkpt lat="47.37775" lon="-2.94465">
        <ele>-0.34</ele>
        <time>2016-08-25T14:16:46Z</time>
      </trkpt>
      <trkpt lat="47.37821" lon="-2.94519">
        <ele>-0.34</ele>
        <time>2016-08-25T14:17:14Z</time>
      </trkpt>
      <trkpt lat="47.37864" lon="-2.94548">
        <ele>-0.82</ele>
        <time>2016-08-25T14:17:38Z</time>
      </trkpt>
      <trkpt lat="47.3789" lon="-2.94554">
        <ele>0.62</ele>
        <time>2016-08-25T14:18:02Z</time>
      </trkpt>
      <trkpt lat="47.37914" lon="-2.94561">
        <ele>1.58</ele>
        <time>2016-08-25T14:18:32Z</time>
      </trkpt>
      <trkpt lat="47.37936" lon="-2.94569">
        <ele>2.54</ele>
        <time>2016-08-25T14:18:59Z</time>
      </trkpt>
      <trkpt lat="47.37956" lon="-2.94588">
        <ele>1.1</ele>
        <time>2016-08-25T14:19:26Z</time>
      </trkpt>
      <trkpt lat="47.37957" lon="-2.94612">
        <ele>1.1</ele>
        <time>2016-08-25T14:19:54Z</time>
      </trkpt>
      <trkpt lat="47.37949" lon="-2.94633">
        <ele>1.58</ele>
        <time>2016-08-25T14:20:21Z</time>
      </trkpt>
      <trkpt lat="47.3794" lon="-2.94652">
        <ele>1.58</ele>
        <time>2016-08-25T14:20:50Z</time>
      </trkpt>
      <trkpt lat="47.37935" lon="-2.94668">
        <ele>1.58</ele>
        <time>2016-08-25T14:21:19Z</time>
      </trkpt>
      <trkpt lat="47.37932" lon="-2.94677">
        <ele>1.1</ele>
        <time>2016-08-25T14:21:46Z</time>
      </trkpt>
      <trkpt lat="47.37928" lon="-2.94689">
        <ele>1.58</ele>
        <time>2016-08-25T14:21:56Z</time>
      </trkpt>
      <trkpt lat="47.37915" lon="-2.94729">
        <ele>2.06</ele>
        <time>2016-08-25T14:22:28Z</time>
      </trkpt>
      <trkpt lat="47.37909" lon="-2.94746">
        <ele>2.06</ele>
        <time>2016-08-25T14:22:55Z</time>
      </trkpt>
      <trkpt lat="47.37893" lon="-2.94777">
        <ele>2.06</ele>
        <time>2016-08-25T14:23:27Z</time>
      </trkpt>
      <trkpt lat="47.3789" lon="-2.94794">
        <ele>1.58</ele>
        <time>2016-08-25T14:23:53Z</time>
      </trkpt>
      <trkpt lat="47.37892" lon="-2.94794">
        <ele>2.06</ele>
        <time>2016-08-25T14:24:24Z</time>
      </trkpt>
      <trkpt lat="47.37894" lon="-2.94781">
        <ele>3.02</ele>
        <time>2016-08-25T14:24:57Z</time>
      </trkpt>
      <trkpt lat="47.37894" lon="-2.94782">
        <ele>2.54</ele>
        <time>2016-08-25T14:25:24Z</time>
      </trkpt>
      <trkpt lat="47.37894" lon="-2.94784">
        <ele>2.54</ele>
        <time>2016-08-25T14:25:46Z</time>
      </trkpt>
      <trkpt lat="47.37905" lon="-2.94793">
        <ele>-6.59</ele>
        <time>2016-08-25T15:53:47Z</time>
      </trkpt>
      <trkpt lat="47.37878" lon="-2.94783">
        <ele>-16.21</ele>
        <time>2016-08-25T15:54:00Z</time>
      </trkpt>
      <trkpt lat="47.37879" lon="-2.94792">
        <ele>-2.75</ele>
        <time>2016-08-25T15:54:17Z</time>
      </trkpt>
      <trkpt lat="47.37879" lon="-2.94794">
        <ele>-0.82</ele>
        <time>2016-08-25T15:54:32Z</time>
      </trkpt>
      <trkpt lat="47.37883" lon="-2.94796">
        <ele>-0.34</ele>
        <time>2016-08-25T15:54:56Z</time>
      </trkpt>
      <trkpt lat="47.37883" lon="-2.94797">
        <ele>-0.82</ele>
        <time>2016-08-25T15:55:21Z</time>
      </trkpt>
      <trkpt lat="47.37885" lon="-2.94799">
        <ele>-0.34</ele>
        <time>2016-08-25T15:55:44Z</time>
      </trkpt>
      <trkpt lat="47.37883" lon="-2.94792">
        <ele>-0.34</ele>
        <time>2016-08-25T15:56:06Z</time>
      </trkpt>
      <trkpt lat="47.37883" lon="-2.94781">
        <ele>0.14</ele>
        <time>2016-08-25T15:56:26Z</time>
      </trkpt>
      <trkpt lat="47.37883" lon="-2.94774">
        <ele>0.14</ele>
        <time>2016-08-25T15:56:45Z</time>
      </trkpt>
      <trkpt lat="47.37884" lon="-2.94772">
        <ele>0.62</ele>
        <time>2016-08-25T15:56:47Z</time>
      </trkpt>
      <trkpt lat="47.37901" lon="-2.94748">
        <ele>0.14</ele>
        <time>2016-08-25T15:57:05Z</time>
      </trkpt>
      <trkpt lat="47.37923" lon="-2.9472">
        <ele>0.14</ele>
        <time>2016-08-25T15:57:23Z</time>
      </trkpt>
      <trkpt lat="47.3795" lon="-2.94687">
        <ele>0.14</ele>
        <time>2016-08-25T15:57:43Z</time>
      </trkpt>
      <trkpt lat="47.37973" lon="-2.94652">
        <ele>0.62</ele>
        <time>2016-08-25T15:58:02Z</time>
      </trkpt>
      <trkpt lat="47.37999" lon="-2.9461">
        <ele>-0.34</ele>
        <time>2016-08-25T15:58:24Z</time>
      </trkpt>
      <trkpt lat="47.38027" lon="-2.94572">
        <ele>0.14</ele>
        <time>2016-08-25T15:58:46Z</time>
      </trkpt>
      <trkpt lat="47.38031" lon="-2.94567">
        <ele>0.14</ele>
        <time>2016-08-25T15:58:49Z</time>
      </trkpt>
      <trkpt lat="47.38049" lon="-2.94537">
        <ele>-0.82</ele>
        <time>2016-08-25T15:59:05Z</time>
      </trkpt>
      <trkpt lat="47.3807" lon="-2.94498">
        <ele>-1.79</ele>
        <time>2016-08-25T15:59:24Z</time>
      </trkpt>
      <trkpt lat="47.38074" lon="-2.9449">
        <ele>-1.3</ele>
        <time>2016-08-25T15:59:28Z</time>
      </trkpt>
      <trkpt lat="47.3809" lon="-2.94457">
        <ele>-0.34</ele>
        <time>2016-08-25T15:59:44Z</time>
      </trkpt>
      <trkpt lat="47.38107" lon="-2.94425">
        <ele>0.62</ele>
        <time>2016-08-25T16:00:00Z</time>
      </trkpt>
      <trkpt lat="47.38124" lon="-2.94398">
        <ele>-0.82</ele>
        <time>2016-08-25T16:00:14Z</time>
      </trkpt>
      <trkpt lat="47.38157" lon="-2.94351">
        <ele>-2.75</ele>
        <time>2016-08-25T16:00:39Z</time>
      </trkpt>
      <trkpt lat="47.38186" lon="-2.94307">
        <ele>-2.27</ele>
        <time>2016-08-25T16:01:04Z</time>
      </trkpt>
      <trkpt lat="47.38218" lon="-2.94291">
        <ele>-2.27</ele>
        <time>2016-08-25T16:01:27Z</time>
      </trkpt>
      <trkpt lat="47.38243" lon="-2.94292">
        <ele>-1.79</ele>
        <time>2016-08-25T16:01:46Z</time>
      </trkpt>
      <trkpt lat="47.38259" lon="-2.94315">
        <ele>-2.27</ele>
        <time>2016-08-25T16:02:06Z</time>
      </trkpt>
      <trkpt lat="47.38281" lon="-2.94345">
        <ele>-2.27</ele>
        <time>2016-08-25T16:02:32Z</time>
      </trkpt>
      <trkpt lat="47.38306" lon="-2.94347">
        <ele>-1.79</ele>
        <time>2016-08-25T16:02:52Z</time>
      </trkpt>
      <trkpt lat="47.38343" lon="-2.94315">
        <ele>-1.79</ele>
        <time>2016-08-25T16:03:16Z</time>
      </trkpt>
      <trkpt lat="47.38381" lon="-2.94266">
        <ele>-2.27</ele>
        <time>2016-08-25T16:03:41Z</time>
      </trkpt>
      <trkpt lat="47.38415" lon="-2.94204">
        <ele>-2.75</ele>
        <time>2016-08-25T16:04:06Z</time>
      </trkpt>
      <trkpt lat="47.38446" lon="-2.9415">
        <ele>-2.75</ele>
        <time>2016-08-25T16:04:30Z</time>
      </trkpt>
      <trkpt lat="47.38476" lon="-2.94098">
        <ele>-2.75</ele>
        <time>2016-08-25T16:04:54Z</time>
      </trkpt>
      <trkpt lat="47.38509" lon="-2.94045">
        <ele>-2.27</ele>
        <time>2016-08-25T16:05:21Z</time>
      </trkpt>
      <trkpt lat="47.38549" lon="-2.93991">
        <ele>-1.79</ele>
        <time>2016-08-25T16:05:51Z</time>
      </trkpt>
      <trkpt lat="47.38586" lon="-2.93932">
        <ele>-0.82</ele>
        <time>2016-08-25T16:06:20Z</time>
      </trkpt>
      <trkpt lat="47.38621" lon="-2.9387">
        <ele>-0.34</ele>
        <time>2016-08-25T16:06:48Z</time>
      </trkpt>
      <trkpt lat="47.38653" lon="-2.93816">
        <ele>-1.79</ele>
        <time>2016-08-25T16:07:14Z</time>
      </trkpt>
      <trkpt lat="47.38689" lon="-2.93766">
        <ele>-1.79</ele>
        <time>2016-08-25T16:07:40Z</time>
      </trkpt>
      <trkpt lat="47.38719" lon="-2.93724">
        <ele>-2.27</ele>
        <time>2016-08-25T16:08:03Z</time>
      </trkpt>
      <trkpt lat="47.38744" lon="-2.93672">
        <ele>-2.27</ele>
        <time>2016-08-25T16:08:26Z</time>
      </trkpt>
      <trkpt lat="47.38765" lon="-2.93607">
        <ele>-2.27</ele>
        <time>2016-08-25T16:08:48Z</time>
      </trkpt>
      <trkpt lat="47.38788" lon="-2.93551">
        <ele>-2.27</ele>
        <time>2016-08-25T16:09:10Z</time>
      </trkpt>
      <trkpt lat="47.38815" lon="-2.93489">
        <ele>-2.75</ele>
        <time>2016-08-25T16:09:30Z</time>
      </trkpt>
      <trkpt lat="47.38853" lon="-2.93442">
        <ele>-1.79</ele>
        <time>2016-08-25T16:09:52Z</time>
      </trkpt>
      <trkpt lat="47.38907" lon="-2.93425">
        <ele>-2.27</ele>
        <time>2016-08-25T16:10:14Z</time>
      </trkpt>
      <trkpt lat="47.3895" lon="-2.93416">
        <ele>-2.27</ele>
        <time>2016-08-25T16:10:33Z</time>
      </trkpt>
      <trkpt lat="47.39004" lon="-2.93394">
        <ele>-2.75</ele>
        <time>2016-08-25T16:10:55Z</time>
      </trkpt>
      <trkpt lat="47.39052" lon="-2.93384">
        <ele>-2.27</ele>
        <time>2016-08-25T16:11:16Z</time>
      </trkpt>
      <trkpt lat="47.39088" lon="-2.93373">
        <ele>-1.79</ele>
        <time>2016-08-25T16:11:34Z</time>
      </trkpt>
      <trkpt lat="47.39133" lon="-2.93352">
        <ele>-1.79</ele>
        <time>2016-08-25T16:11:58Z</time>
      </trkpt>
      <trkpt lat="47.39174" lon="-2.93332">
        <ele>-1.79</ele>
        <time>2016-08-25T16:12:22Z</time>
      </trkpt>
      <trkpt lat="47.39208" lon="-2.93312">
        <ele>-1.79</ele>
        <time>2016-08-25T16:12:44Z</time>
      </trkpt>
      <trkpt lat="47.39243" lon="-2.93297">
        <ele>-2.27</ele>
        <time>2016-08-25T16:13:05Z</time>
      </trkpt>
      <trkpt lat="47.39276" lon="-2.93287">
        <ele>-1.79</ele>
        <time>2016-08-25T16:13:25Z</time>
      </trkpt>
      <trkpt lat="47.39314" lon="-2.93265">
        <ele>-2.75</ele>
        <time>2016-08-25T16:13:50Z</time>
      </trkpt>
      <trkpt lat="47.39348" lon="-2.93238">
        <ele>-2.75</ele>
        <time>2016-08-25T16:14:16Z</time>
      </trkpt>
      <trkpt lat="47.39377" lon="-2.9323">
        <ele>-2.27</ele>
        <time>2016-08-25T16:14:37Z</time>
      </trkpt>
      <trkpt lat="47.39412" lon="-2.93235">
        <ele>-2.27</ele>
        <time>2016-08-25T16:15:01Z</time>
      </trkpt>
      <trkpt lat="47.39453" lon="-2.93256">
        <ele>-2.75</ele>
        <time>2016-08-25T16:15:26Z</time>
      </trkpt>
      <trkpt lat="47.39491" lon="-2.93273">
        <ele>-2.75</ele>
        <time>2016-08-25T16:15:49Z</time>
      </trkpt>
      <trkpt lat="47.3953" lon="-2.93293">
        <ele>-2.75</ele>
        <time>2016-08-25T16:16:13Z</time>
      </trkpt>
      <trkpt lat="47.39571" lon="-2.93312">
        <ele>-1.79</ele>
        <time>2016-08-25T16:16:39Z</time>
      </trkpt>
      <trkpt lat="47.39605" lon="-2.93327">
        <ele>-1.79</ele>
        <time>2016-08-25T16:17:01Z</time>
      </trkpt>
      <trkpt lat="47.39652" lon="-2.93339">
        <ele>-2.75</ele>
        <time>2016-08-25T16:17:26Z</time>
      </trkpt>
      <trkpt lat="47.39701" lon="-2.93348">
        <ele>-3.71</ele>
        <time>2016-08-25T16:17:49Z</time>
      </trkpt>
      <trkpt lat="47.39753" lon="-2.93351">
        <ele>-5.15</ele>
        <time>2016-08-25T16:18:13Z</time>
      </trkpt>
      <trkpt lat="47.398" lon="-2.93352">
        <ele>-5.63</ele>
        <time>2016-08-25T16:18:34Z</time>
      </trkpt>
      <trkpt lat="47.39844" lon="-2.93345">
        <ele>-5.63</ele>
        <time>2016-08-25T16:18:54Z</time>
      </trkpt>
      <trkpt lat="47.39891" lon="-2.93342">
        <ele>-4.67</ele>
        <time>2016-08-25T16:19:16Z</time>
      </trkpt>
      <trkpt lat="47.3994" lon="-2.93332">
        <ele>-3.71</ele>
        <time>2016-08-25T16:19:39Z</time>
      </trkpt>
      <trkpt lat="47.3998" lon="-2.93319">
        <ele>-3.71</ele>
        <time>2016-08-25T16:20:02Z</time>
      </trkpt>
      <trkpt lat="47.40021" lon="-2.93305">
        <ele>-4.19</ele>
        <time>2016-08-25T16:20:25Z</time>
      </trkpt>
      <trkpt lat="47.40073" lon="-2.93291">
        <ele>-3.71</ele>
        <time>2016-08-25T16:20:47Z</time>
      </trkpt>
      <trkpt lat="47.40124" lon="-2.93276">
        <ele>-3.71</ele>
        <time>2016-08-25T16:21:08Z</time>
      </trkpt>
      <trkpt lat="47.40174" lon="-2.93261">
        <ele>-4.67</ele>
        <time>2016-08-25T16:21:28Z</time>
      </trkpt>
      <trkpt lat="47.40225" lon="-2.93245">
        <ele>-4.19</ele>
        <time>2016-08-25T16:21:48Z</time>
      </trkpt>
      <trkpt lat="47.4027" lon="-2.9323">
        <ele>-4.19</ele>
        <time>2016-08-25T16:22:06Z</time>
      </trkpt>
      <trkpt lat="47.40318" lon="-2.93214">
        <ele>-3.71</ele>
        <time>2016-08-25T16:22:25Z</time>
      </trkpt>
      <trkpt lat="47.40367" lon="-2.93199">
        <ele>-3.71</ele>
        <time>2016-08-25T16:22:44Z</time>
      </trkpt>
      <trkpt lat="47.40411" lon="-2.93187">
        <ele>-3.23</ele>
        <time>2016-08-25T16:23:02Z</time>
      </trkpt>
      <trkpt lat="47.40454" lon="-2.93178">
        <ele>-3.23</ele>
        <time>2016-08-25T16:23:20Z</time>
      </trkpt>
      <trkpt lat="47.40508" lon="-2.93164">
        <ele>-2.27</ele>
        <time>2016-08-25T16:23:43Z</time>
      </trkpt>
      <trkpt lat="47.40549" lon="-2.93157">
        <ele>-3.23</ele>
        <time>2016-08-25T16:24:01Z</time>
      </trkpt>
      <trkpt lat="47.40585" lon="-2.93147">
        <ele>-2.75</ele>
        <time>2016-08-25T16:24:18Z</time>
      </trkpt>
      <trkpt lat="47.40622" lon="-2.93138">
        <ele>-3.23</ele>
        <time>2016-08-25T16:24:36Z</time>
      </trkpt>
      <trkpt lat="47.40658" lon="-2.93133">
        <ele>-3.23</ele>
        <time>2016-08-25T16:24:55Z</time>
      </trkpt>
      <trkpt lat="47.4069" lon="-2.9313">
        <ele>-3.71</ele>
        <time>2016-08-25T16:25:14Z</time>
      </trkpt>
      <trkpt lat="47.40719" lon="-2.93128">
        <ele>-4.67</ele>
        <time>2016-08-25T16:25:32Z</time>
      </trkpt>
      <trkpt lat="47.40748" lon="-2.93125">
        <ele>-5.15</ele>
        <time>2016-08-25T16:25:50Z</time>
      </trkpt>
      <trkpt lat="47.40783" lon="-2.9312">
        <ele>-3.71</ele>
        <time>2016-08-25T16:26:11Z</time>
      </trkpt>
      <trkpt lat="47.40817" lon="-2.93115">
        <ele>-3.71</ele>
        <time>2016-08-25T16:26:33Z</time>
      </trkpt>
      <trkpt lat="47.40848" lon="-2.93109">
        <ele>-2.75</ele>
        <time>2016-08-25T16:26:53Z</time>
      </trkpt>
      <trkpt lat="47.40871" lon="-2.93104">
        <ele>-2.75</ele>
        <time>2016-08-25T16:27:10Z</time>
      </trkpt>
      <trkpt lat="47.40897" lon="-2.93099">
        <ele>-2.75</ele>
        <time>2016-08-25T16:27:29Z</time>
      </trkpt>
      <trkpt lat="47.40924" lon="-2.93093">
        <ele>-2.75</ele>
        <time>2016-08-25T16:27:50Z</time>
      </trkpt>
      <trkpt lat="47.40949" lon="-2.93087">
        <ele>-2.75</ele>
        <time>2016-08-25T16:28:10Z</time>
      </trkpt>
      <trkpt lat="47.40974" lon="-2.9308">
        <ele>-3.23</ele>
        <time>2016-08-25T16:28:31Z</time>
      </trkpt>
      <trkpt lat="47.40998" lon="-2.93074">
        <ele>-3.71</ele>
        <time>2016-08-25T16:28:51Z</time>
      </trkpt>
      <trkpt lat="47.41019" lon="-2.93068">
        <ele>-2.27</ele>
        <time>2016-08-25T16:29:10Z</time>
      </trkpt>
      <trkpt lat="47.41042" lon="-2.93063">
        <ele>-1.79</ele>
        <time>2016-08-25T16:29:28Z</time>
      </trkpt>
      <trkpt lat="47.41065" lon="-2.93057">
        <ele>-0.82</ele>
        <time>2016-08-25T16:29:48Z</time>
      </trkpt>
      <trkpt lat="47.4109" lon="-2.93051">
        <ele>-1.3</ele>
        <time>2016-08-25T16:30:11Z</time>
      </trkpt>
      <trkpt lat="47.41113" lon="-2.93045">
        <ele>-1.79</ele>
        <time>2016-08-25T16:30:31Z</time>
      </trkpt>
      <trkpt lat="47.41139" lon="-2.93038">
        <ele>-0.82</ele>
        <time>2016-08-25T16:30:52Z</time>
      </trkpt>
      <trkpt lat="47.41168" lon="-2.9303">
        <ele>-1.3</ele>
        <time>2016-08-25T16:31:15Z</time>
      </trkpt>
      <trkpt lat="47.412" lon="-2.9302">
        <ele>-2.27</ele>
        <time>2016-08-25T16:31:37Z</time>
      </trkpt>
      <trkpt lat="47.41232" lon="-2.93015">
        <ele>-1.3</ele>
        <time>2016-08-25T16:31:58Z</time>
      </trkpt>
      <trkpt lat="47.41263" lon="-2.93004">
        <ele>-1.3</ele>
        <time>2016-08-25T16:32:18Z</time>
      </trkpt>
      <trkpt lat="47.4129" lon="-2.93">
        <ele>-1.3</ele>
        <time>2016-08-25T16:32:37Z</time>
      </trkpt>
      <trkpt lat="47.41318" lon="-2.92997">
        <ele>0.14</ele>
        <time>2016-08-25T16:33:00Z</time>
      </trkpt>
      <trkpt lat="47.41323" lon="-2.93005">
        <ele>-0.34</ele>
        <time>2016-08-25T16:33:18Z</time>
      </trkpt>
      <trkpt lat="47.41315" lon="-2.93021">
        <ele>-0.34</ele>
        <time>2016-08-25T16:33:34Z</time>
      </trkpt>
      <trkpt lat="47.4131" lon="-2.9305">
        <ele>-1.3</ele>
        <time>2016-08-25T16:33:55Z</time>
      </trkpt>
      <trkpt lat="47.41318" lon="-2.93048">
        <ele>-1.3</ele>
        <time>2016-08-25T16:34:09Z</time>
      </trkpt>
      <trkpt lat="47.41349" lon="-2.93022">
        <ele>-1.3</ele>
        <time>2016-08-25T16:34:31Z</time>
      </trkpt>
      <trkpt lat="47.41381" lon="-2.93009">
        <ele>0.14</ele>
        <time>2016-08-25T16:34:48Z</time>
      </trkpt>
      <trkpt lat="47.41415" lon="-2.92994">
        <ele>0.62</ele>
        <time>2016-08-25T16:35:07Z</time>
      </trkpt>
      <trkpt lat="47.41452" lon="-2.92979">
        <ele>0.62</ele>
        <time>2016-08-25T16:35:29Z</time>
      </trkpt>
      <trkpt lat="47.41479" lon="-2.92965">
        <ele>-0.34</ele>
        <time>2016-08-25T16:35:45Z</time>
      </trkpt>
      <trkpt lat="47.41508" lon="-2.92952">
        <ele>-0.34</ele>
        <time>2016-08-25T16:36:02Z</time>
      </trkpt>
      <trkpt lat="47.4154" lon="-2.92933">
        <ele>-0.34</ele>
        <time>2016-08-25T16:36:20Z</time>
      </trkpt>
      <trkpt lat="47.41573" lon="-2.92919">
        <ele>-0.34</ele>
        <time>2016-08-25T16:36:38Z</time>
      </trkpt>
      <trkpt lat="47.41612" lon="-2.92903">
        <ele>-0.82</ele>
        <time>2016-08-25T16:37:00Z</time>
      </trkpt>
      <trkpt lat="47.41646" lon="-2.92884">
        <ele>-0.82</ele>
        <time>2016-08-25T16:37:20Z</time>
      </trkpt>
      <trkpt lat="47.41678" lon="-2.92868">
        <ele>-1.79</ele>
        <time>2016-08-25T16:37:38Z</time>
      </trkpt>
      <trkpt lat="47.41717" lon="-2.9285">
        <ele>-2.75</ele>
        <time>2016-08-25T16:37:59Z</time>
      </trkpt>
      <trkpt lat="47.41752" lon="-2.92834">
        <ele>-2.27</ele>
        <time>2016-08-25T16:38:18Z</time>
      </trkpt>
      <trkpt lat="47.41782" lon="-2.92822">
        <ele>-1.79</ele>
        <time>2016-08-25T16:38:34Z</time>
      </trkpt>
      <trkpt lat="47.41818" lon="-2.92807">
        <ele>-1.79</ele>
        <time>2016-08-25T16:38:53Z</time>
      </trkpt>
      <trkpt lat="47.4185" lon="-2.92794">
        <ele>-1.3</ele>
        <time>2016-08-25T16:39:11Z</time>
      </trkpt>
      <trkpt lat="47.41882" lon="-2.9278">
        <ele>-1.3</ele>
        <time>2016-08-25T16:39:29Z</time>
      </trkpt>
      <trkpt lat="47.41919" lon="-2.92764">
        <ele>-1.3</ele>
        <time>2016-08-25T16:39:50Z</time>
      </trkpt>
      <trkpt lat="47.41955" lon="-2.9275">
        <ele>-1.79</ele>
        <time>2016-08-25T16:40:11Z</time>
      </trkpt>
      <trkpt lat="47.41987" lon="-2.92738">
        <ele>-2.27</ele>
        <time>2016-08-25T16:40:29Z</time>
      </trkpt>
      <trkpt lat="47.42023" lon="-2.92724">
        <ele>-2.75</ele>
        <time>2016-08-25T16:40:50Z</time>
      </trkpt>
      <trkpt lat="47.42055" lon="-2.92708">
        <ele>-2.75</ele>
        <time>2016-08-25T16:41:09Z</time>
      </trkpt>
      <trkpt lat="47.42089" lon="-2.92693">
        <ele>-2.75</ele>
        <time>2016-08-25T16:41:29Z</time>
      </trkpt>
      <trkpt lat="47.42122" lon="-2.92677">
        <ele>-1.79</ele>
        <time>2016-08-25T16:41:49Z</time>
      </trkpt>
      <trkpt lat="47.42156" lon="-2.9266">
        <ele>-0.82</ele>
        <time>2016-08-25T16:42:09Z</time>
      </trkpt>
      <trkpt lat="47.42186" lon="-2.92648">
        <ele>-1.3</ele>
        <time>2016-08-25T16:42:28Z</time>
      </trkpt>
      <trkpt lat="47.42217" lon="-2.92633">
        <ele>-1.3</ele>
        <time>2016-08-25T16:42:48Z</time>
      </trkpt>
      <trkpt lat="47.42248" lon="-2.92618">
        <ele>-1.3</ele>
        <time>2016-08-25T16:43:08Z</time>
      </trkpt>
      <trkpt lat="47.42276" lon="-2.92603">
        <ele>-1.3</ele>
        <time>2016-08-25T16:43:27Z</time>
      </trkpt>
      <trkpt lat="47.4231" lon="-2.92585">
        <ele>-1.79</ele>
        <time>2016-08-25T16:43:49Z</time>
      </trkpt>
      <trkpt lat="47.42337" lon="-2.92572">
        <ele>-1.79</ele>
        <time>2016-08-25T16:44:07Z</time>
      </trkpt>
      <trkpt lat="47.42368" lon="-2.92555">
        <ele>-2.27</ele>
        <time>2016-08-25T16:44:28Z</time>
      </trkpt>
      <trkpt lat="47.424" lon="-2.92537">
        <ele>-1.79</ele>
        <time>2016-08-25T16:44:48Z</time>
      </trkpt>
      <trkpt lat="47.42432" lon="-2.92516">
        <ele>-1.3</ele>
        <time>2016-08-25T16:45:08Z</time>
      </trkpt>
      <trkpt lat="47.42465" lon="-2.9249">
        <ele>-0.82</ele>
        <time>2016-08-25T16:45:28Z</time>
      </trkpt>
      <trkpt lat="47.42495" lon="-2.92467">
        <ele>-0.34</ele>
        <time>2016-08-25T16:45:48Z</time>
      </trkpt>
      <trkpt lat="47.42528" lon="-2.92453">
        <ele>-0.82</ele>
        <time>2016-08-25T16:46:08Z</time>
      </trkpt>
      <trkpt lat="47.4256" lon="-2.9244">
        <ele>-1.3</ele>
        <time>2016-08-25T16:46:27Z</time>
      </trkpt>
      <trkpt lat="47.42593" lon="-2.92427">
        <ele>-1.3</ele>
        <time>2016-08-25T16:46:47Z</time>
      </trkpt>
      <trkpt lat="47.42625" lon="-2.92414">
        <ele>-1.3</ele>
        <time>2016-08-25T16:47:06Z</time>
      </trkpt>
      <trkpt lat="47.42666" lon="-2.92399">
        <ele>-1.79</ele>
        <time>2016-08-25T16:47:30Z</time>
      </trkpt>
      <trkpt lat="47.42699" lon="-2.92386">
        <ele>-1.3</ele>
        <time>2016-08-25T16:47:49Z</time>
      </trkpt>
      <trkpt lat="47.42732" lon="-2.92372">
        <ele>-1.79</ele>
        <time>2016-08-25T16:48:08Z</time>
      </trkpt>
      <trkpt lat="47.42773" lon="-2.92356">
        <ele>-1.79</ele>
        <time>2016-08-25T16:48:31Z</time>
      </trkpt>
      <trkpt lat="47.4281" lon="-2.92336">
        <ele>-1.79</ele>
        <time>2016-08-25T16:48:53Z</time>
      </trkpt>
      <trkpt lat="47.42841" lon="-2.92316">
        <ele>-1.3</ele>
        <time>2016-08-25T16:49:11Z</time>
      </trkpt>
      <trkpt lat="47.42873" lon="-2.92302">
        <ele>-0.82</ele>
        <time>2016-08-25T16:49:30Z</time>
      </trkpt>
      <trkpt lat="47.42908" lon="-2.92289">
        <ele>-0.82</ele>
        <time>2016-08-25T16:49:50Z</time>
      </trkpt>
      <trkpt lat="47.4294" lon="-2.92273">
        <ele>-0.34</ele>
        <time>2016-08-25T16:50:09Z</time>
      </trkpt>
      <trkpt lat="47.42969" lon="-2.92261">
        <ele>-0.82</ele>
        <time>2016-08-25T16:50:26Z</time>
      </trkpt>
      <trkpt lat="47.42991" lon="-2.92247">
        <ele>-0.82</ele>
        <time>2016-08-25T16:50:40Z</time>
      </trkpt>
      <trkpt lat="47.43016" lon="-2.92222">
        <ele>-0.34</ele>
        <time>2016-08-25T16:50:57Z</time>
      </trkpt>
      <trkpt lat="47.43041" lon="-2.92197">
        <ele>-0.34</ele>
        <time>2016-08-25T16:51:16Z</time>
      </trkpt>
      <trkpt lat="47.43063" lon="-2.92178">
        <ele>-0.82</ele>
        <time>2016-08-25T16:51:33Z</time>
      </trkpt>
      <trkpt lat="47.43088" lon="-2.92159">
        <ele>-0.82</ele>
        <time>2016-08-25T16:51:52Z</time>
      </trkpt>
      <trkpt lat="47.43118" lon="-2.92141">
        <ele>-0.82</ele>
        <time>2016-08-25T16:52:13Z</time>
      </trkpt>
      <trkpt lat="47.43146" lon="-2.92136">
        <ele>-1.3</ele>
        <time>2016-08-25T16:52:32Z</time>
      </trkpt>
      <trkpt lat="47.43174" lon="-2.92133">
        <ele>-2.27</ele>
        <time>2016-08-25T16:52:51Z</time>
      </trkpt>
      <trkpt lat="47.43196" lon="-2.92132">
        <ele>-1.79</ele>
        <time>2016-08-25T16:53:07Z</time>
      </trkpt>
      <trkpt lat="47.4322" lon="-2.92132">
        <ele>-3.71</ele>
        <time>2016-08-25T16:53:25Z</time>
      </trkpt>
      <trkpt lat="47.43246" lon="-2.92128">
        <ele>-3.23</ele>
        <time>2016-08-25T16:53:43Z</time>
      </trkpt>
      <trkpt lat="47.43272" lon="-2.92123">
        <ele>-3.23</ele>
        <time>2016-08-25T16:53:59Z</time>
      </trkpt>
      <trkpt lat="47.43304" lon="-2.92118">
        <ele>-3.23</ele>
        <time>2016-08-25T16:54:18Z</time>
      </trkpt>
      <trkpt lat="47.43332" lon="-2.92117">
        <ele>-3.23</ele>
        <time>2016-08-25T16:54:35Z</time>
      </trkpt>
      <trkpt lat="47.43355" lon="-2.92119">
        <ele>-2.75</ele>
        <time>2016-08-25T16:54:51Z</time>
      </trkpt>
      <trkpt lat="47.43378" lon="-2.92117">
        <ele>-2.27</ele>
        <time>2016-08-25T16:55:06Z</time>
      </trkpt>
      <trkpt lat="47.43407" lon="-2.92114">
        <ele>-1.79</ele>
        <time>2016-08-25T16:55:23Z</time>
      </trkpt>
      <trkpt lat="47.43434" lon="-2.9211">
        <ele>-1.3</ele>
        <time>2016-08-25T16:55:39Z</time>
      </trkpt>
      <trkpt lat="47.43464" lon="-2.92104">
        <ele>-1.3</ele>
        <time>2016-08-25T16:55:56Z</time>
      </trkpt>
      <trkpt lat="47.4349" lon="-2.92103">
        <ele>-1.79</ele>
        <time>2016-08-25T16:56:11Z</time>
      </trkpt>
      <trkpt lat="47.43519" lon="-2.92105">
        <ele>-2.27</ele>
        <time>2016-08-25T16:56:29Z</time>
      </trkpt>
      <trkpt lat="47.43546" lon="-2.92106">
        <ele>-2.27</ele>
        <time>2016-08-25T16:56:47Z</time>
      </trkpt>
      <trkpt lat="47.43571" lon="-2.92108">
        <ele>-2.75</ele>
        <time>2016-08-25T16:57:04Z</time>
      </trkpt>
      <trkpt lat="47.43596" lon="-2.92105">
        <ele>-3.23</ele>
        <time>2016-08-25T16:57:20Z</time>
      </trkpt>
      <trkpt lat="47.43629" lon="-2.92098">
        <ele>-2.75</ele>
        <time>2016-08-25T16:57:38Z</time>
      </trkpt>
      <trkpt lat="47.43663" lon="-2.92093">
        <ele>-1.79</ele>
        <time>2016-08-25T16:57:56Z</time>
      </trkpt>
      <trkpt lat="47.437" lon="-2.9208">
        <ele>-1.79</ele>
        <time>2016-08-25T16:58:14Z</time>
      </trkpt>
      <trkpt lat="47.43735" lon="-2.92077">
        <ele>-2.27</ele>
        <time>2016-08-25T16:58:32Z</time>
      </trkpt>
      <trkpt lat="47.43769" lon="-2.92069">
        <ele>-1.79</ele>
        <time>2016-08-25T16:58:50Z</time>
      </trkpt>
      <trkpt lat="47.43806" lon="-2.92061">
        <ele>-2.27</ele>
        <time>2016-08-25T16:59:09Z</time>
      </trkpt>
      <trkpt lat="47.43844" lon="-2.92051">
        <ele>-2.75</ele>
        <time>2016-08-25T16:59:29Z</time>
      </trkpt>
      <trkpt lat="47.4388" lon="-2.9204">
        <ele>-1.79</ele>
        <time>2016-08-25T16:59:47Z</time>
      </trkpt>
      <trkpt lat="47.43913" lon="-2.92032">
        <ele>-2.75</ele>
        <time>2016-08-25T17:00:04Z</time>
      </trkpt>
      <trkpt lat="47.43954" lon="-2.92022">
        <ele>-3.23</ele>
        <time>2016-08-25T17:00:26Z</time>
      </trkpt>
      <trkpt lat="47.43994" lon="-2.92013">
        <ele>-2.75</ele>
        <time>2016-08-25T17:00:47Z</time>
      </trkpt>
      <trkpt lat="47.44029" lon="-2.92011">
        <ele>-2.75</ele>
        <time>2016-08-25T17:01:06Z</time>
      </trkpt>
      <trkpt lat="47.44065" lon="-2.92003">
        <ele>-2.27</ele>
        <time>2016-08-25T17:01:26Z</time>
      </trkpt>
      <trkpt lat="47.44098" lon="-2.91993">
        <ele>-2.75</ele>
        <time>2016-08-25T17:01:43Z</time>
      </trkpt>
      <trkpt lat="47.44131" lon="-2.91984">
        <ele>-2.27</ele>
        <time>2016-08-25T17:02:01Z</time>
      </trkpt>
      <trkpt lat="47.44165" lon="-2.91974">
        <ele>-2.75</ele>
        <time>2016-08-25T17:02:19Z</time>
      </trkpt>
      <trkpt lat="47.44201" lon="-2.9196">
        <ele>-3.23</ele>
        <time>2016-08-25T17:02:39Z</time>
      </trkpt>
      <trkpt lat="47.44232" lon="-2.91949">
        <ele>-2.75</ele>
        <time>2016-08-25T17:02:56Z</time>
      </trkpt>
      <trkpt lat="47.44255" lon="-2.91946">
        <ele>-3.23</ele>
        <time>2016-08-25T17:03:09Z</time>
      </trkpt>
      <trkpt lat="47.44285" lon="-2.9194">
        <ele>-3.23</ele>
        <time>2016-08-25T17:03:25Z</time>
      </trkpt>
      <trkpt lat="47.44321" lon="-2.91933">
        <ele>-2.27</ele>
        <time>2016-08-25T17:03:45Z</time>
      </trkpt>
      <trkpt lat="47.44349" lon="-2.91925">
        <ele>-2.27</ele>
        <time>2016-08-25T17:04:00Z</time>
      </trkpt>
      <trkpt lat="47.44387" lon="-2.91915">
        <ele>-1.79</ele>
        <time>2016-08-25T17:04:20Z</time>
      </trkpt>
      <trkpt lat="47.44416" lon="-2.91916">
        <ele>-2.27</ele>
        <time>2016-08-25T17:04:37Z</time>
      </trkpt>
      <trkpt lat="47.44451" lon="-2.91918">
        <ele>-2.27</ele>
        <time>2016-08-25T17:04:58Z</time>
      </trkpt>
      <trkpt lat="47.44482" lon="-2.91921">
        <ele>-2.75</ele>
        <time>2016-08-25T17:05:17Z</time>
      </trkpt>
      <trkpt lat="47.44515" lon="-2.91915">
        <ele>-2.75</ele>
        <time>2016-08-25T17:05:35Z</time>
      </trkpt>
      <trkpt lat="47.44551" lon="-2.91899">
        <ele>-2.27</ele>
        <time>2016-08-25T17:05:55Z</time>
      </trkpt>
      <trkpt lat="47.4458" lon="-2.91887">
        <ele>-2.27</ele>
        <time>2016-08-25T17:06:12Z</time>
      </trkpt>
      <trkpt lat="47.44605" lon="-2.91876">
        <ele>-1.79</ele>
        <time>2016-08-25T17:06:27Z</time>
      </trkpt>
      <trkpt lat="47.44637" lon="-2.91872">
        <ele>-2.27</ele>
        <time>2016-08-25T17:06:46Z</time>
      </trkpt>
      <trkpt lat="47.44675" lon="-2.91859">
        <ele>-1.79</ele>
        <time>2016-08-25T17:07:07Z</time>
      </trkpt>
      <trkpt lat="47.44711" lon="-2.91849">
        <ele>-1.3</ele>
        <time>2016-08-25T17:07:27Z</time>
      </trkpt>
      <trkpt lat="47.44746" lon="-2.91843">
        <ele>-1.79</ele>
        <time>2016-08-25T17:07:46Z</time>
      </trkpt>
      <trkpt lat="47.44785" lon="-2.91837">
        <ele>-2.27</ele>
        <time>2016-08-25T17:08:08Z</time>
      </trkpt>
      <trkpt lat="47.4482" lon="-2.91829">
        <ele>-1.79</ele>
        <time>2016-08-25T17:08:28Z</time>
      </trkpt>
      <trkpt lat="47.44847" lon="-2.91816">
        <ele>-2.27</ele>
        <time>2016-08-25T17:08:44Z</time>
      </trkpt>
      <trkpt lat="47.44879" lon="-2.91802">
        <ele>-1.3</ele>
        <time>2016-08-25T17:09:04Z</time>
      </trkpt>
      <trkpt lat="47.44907" lon="-2.91785">
        <ele>-1.79</ele>
        <time>2016-08-25T17:09:24Z</time>
      </trkpt>
      <trkpt lat="47.44931" lon="-2.91774">
        <ele>-0.82</ele>
        <time>2016-08-25T17:09:41Z</time>
      </trkpt>
      <trkpt lat="47.44954" lon="-2.91763">
        <ele>0.14</ele>
        <time>2016-08-25T17:09:59Z</time>
      </trkpt>
      <trkpt lat="47.44976" lon="-2.91763">
        <ele>-0.34</ele>
        <time>2016-08-25T17:10:15Z</time>
      </trkpt>
      <trkpt lat="47.44999" lon="-2.91759">
        <ele>-0.82</ele>
        <time>2016-08-25T17:10:30Z</time>
      </trkpt>
      <trkpt lat="47.45029" lon="-2.9175">
        <ele>-0.82</ele>
        <time>2016-08-25T17:10:48Z</time>
      </trkpt>
      <trkpt lat="47.45055" lon="-2.91745">
        <ele>-1.3</ele>
        <time>2016-08-25T17:11:05Z</time>
      </trkpt>
      <trkpt lat="47.45081" lon="-2.9174">
        <ele>-0.34</ele>
        <time>2016-08-25T17:11:21Z</time>
      </trkpt>
      <trkpt lat="47.45109" lon="-2.91734">
        <ele>-1.3</ele>
        <time>2016-08-25T17:11:38Z</time>
      </trkpt>
      <trkpt lat="47.45142" lon="-2.91735">
        <ele>-0.82</ele>
        <time>2016-08-25T17:11:59Z</time>
      </trkpt>
      <trkpt lat="47.45171" lon="-2.91732">
        <ele>-0.34</ele>
        <time>2016-08-25T17:12:17Z</time>
      </trkpt>
      <trkpt lat="47.45202" lon="-2.91725">
        <ele>-0.34</ele>
        <time>2016-08-25T17:12:36Z</time>
      </trkpt>
      <trkpt lat="47.45229" lon="-2.91722">
        <ele>-0.34</ele>
        <time>2016-08-25T17:12:53Z</time>
      </trkpt>
      <trkpt lat="47.4526" lon="-2.91718">
        <ele>-0.82</ele>
        <time>2016-08-25T17:13:11Z</time>
      </trkpt>
      <trkpt lat="47.45287" lon="-2.91715">
        <ele>-0.82</ele>
        <time>2016-08-25T17:13:27Z</time>
      </trkpt>
      <trkpt lat="47.45317" lon="-2.91715">
        <ele>-1.3</ele>
        <time>2016-08-25T17:13:45Z</time>
      </trkpt>
      <trkpt lat="47.45349" lon="-2.91709">
        <ele>-0.82</ele>
        <time>2016-08-25T17:14:04Z</time>
      </trkpt>
      <trkpt lat="47.4538" lon="-2.91707">
        <ele>-1.3</ele>
        <time>2016-08-25T17:14:22Z</time>
      </trkpt>
      <trkpt lat="47.45408" lon="-2.91708">
        <ele>-0.82</ele>
        <time>2016-08-25T17:14:39Z</time>
      </trkpt>
      <trkpt lat="47.45438" lon="-2.91699">
        <ele>0.14</ele>
        <time>2016-08-25T17:14:56Z</time>
      </trkpt>
      <trkpt lat="47.45469" lon="-2.91685">
        <ele>-0.34</ele>
        <time>2016-08-25T17:15:15Z</time>
      </trkpt>
      <trkpt lat="47.45502" lon="-2.91673">
        <ele>-0.82</ele>
        <time>2016-08-25T17:15:37Z</time>
      </trkpt>
      <trkpt lat="47.45535" lon="-2.91666">
        <ele>-1.3</ele>
        <time>2016-08-25T17:15:58Z</time>
      </trkpt>
      <trkpt lat="47.45567" lon="-2.91668">
        <ele>-0.82</ele>
        <time>2016-08-25T17:16:16Z</time>
      </trkpt>
      <trkpt lat="47.45599" lon="-2.91665">
        <ele>-0.34</ele>
        <time>2016-08-25T17:16:34Z</time>
      </trkpt>
      <trkpt lat="47.4563" lon="-2.91657">
        <ele>-0.34</ele>
        <time>2016-08-25T17:16:51Z</time>
      </trkpt>
      <trkpt lat="47.45669" lon="-2.91653">
        <ele>-0.82</ele>
        <time>2016-08-25T17:17:11Z</time>
      </trkpt>
      <trkpt lat="47.45711" lon="-2.91644">
        <ele>-1.3</ele>
        <time>2016-08-25T17:17:32Z</time>
      </trkpt>
      <trkpt lat="47.45749" lon="-2.91632">
        <ele>-0.82</ele>
        <time>2016-08-25T17:17:52Z</time>
      </trkpt>
      <trkpt lat="47.45786" lon="-2.91619">
        <ele>-0.82</ele>
        <time>2016-08-25T17:18:14Z</time>
      </trkpt>
      <trkpt lat="47.45827" lon="-2.91608">
        <ele>-0.82</ele>
        <time>2016-08-25T17:18:37Z</time>
      </trkpt>
      <trkpt lat="47.45867" lon="-2.91606">
        <ele>-0.82</ele>
        <time>2016-08-25T17:18:58Z</time>
      </trkpt>
      <trkpt lat="47.45909" lon="-2.91599">
        <ele>-1.3</ele>
        <time>2016-08-25T17:19:19Z</time>
      </trkpt>
      <trkpt lat="47.45947" lon="-2.91587">
        <ele>-1.79</ele>
        <time>2016-08-25T17:19:39Z</time>
      </trkpt>
      <trkpt lat="47.45988" lon="-2.91583">
        <ele>-1.79</ele>
        <time>2016-08-25T17:20:00Z</time>
      </trkpt>
      <trkpt lat="47.46029" lon="-2.91579">
        <ele>-1.79</ele>
        <time>2016-08-25T17:20:20Z</time>
      </trkpt>
      <trkpt lat="47.46066" lon="-2.91574">
        <ele>-1.79</ele>
        <time>2016-08-25T17:20:38Z</time>
      </trkpt>
      <trkpt lat="47.46113" lon="-2.91567">
        <ele>-0.82</ele>
        <time>2016-08-25T17:21:01Z</time>
      </trkpt>
      <trkpt lat="47.4615" lon="-2.91563">
        <ele>-1.3</ele>
        <time>2016-08-25T17:21:19Z</time>
      </trkpt>
      <trkpt lat="47.46198" lon="-2.91558">
        <ele>-1.3</ele>
        <time>2016-08-25T17:21:42Z</time>
      </trkpt>
      <trkpt lat="47.46238" lon="-2.91551">
        <ele>-1.3</ele>
        <time>2016-08-25T17:22:02Z</time>
      </trkpt>
      <trkpt lat="47.46279" lon="-2.91538">
        <ele>-1.3</ele>
        <time>2016-08-25T17:22:24Z</time>
      </trkpt>
      <trkpt lat="47.46313" lon="-2.91526">
        <ele>-0.82</ele>
        <time>2016-08-25T17:22:43Z</time>
      </trkpt>
      <trkpt lat="47.46346" lon="-2.91521">
        <ele>-1.3</ele>
        <time>2016-08-25T17:23:02Z</time>
      </trkpt>
      <trkpt lat="47.46379" lon="-2.91519">
        <ele>-1.3</ele>
        <time>2016-08-25T17:23:19Z</time>
      </trkpt>
      <trkpt lat="47.46419" lon="-2.91515">
        <ele>-1.3</ele>
        <time>2016-08-25T17:23:40Z</time>
      </trkpt>
      <trkpt lat="47.46454" lon="-2.91511">
        <ele>-0.34</ele>
        <time>2016-08-25T17:23:58Z</time>
      </trkpt>
      <trkpt lat="47.46494" lon="-2.91512">
        <ele>-0.82</ele>
        <time>2016-08-25T17:24:20Z</time>
      </trkpt>
      <trkpt lat="47.46532" lon="-2.91511">
        <ele>-0.82</ele>
        <time>2016-08-25T17:24:41Z</time>
      </trkpt>
      <trkpt lat="47.46565" lon="-2.91507">
        <ele>-1.3</ele>
        <time>2016-08-25T17:24:59Z</time>
      </trkpt>
      <trkpt lat="47.46603" lon="-2.91505">
        <ele>-1.3</ele>
        <time>2016-08-25T17:25:19Z</time>
      </trkpt>
      <trkpt lat="47.46639" lon="-2.91505">
        <ele>-1.3</ele>
        <time>2016-08-25T17:25:38Z</time>
      </trkpt>
      <trkpt lat="47.46678" lon="-2.915">
        <ele>-0.82</ele>
        <time>2016-08-25T17:25:58Z</time>
      </trkpt>
      <trkpt lat="47.46709" lon="-2.91496">
        <ele>-0.82</ele>
        <time>2016-08-25T17:26:15Z</time>
      </trkpt>
      <trkpt lat="47.46749" lon="-2.9149">
        <ele>-0.82</ele>
        <time>2016-08-25T17:26:36Z</time>
      </trkpt>
      <trkpt lat="47.46788" lon="-2.91479">
        <ele>-0.34</ele>
        <time>2016-08-25T17:26:57Z</time>
      </trkpt>
      <trkpt lat="47.46821" lon="-2.91466">
        <ele>-0.82</ele>
        <time>2016-08-25T17:27:16Z</time>
      </trkpt>
      <trkpt lat="47.4685" lon="-2.91459">
        <ele>-0.82</ele>
        <time>2016-08-25T17:27:33Z</time>
      </trkpt>
      <trkpt lat="47.46884" lon="-2.91454">
        <ele>-1.3</ele>
        <time>2016-08-25T17:27:53Z</time>
      </trkpt>
      <trkpt lat="47.46921" lon="-2.91446">
        <ele>-0.82</ele>
        <time>2016-08-25T17:28:14Z</time>
      </trkpt>
      <trkpt lat="47.46954" lon="-2.91438">
        <ele>-0.82</ele>
        <time>2016-08-25T17:28:33Z</time>
      </trkpt>
      <trkpt lat="47.46989" lon="-2.91433">
        <ele>-0.82</ele>
        <time>2016-08-25T17:28:54Z</time>
      </trkpt>
      <trkpt lat="47.47018" lon="-2.91428">
        <ele>-0.82</ele>
        <time>2016-08-25T17:29:12Z</time>
      </trkpt>
      <trkpt lat="47.47047" lon="-2.91421">
        <ele>-0.82</ele>
        <time>2016-08-25T17:29:30Z</time>
      </trkpt>
      <trkpt lat="47.47077" lon="-2.91415">
        <ele>-1.3</ele>
        <time>2016-08-25T17:29:50Z</time>
      </trkpt>
      <trkpt lat="47.47103" lon="-2.91411">
        <ele>-0.82</ele>
        <time>2016-08-25T17:30:06Z</time>
      </trkpt>
      <trkpt lat="47.47129" lon="-2.91406">
        <ele>-0.82</ele>
        <time>2016-08-25T17:30:23Z</time>
      </trkpt>
      <trkpt lat="47.47158" lon="-2.91401">
        <ele>-0.82</ele>
        <time>2016-08-25T17:30:42Z</time>
      </trkpt>
      <trkpt lat="47.47188" lon="-2.91397">
        <ele>-0.82</ele>
        <time>2016-08-25T17:31:01Z</time>
      </trkpt>
      <trkpt lat="47.47214" lon="-2.91392">
        <ele>-1.3</ele>
        <time>2016-08-25T17:31:19Z</time>
      </trkpt>
      <trkpt lat="47.47238" lon="-2.91388">
        <ele>-1.3</ele>
        <time>2016-08-25T17:31:36Z</time>
      </trkpt>
      <trkpt lat="47.47262" lon="-2.91383">
        <ele>-1.3</ele>
        <time>2016-08-25T17:31:53Z</time>
      </trkpt>
      <trkpt lat="47.4729" lon="-2.91381">
        <ele>-0.34</ele>
        <time>2016-08-25T17:32:14Z</time>
      </trkpt>
      <trkpt lat="47.47318" lon="-2.91376">
        <ele>-0.82</ele>
        <time>2016-08-25T17:32:36Z</time>
      </trkpt>
      <trkpt lat="47.47343" lon="-2.91374">
        <ele>-0.34</ele>
        <time>2016-08-25T17:32:55Z</time>
      </trkpt>
      <trkpt lat="47.47369" lon="-2.91369">
        <ele>-0.34</ele>
        <time>2016-08-25T17:33:15Z</time>
      </trkpt>
      <trkpt lat="47.47396" lon="-2.91366">
        <ele>0.14</ele>
        <time>2016-08-25T17:33:37Z</time>
      </trkpt>
      <trkpt lat="47.47422" lon="-2.91361">
        <ele>-0.34</ele>
        <time>2016-08-25T17:33:58Z</time>
      </trkpt>
      <trkpt lat="47.4745" lon="-2.91356">
        <ele>-0.34</ele>
        <time>2016-08-25T17:34:21Z</time>
      </trkpt>
      <trkpt lat="47.47474" lon="-2.91354">
        <ele>-0.34</ele>
        <time>2016-08-25T17:34:42Z</time>
      </trkpt>
      <trkpt lat="47.47493" lon="-2.91349">
        <ele>-0.34</ele>
        <time>2016-08-25T17:34:59Z</time>
      </trkpt>
      <trkpt lat="47.47515" lon="-2.91345">
        <ele>-0.82</ele>
        <time>2016-08-25T17:35:19Z</time>
      </trkpt>
      <trkpt lat="47.47533" lon="-2.91343">
        <ele>-0.34</ele>
        <time>2016-08-25T17:35:35Z</time>
      </trkpt>
      <trkpt lat="47.47548" lon="-2.91339">
        <ele>-0.34</ele>
        <time>2016-08-25T17:35:50Z</time>
      </trkpt>
      <trkpt lat="47.47567" lon="-2.91335">
        <ele>-0.34</ele>
        <time>2016-08-25T17:36:10Z</time>
      </trkpt>
      <trkpt lat="47.47569" lon="-2.91334">
        <ele>0.14</ele>
        <time>2016-08-25T17:36:12Z</time>
      </trkpt>
      <trkpt lat="47.47583" lon="-2.9133">
        <ele>-0.34</ele>
        <time>2016-08-25T17:36:28Z</time>
      </trkpt>
      <trkpt lat="47.47598" lon="-2.91325">
        <ele>-0.34</ele>
        <time>2016-08-25T17:36:47Z</time>
      </trkpt>
      <trkpt lat="47.47612" lon="-2.9132">
        <ele>-0.34</ele>
        <time>2016-08-25T17:37:06Z</time>
      </trkpt>
      <trkpt lat="47.47628" lon="-2.91317">
        <ele>-0.34</ele>
        <time>2016-08-25T17:37:26Z</time>
      </trkpt>
      <trkpt lat="47.47643" lon="-2.91312">
        <ele>-0.34</ele>
        <time>2016-08-25T17:37:47Z</time>
      </trkpt>
      <trkpt lat="47.47661" lon="-2.91304">
        <ele>-0.82</ele>
        <time>2016-08-25T17:38:11Z</time>
      </trkpt>
      <trkpt lat="47.47673" lon="-2.91297">
        <ele>-0.82</ele>
        <time>2016-08-25T17:38:29Z</time>
      </trkpt>
      <trkpt lat="47.47684" lon="-2.91294">
        <ele>0.14</ele>
        <time>2016-08-25T17:38:45Z</time>
      </trkpt>
      <trkpt lat="47.47698" lon="-2.91287">
        <ele>0.14</ele>
        <time>2016-08-25T17:39:06Z</time>
      </trkpt>
      <trkpt lat="47.47714" lon="-2.91281">
        <ele>0.14</ele>
        <time>2016-08-25T17:39:28Z</time>
      </trkpt>
      <trkpt lat="47.4773" lon="-2.91277">
        <ele>-0.82</ele>
        <time>2016-08-25T17:39:49Z</time>
      </trkpt>
      <trkpt lat="47.47746" lon="-2.91273">
        <ele>-1.3</ele>
        <time>2016-08-25T17:40:08Z</time>
      </trkpt>
      <trkpt lat="47.47762" lon="-2.9127">
        <ele>-1.79</ele>
        <time>2016-08-25T17:40:28Z</time>
      </trkpt>
      <trkpt lat="47.4778" lon="-2.91266">
        <ele>-0.82</ele>
        <time>2016-08-25T17:40:48Z</time>
      </trkpt>
      <trkpt lat="47.47796" lon="-2.91262">
        <ele>-1.3</ele>
        <time>2016-08-25T17:41:06Z</time>
      </trkpt>
      <trkpt lat="47.47812" lon="-2.91258">
        <ele>-1.79</ele>
        <time>2016-08-25T17:41:25Z</time>
      </trkpt>
      <trkpt lat="47.4784" lon="-2.91254">
        <ele>-0.82</ele>
        <time>2016-08-25T17:41:43Z</time>
      </trkpt>
      <trkpt lat="47.47874" lon="-2.91257">
        <ele>-0.82</ele>
        <time>2016-08-25T17:42:00Z</time>
      </trkpt>
      <trkpt lat="47.47916" lon="-2.91257">
        <ele>-0.82</ele>
        <time>2016-08-25T17:42:20Z</time>
      </trkpt>
      <trkpt lat="47.47957" lon="-2.91256">
        <ele>-0.82</ele>
        <time>2016-08-25T17:42:39Z</time>
      </trkpt>
      <trkpt lat="47.48002" lon="-2.91249">
        <ele>-0.82</ele>
        <time>2016-08-25T17:43:00Z</time>
      </trkpt>
      <trkpt lat="47.48042" lon="-2.91246">
        <ele>-0.82</ele>
        <time>2016-08-25T17:43:19Z</time>
      </trkpt>
      <trkpt lat="47.48085" lon="-2.91241">
        <ele>-0.82</ele>
        <time>2016-08-25T17:43:39Z</time>
      </trkpt>
      <trkpt lat="47.4813" lon="-2.91237">
        <ele>-0.82</ele>
        <time>2016-08-25T17:44:00Z</time>
      </trkpt>
      <trkpt lat="47.48168" lon="-2.91236">
        <ele>-0.82</ele>
        <time>2016-08-25T17:44:18Z</time>
      </trkpt>
      <trkpt lat="47.48211" lon="-2.91237">
        <ele>-0.34</ele>
        <time>2016-08-25T17:44:38Z</time>
      </trkpt>
      <trkpt lat="47.48249" lon="-2.91237">
        <ele>0.14</ele>
        <time>2016-08-25T17:44:56Z</time>
      </trkpt>
      <trkpt lat="47.48286" lon="-2.91238">
        <ele>0.14</ele>
        <time>2016-08-25T17:45:13Z</time>
      </trkpt>
      <trkpt lat="47.48324" lon="-2.91239">
        <ele>-0.34</ele>
        <time>2016-08-25T17:45:31Z</time>
      </trkpt>
      <trkpt lat="47.4837" lon="-2.91242">
        <ele>0.14</ele>
        <time>2016-08-25T17:45:52Z</time>
      </trkpt>
      <trkpt lat="47.48415" lon="-2.91246">
        <ele>0.14</ele>
        <time>2016-08-25T17:46:13Z</time>
      </trkpt>
      <trkpt lat="47.48467" lon="-2.91249">
        <ele>-0.34</ele>
        <time>2016-08-25T17:46:37Z</time>
      </trkpt>
      <trkpt lat="47.4851" lon="-2.9125">
        <ele>-0.34</ele>
        <time>2016-08-25T17:46:57Z</time>
      </trkpt>
      <trkpt lat="47.48554" lon="-2.91252">
        <ele>0.14</ele>
        <time>2016-08-25T17:47:17Z</time>
      </trkpt>
      <trkpt lat="47.48601" lon="-2.91254">
        <ele>-0.34</ele>
        <time>2016-08-25T17:47:39Z</time>
      </trkpt>
      <trkpt lat="47.48644" lon="-2.91244">
        <ele>-0.34</ele>
        <time>2016-08-25T17:47:59Z</time>
      </trkpt>
      <trkpt lat="47.48688" lon="-2.91247">
        <ele>-0.82</ele>
        <time>2016-08-25T17:48:20Z</time>
      </trkpt>
      <trkpt lat="47.48736" lon="-2.91246">
        <ele>-0.34</ele>
        <time>2016-08-25T17:48:42Z</time>
      </trkpt>
      <trkpt lat="47.48781" lon="-2.91244">
        <ele>-0.82</ele>
        <time>2016-08-25T17:49:03Z</time>
      </trkpt>
      <trkpt lat="47.48832" lon="-2.91237">
        <ele>-1.3</ele>
        <time>2016-08-25T17:49:27Z</time>
      </trkpt>
      <trkpt lat="47.48884" lon="-2.91243">
        <ele>-0.82</ele>
        <time>2016-08-25T17:49:51Z</time>
      </trkpt>
      <trkpt lat="47.48929" lon="-2.91246">
        <ele>-0.82</ele>
        <time>2016-08-25T17:50:12Z</time>
      </trkpt>
      <trkpt lat="47.48969" lon="-2.9125">
        <ele>-0.82</ele>
        <time>2016-08-25T17:50:31Z</time>
      </trkpt>
      <trkpt lat="47.49011" lon="-2.9125">
        <ele>-1.3</ele>
        <time>2016-08-25T17:50:51Z</time>
      </trkpt>
      <trkpt lat="47.4906" lon="-2.91248">
        <ele>-1.3</ele>
        <time>2016-08-25T17:51:15Z</time>
      </trkpt>
      <trkpt lat="47.49107" lon="-2.91252">
        <ele>-1.79</ele>
        <time>2016-08-25T17:51:38Z</time>
      </trkpt>
      <trkpt lat="47.49147" lon="-2.91251">
        <ele>-1.79</ele>
        <time>2016-08-25T17:51:58Z</time>
      </trkpt>
      <trkpt lat="47.49184" lon="-2.9125">
        <ele>-1.79</ele>
        <time>2016-08-25T17:52:17Z</time>
      </trkpt>
      <trkpt lat="47.49228" lon="-2.91253">
        <ele>-1.3</ele>
        <time>2016-08-25T17:52:39Z</time>
      </trkpt>
      <trkpt lat="47.4927" lon="-2.91259">
        <ele>-1.79</ele>
        <time>2016-08-25T17:53:00Z</time>
      </trkpt>
      <trkpt lat="47.49314" lon="-2.91262">
        <ele>-1.3</ele>
        <time>2016-08-25T17:53:22Z</time>
      </trkpt>
      <trkpt lat="47.4936" lon="-2.91263">
        <ele>-1.3</ele>
        <time>2016-08-25T17:53:45Z</time>
      </trkpt>
      <trkpt lat="47.49408" lon="-2.91258">
        <ele>-1.79</ele>
        <time>2016-08-25T17:54:09Z</time>
      </trkpt>
      <trkpt lat="47.49449" lon="-2.91258">
        <ele>-1.79</ele>
        <time>2016-08-25T17:54:30Z</time>
      </trkpt>
      <trkpt lat="47.49489" lon="-2.91256">
        <ele>-2.27</ele>
        <time>2016-08-25T17:54:50Z</time>
      </trkpt>
      <trkpt lat="47.49533" lon="-2.91252">
        <ele>-2.75</ele>
        <time>2016-08-25T17:55:12Z</time>
      </trkpt>
      <trkpt lat="47.49577" lon="-2.91248">
        <ele>-2.75</ele>
        <time>2016-08-25T17:55:32Z</time>
      </trkpt>
      <trkpt lat="47.49622" lon="-2.9125">
        <ele>-2.27</ele>
        <time>2016-08-25T17:55:52Z</time>
      </trkpt>
      <trkpt lat="47.49663" lon="-2.91254">
        <ele>-2.27</ele>
        <time>2016-08-25T17:56:10Z</time>
      </trkpt>
      <trkpt lat="47.49717" lon="-2.91249">
        <ele>-2.27</ele>
        <time>2016-08-25T17:56:34Z</time>
      </trkpt>
      <trkpt lat="47.49761" lon="-2.91246">
        <ele>-2.27</ele>
        <time>2016-08-25T17:56:54Z</time>
      </trkpt>
      <trkpt lat="47.49816" lon="-2.91256">
        <ele>-1.79</ele>
        <time>2016-08-25T17:57:19Z</time>
      </trkpt>
      <trkpt lat="47.49862" lon="-2.9127">
        <ele>-2.27</ele>
        <time>2016-08-25T17:57:41Z</time>
      </trkpt>
      <trkpt lat="47.49912" lon="-2.91273">
        <ele>-1.79</ele>
        <time>2016-08-25T17:58:03Z</time>
      </trkpt>
      <trkpt lat="47.49964" lon="-2.91264">
        <ele>-1.3</ele>
        <time>2016-08-25T17:58:26Z</time>
      </trkpt>
      <trkpt lat="47.50016" lon="-2.9125">
        <ele>-1.3</ele>
        <time>2016-08-25T17:58:50Z</time>
      </trkpt>
      <trkpt lat="47.5006" lon="-2.91264">
        <ele>-1.3</ele>
        <time>2016-08-25T17:59:11Z</time>
      </trkpt>
      <trkpt lat="47.5011" lon="-2.91282">
        <ele>-1.3</ele>
        <time>2016-08-25T17:59:35Z</time>
      </trkpt>
      <trkpt lat="47.50162" lon="-2.91295">
        <ele>-2.27</ele>
        <time>2016-08-25T17:59:59Z</time>
      </trkpt>
      <trkpt lat="47.50205" lon="-2.91295">
        <ele>-2.75</ele>
        <time>2016-08-25T18:00:18Z</time>
      </trkpt>
      <trkpt lat="47.50256" lon="-2.91285">
        <ele>-1.79</ele>
        <time>2016-08-25T18:00:41Z</time>
      </trkpt>
      <trkpt lat="47.50304" lon="-2.91273">
        <ele>-1.79</ele>
        <time>2016-08-25T18:01:03Z</time>
      </trkpt>
      <trkpt lat="47.50354" lon="-2.9127">
        <ele>-1.79</ele>
        <time>2016-08-25T18:01:26Z</time>
      </trkpt>
      <trkpt lat="47.50405" lon="-2.91278">
        <ele>-2.27</ele>
        <time>2016-08-25T18:01:50Z</time>
      </trkpt>
      <trkpt lat="47.50453" lon="-2.91287">
        <ele>-3.23</ele>
        <time>2016-08-25T18:02:13Z</time>
      </trkpt>
      <trkpt lat="47.50507" lon="-2.91287">
        <ele>-2.75</ele>
        <time>2016-08-25T18:02:38Z</time>
      </trkpt>
      <trkpt lat="47.50558" lon="-2.91289">
        <ele>-2.75</ele>
        <time>2016-08-25T18:03:02Z</time>
      </trkpt>
      <trkpt lat="47.50601" lon="-2.91291">
        <ele>-2.75</ele>
        <time>2016-08-25T18:03:23Z</time>
      </trkpt>
      <trkpt lat="47.50651" lon="-2.91295">
        <ele>-3.71</ele>
        <time>2016-08-25T18:03:47Z</time>
      </trkpt>
      <trkpt lat="47.50702" lon="-2.91299">
        <ele>-4.19</ele>
        <time>2016-08-25T18:04:11Z</time>
      </trkpt>
      <trkpt lat="47.50749" lon="-2.91299">
        <ele>-4.19</ele>
        <time>2016-08-25T18:04:33Z</time>
      </trkpt>
      <trkpt lat="47.50801" lon="-2.91301">
        <ele>-3.71</ele>
        <time>2016-08-25T18:04:58Z</time>
      </trkpt>
      <trkpt lat="47.50844" lon="-2.91302">
        <ele>-3.71</ele>
        <time>2016-08-25T18:05:19Z</time>
      </trkpt>
      <trkpt lat="47.50891" lon="-2.91305">
        <ele>-4.19</ele>
        <time>2016-08-25T18:05:42Z</time>
      </trkpt>
      <trkpt lat="47.50939" lon="-2.91303">
        <ele>-4.19</ele>
        <time>2016-08-25T18:06:05Z</time>
      </trkpt>
      <trkpt lat="47.5099" lon="-2.91304">
        <ele>-5.15</ele>
        <time>2016-08-25T18:06:30Z</time>
      </trkpt>
      <trkpt lat="47.5103" lon="-2.91301">
        <ele>-4.19</ele>
        <time>2016-08-25T18:06:49Z</time>
      </trkpt>
      <trkpt lat="47.51076" lon="-2.91302">
        <ele>-2.75</ele>
        <time>2016-08-25T18:07:11Z</time>
      </trkpt>
      <trkpt lat="47.51109" lon="-2.91301">
        <ele>-2.75</ele>
        <time>2016-08-25T18:07:27Z</time>
      </trkpt>
      <trkpt lat="47.5114" lon="-2.91299">
        <ele>-2.75</ele>
        <time>2016-08-25T18:07:42Z</time>
      </trkpt>
      <trkpt lat="47.51189" lon="-2.91297">
        <ele>-2.27</ele>
        <time>2016-08-25T18:08:05Z</time>
      </trkpt>
      <trkpt lat="47.51235" lon="-2.91296">
        <ele>-2.27</ele>
        <time>2016-08-25T18:08:27Z</time>
      </trkpt>
      <trkpt lat="47.51283" lon="-2.91293">
        <ele>-1.3</ele>
        <time>2016-08-25T18:08:49Z</time>
      </trkpt>
      <trkpt lat="47.51334" lon="-2.91293">
        <ele>-0.82</ele>
        <time>2016-08-25T18:09:13Z</time>
      </trkpt>
      <trkpt lat="47.51377" lon="-2.91295">
        <ele>-1.3</ele>
        <time>2016-08-25T18:09:33Z</time>
      </trkpt>
      <trkpt lat="47.51429" lon="-2.91295">
        <ele>-1.79</ele>
        <time>2016-08-25T18:09:56Z</time>
      </trkpt>
      <trkpt lat="47.51468" lon="-2.91295">
        <ele>-2.27</ele>
        <time>2016-08-25T18:10:14Z</time>
      </trkpt>
      <trkpt lat="47.51513" lon="-2.91295">
        <ele>-2.27</ele>
        <time>2016-08-25T18:10:34Z</time>
      </trkpt>
      <trkpt lat="47.51568" lon="-2.91296">
        <ele>-2.75</ele>
        <time>2016-08-25T18:10:58Z</time>
      </trkpt>
      <trkpt lat="47.51614" lon="-2.91297">
        <ele>-2.27</ele>
        <time>2016-08-25T18:11:18Z</time>
      </trkpt>
      <trkpt lat="47.51674" lon="-2.91286">
        <ele>-1.79</ele>
        <time>2016-08-25T18:11:44Z</time>
      </trkpt>
      <trkpt lat="47.51732" lon="-2.91275">
        <ele>-1.79</ele>
        <time>2016-08-25T18:12:09Z</time>
      </trkpt>
      <trkpt lat="47.5179" lon="-2.91273">
        <ele>-0.34</ele>
        <time>2016-08-25T18:12:34Z</time>
      </trkpt>
      <trkpt lat="47.51842" lon="-2.91274">
        <ele>-0.82</ele>
        <time>2016-08-25T18:12:57Z</time>
      </trkpt>
      <trkpt lat="47.51893" lon="-2.91278">
        <ele>-0.34</ele>
        <time>2016-08-25T18:13:19Z</time>
      </trkpt>
      <trkpt lat="47.51939" lon="-2.91284">
        <ele>-0.34</ele>
        <time>2016-08-25T18:13:39Z</time>
      </trkpt>
      <trkpt lat="47.52" lon="-2.91288">
        <ele>0.14</ele>
        <time>2016-08-25T18:14:05Z</time>
      </trkpt>
      <trkpt lat="47.52065" lon="-2.9129">
        <ele>-0.34</ele>
        <time>2016-08-25T18:14:32Z</time>
      </trkpt>
      <trkpt lat="47.52124" lon="-2.91291">
        <ele>-0.82</ele>
        <time>2016-08-25T18:14:56Z</time>
      </trkpt>
      <trkpt lat="47.52179" lon="-2.91292">
        <ele>-1.3</ele>
        <time>2016-08-25T18:15:18Z</time>
      </trkpt>
      <trkpt lat="47.52242" lon="-2.91301">
        <ele>-0.82</ele>
        <time>2016-08-25T18:15:44Z</time>
      </trkpt>
      <trkpt lat="47.52298" lon="-2.91313">
        <ele>0.14</ele>
        <time>2016-08-25T18:16:07Z</time>
      </trkpt>
      <trkpt lat="47.52366" lon="-2.91313">
        <ele>-0.34</ele>
        <time>2016-08-25T18:16:34Z</time>
      </trkpt>
      <trkpt lat="47.52427" lon="-2.91325">
        <ele>0.14</ele>
        <time>2016-08-25T18:16:59Z</time>
      </trkpt>
      <trkpt lat="47.52482" lon="-2.91337">
        <ele>0.14</ele>
        <time>2016-08-25T18:17:21Z</time>
      </trkpt>
      <trkpt lat="47.52536" lon="-2.91347">
        <ele>0.14</ele>
        <time>2016-08-25T18:17:43Z</time>
      </trkpt>
      <trkpt lat="47.52588" lon="-2.91361">
        <ele>-0.34</ele>
        <time>2016-08-25T18:18:04Z</time>
      </trkpt>
      <trkpt lat="47.5264" lon="-2.9138">
        <ele>-0.34</ele>
        <time>2016-08-25T18:18:26Z</time>
      </trkpt>
      <trkpt lat="47.52698" lon="-2.91375">
        <ele>-1.3</ele>
        <time>2016-08-25T18:18:49Z</time>
      </trkpt>
      <trkpt lat="47.52766" lon="-2.91373">
        <ele>-0.34</ele>
        <time>2016-08-25T18:19:17Z</time>
      </trkpt>
      <trkpt lat="47.52819" lon="-2.91371">
        <ele>0.14</ele>
        <time>2016-08-25T18:19:40Z</time>
      </trkpt>
      <trkpt lat="47.52869" lon="-2.91374">
        <ele>0.62</ele>
        <time>2016-08-25T18:20:02Z</time>
      </trkpt>
      <trkpt lat="47.52918" lon="-2.91374">
        <ele>0.14</ele>
        <time>2016-08-25T18:20:24Z</time>
      </trkpt>
      <trkpt lat="47.52969" lon="-2.91372">
        <ele>0.62</ele>
        <time>2016-08-25T18:20:47Z</time>
      </trkpt>
      <trkpt lat="47.53015" lon="-2.91374">
        <ele>1.58</ele>
        <time>2016-08-25T18:21:08Z</time>
      </trkpt>
      <trkpt lat="47.53067" lon="-2.91371">
        <ele>0.14</ele>
        <time>2016-08-25T18:21:32Z</time>
      </trkpt>
      <trkpt lat="47.53121" lon="-2.91371">
        <ele>1.1</ele>
        <time>2016-08-25T18:21:57Z</time>
      </trkpt>
      <trkpt lat="47.53167" lon="-2.91381">
        <ele>0.62</ele>
        <time>2016-08-25T18:22:19Z</time>
      </trkpt>
      <trkpt lat="47.53209" lon="-2.91387">
        <ele>1.1</ele>
        <time>2016-08-25T18:22:39Z</time>
      </trkpt>
      <trkpt lat="47.53264" lon="-2.91394">
        <ele>1.58</ele>
        <time>2016-08-25T18:23:05Z</time>
      </trkpt>
      <trkpt lat="47.53307" lon="-2.9138">
        <ele>0.14</ele>
        <time>2016-08-25T18:23:26Z</time>
      </trkpt>
      <trkpt lat="47.5335" lon="-2.9137">
        <ele>-0.82</ele>
        <time>2016-08-25T18:23:47Z</time>
      </trkpt>
      <trkpt lat="47.53393" lon="-2.91368">
        <ele>-1.3</ele>
        <time>2016-08-25T18:24:07Z</time>
      </trkpt>
      <trkpt lat="47.53443" lon="-2.91368">
        <ele>-0.82</ele>
        <time>2016-08-25T18:24:30Z</time>
      </trkpt>
      <trkpt lat="47.53496" lon="-2.91365">
        <ele>-1.3</ele>
        <time>2016-08-25T18:24:54Z</time>
      </trkpt>
      <trkpt lat="47.53517" lon="-2.91392">
        <ele>-0.82</ele>
        <time>2016-08-25T18:25:10Z</time>
      </trkpt>
      <trkpt lat="47.53526" lon="-2.91423">
        <ele>0.14</ele>
        <time>2016-08-25T18:25:29Z</time>
      </trkpt>
      <trkpt lat="47.53533" lon="-2.91446">
        <ele>0.14</ele>
        <time>2016-08-25T18:25:47Z</time>
      </trkpt>
      <trkpt lat="47.53545" lon="-2.9147">
        <ele>-0.34</ele>
        <time>2016-08-25T18:26:03Z</time>
      </trkpt>
      <trkpt lat="47.53571" lon="-2.91464">
        <ele>0.14</ele>
        <time>2016-08-25T18:26:19Z</time>
      </trkpt>
      <trkpt lat="47.53606" lon="-2.91419">
        <ele>0.14</ele>
        <time>2016-08-25T18:26:44Z</time>
      </trkpt>
      <trkpt lat="47.53639" lon="-2.91372">
        <ele>-0.82</ele>
        <time>2016-08-25T18:27:09Z</time>
      </trkpt>
      <trkpt lat="47.53671" lon="-2.91332">
        <ele>-0.34</ele>
        <time>2016-08-25T18:27:32Z</time>
      </trkpt>
      <trkpt lat="47.53702" lon="-2.91286">
        <ele>-0.34</ele>
        <time>2016-08-25T18:27:56Z</time>
      </trkpt>
      <trkpt lat="47.53729" lon="-2.91242">
        <ele>-1.3</ele>
        <time>2016-08-25T18:28:18Z</time>
      </trkpt>
      <trkpt lat="47.53753" lon="-2.91193">
        <ele>-0.82</ele>
        <time>2016-08-25T18:28:41Z</time>
      </trkpt>
      <trkpt lat="47.53768" lon="-2.91135">
        <ele>-1.79</ele>
        <time>2016-08-25T18:29:06Z</time>
      </trkpt>
      <trkpt lat="47.53782" lon="-2.91063">
        <ele>-1.79</ele>
        <time>2016-08-25T18:29:33Z</time>
      </trkpt>
      <trkpt lat="47.53798" lon="-2.91">
        <ele>-0.82</ele>
        <time>2016-08-25T18:29:56Z</time>
      </trkpt>
      <trkpt lat="47.53807" lon="-2.90927">
        <ele>-2.27</ele>
        <time>2016-08-25T18:30:21Z</time>
      </trkpt>
      <trkpt lat="47.53821" lon="-2.90865">
        <ele>-1.79</ele>
        <time>2016-08-25T18:30:43Z</time>
      </trkpt>
      <trkpt lat="47.53839" lon="-2.90789">
        <ele>-0.82</ele>
        <time>2016-08-25T18:31:10Z</time>
      </trkpt>
      <trkpt lat="47.53866" lon="-2.90723">
        <ele>-0.34</ele>
        <time>2016-08-25T18:31:35Z</time>
      </trkpt>
      <trkpt lat="47.539" lon="-2.9065">
        <ele>-0.82</ele>
        <time>2016-08-25T18:32:03Z</time>
      </trkpt>
      <trkpt lat="47.53929" lon="-2.90571">
        <ele>-0.82</ele>
        <time>2016-08-25T18:32:32Z</time>
      </trkpt>
      <trkpt lat="47.53959" lon="-2.90515">
        <ele>-0.82</ele>
        <time>2016-08-25T18:32:56Z</time>
      </trkpt>
      <trkpt lat="47.53984" lon="-2.90442">
        <ele>-1.3</ele>
        <time>2016-08-25T18:33:22Z</time>
      </trkpt>
      <trkpt lat="47.54013" lon="-2.90377">
        <ele>-1.3</ele>
        <time>2016-08-25T18:33:47Z</time>
      </trkpt>
      <trkpt lat="47.54048" lon="-2.90305">
        <ele>-1.3</ele>
        <time>2016-08-25T18:34:17Z</time>
      </trkpt>
      <trkpt lat="47.54078" lon="-2.90228">
        <ele>-1.3</ele>
        <time>2016-08-25T18:34:46Z</time>
      </trkpt>
      <trkpt lat="47.54105" lon="-2.90161">
        <ele>-1.3</ele>
        <time>2016-08-25T18:35:12Z</time>
      </trkpt>
      <trkpt lat="47.54135" lon="-2.90073">
        <ele>-1.3</ele>
        <time>2016-08-25T18:35:49Z</time>
      </trkpt>
      <trkpt lat="47.54152" lon="-2.89987">
        <ele>-0.34</ele>
        <time>2016-08-25T18:36:23Z</time>
      </trkpt>
      <trkpt lat="47.54157" lon="-2.89919">
        <ele>0.14</ele>
        <time>2016-08-25T18:36:50Z</time>
      </trkpt>
      <trkpt lat="47.54164" lon="-2.89862">
        <ele>0.62</ele>
        <time>2016-08-25T18:37:19Z</time>
      </trkpt>
      <trkpt lat="47.54177" lon="-2.89807">
        <ele>0.14</ele>
        <time>2016-08-25T18:37:49Z</time>
      </trkpt>
      <trkpt lat="47.54191" lon="-2.89757">
        <ele>0.14</ele>
        <time>2016-08-25T18:38:18Z</time>
      </trkpt>
      <trkpt lat="47.54212" lon="-2.89704">
        <ele>0.14</ele>
        <time>2016-08-25T18:38:49Z</time>
      </trkpt>
      <trkpt lat="47.54234" lon="-2.89653">
        <ele>0.14</ele>
        <time>2016-08-25T18:39:21Z</time>
      </trkpt>
      <trkpt lat="47.54247" lon="-2.89613">
        <ele>3.02</ele>
        <time>2016-08-25T18:39:53Z</time>
      </trkpt>
      <trkpt lat="47.54266" lon="-2.89576">
        <ele>1.58</ele>
        <time>2016-08-25T18:40:28Z</time>
      </trkpt>
      <trkpt lat="47.54283" lon="-2.89553">
        <ele>1.1</ele>
        <time>2016-08-25T18:40:54Z</time>
      </trkpt>
      <trkpt lat="47.5431" lon="-2.89527">
        <ele>0.14</ele>
        <time>2016-08-25T18:41:28Z</time>
      </trkpt>
      <trkpt lat="47.54331" lon="-2.89496">
        <ele>-1.79</ele>
        <time>2016-08-25T18:41:58Z</time>
      </trkpt>
      <trkpt lat="47.54349" lon="-2.89458">
        <ele>-1.79</ele>
        <time>2016-08-25T18:42:33Z</time>
      </trkpt>
      <trkpt lat="47.54366" lon="-2.8944">
        <ele>0.14</ele>
        <time>2016-08-25T18:43:02Z</time>
      </trkpt>
      <trkpt lat="47.54372" lon="-2.89451">
        <ele>2.54</ele>
        <time>2016-08-25T18:43:24Z</time>
      </trkpt>
      <trkpt lat="47.54372" lon="-2.89443">
        <ele>3.02</ele>
        <time>2016-08-25T18:43:32Z</time>
      </trkpt>
      <trkpt lat="47.54375" lon="-2.89423">
        <ele>3.98</ele>
        <time>2016-08-25T18:43:59Z</time>
      </trkpt>
      <trkpt lat="47.54363" lon="-2.89436">
        <ele>3.5</ele>
        <time>2016-08-25T18:44:23Z</time>
      </trkpt>
      <trkpt lat="47.54349" lon="-2.89442">
        <ele>3.5</ele>
        <time>2016-08-25T18:44:51Z</time>
      </trkpt>
      <trkpt lat="47.54338" lon="-2.89449">
        <ele>3.02</ele>
        <time>2016-08-25T18:45:19Z</time>
      </trkpt>
      <trkpt lat="47.54336" lon="-2.89453">
        <ele>3.02</ele>
        <time>2016-08-25T18:45:49Z</time>
      </trkpt>
      <trkpt lat="47.54335" lon="-2.89454">
        <ele>3.02</ele>
        <time>2016-08-25T18:46:20Z</time>
      </trkpt>
      <trkpt lat="47.54335" lon="-2.89455">
        <ele>3.02</ele>
        <time>2016-08-25T18:46:52Z</time>
      </trkpt>
      <trkpt lat="47.54335" lon="-2.89456">
        <ele>3.5</ele>
        <time>2016-08-25T18:47:25Z</time>
      </trkpt>
      <trkpt lat="47.54335" lon="-2.89457">
        <ele>3.5</ele>
        <time>2016-08-25T18:47:55Z</time>
      </trkpt>
      <trkpt lat="47.54335" lon="-2.89457">
        <ele>2.54</ele>
        <time>2016-08-25T18:48:32Z</time>
      </trkpt>
      <trkpt lat="47.54335" lon="-2.89458">
        <ele>3.5</ele>
        <time>2016-08-25T18:48:58Z</time>
      </trkpt>
      <trkpt lat="47.54335" lon="-2.89457">
        <ele>3.02</ele>
        <time>2016-08-25T18:49:24Z</time>
      </trkpt>
      <trkpt lat="47.54334" lon="-2.89457">
        <ele>3.02</ele>
        <time>2016-08-25T18:49:48Z</time>
      </trkpt>
      <trkpt lat="47.54334" lon="-2.89458">
        <ele>3.5</ele>
        <time>2016-08-25T18:50:21Z</time>
      </trkpt>
      <trkpt lat="47.54335" lon="-2.89457">
        <ele>3.5</ele>
        <time>2016-08-25T18:50:59Z</time>
      </trkpt>
      <trkpt lat="47.54335" lon="-2.89457">
        <ele>3.02</ele>
        <time>2016-08-25T18:51:28Z</time>
      </trkpt>
      <trkpt lat="47.54335" lon="-2.89457">
        <ele>2.54</ele>
        <time>2016-08-25T18:52:04Z</time>
      </trkpt>
      <trkpt lat="47.54335" lon="-2.89457">
        <ele>2.06</ele>
        <time>2016-08-25T18:52:36Z</time>
      </trkpt>
      <trkpt lat="47.54335" lon="-2.89457">
        <ele>1.1</ele>
        <time>2016-08-25T18:53:08Z</time>
      </trkpt>
      <trkpt lat="47.54335" lon="-2.89457">
        <ele>0.62</ele>
        <time>2016-08-25T18:53:38Z</time>
      </trkpt>
      <trkpt lat="47.54336" lon="-2.89456">
        <ele>0.62</ele>
        <time>2016-08-25T18:54:02Z</time>
      </trkpt>
      <trkpt lat="47.54335" lon="-2.89457">
        <ele>1.1</ele>
        <time>2016-08-25T18:54:32Z</time>
      </trkpt>
      <trkpt lat="47.54335" lon="-2.89457">
        <ele>0.62</ele>
        <time>2016-08-25T18:55:02Z</time>
      </trkpt>
      <trkpt lat="47.54335" lon="-2.89457">
        <ele>0.62</ele>
        <time>2016-08-25T18:55:31Z</time>
      </trkpt>
      <trkpt lat="47.54335" lon="-2.89457">
        <ele>1.1</ele>
        <time>2016-08-25T18:56:01Z</time>
      </trkpt>
      <trkpt lat="47.54334" lon="-2.89457">
        <ele>0.62</ele>
        <time>2016-08-25T18:56:28Z</time>
      </trkpt>
      <trkpt lat="47.54334" lon="-2.89457">
        <ele>0.62</ele>
        <time>2016-08-25T18:56:54Z</time>
      </trkpt>
      <trkpt lat="47.54334" lon="-2.89457">
        <ele>1.1</ele>
        <time>2016-08-25T18:57:22Z</time>
      </trkpt>
      <trkpt lat="47.54334" lon="-2.89457">
        <ele>1.1</ele>
        <time>2016-08-25T18:57:46Z</time>
      </trkpt>
      <trkpt lat="47.54334" lon="-2.89456">
        <ele>1.58</ele>
        <time>2016-08-25T18:58:17Z</time>
      </trkpt>
      <trkpt lat="47.54334" lon="-2.89456">
        <ele>2.06</ele>
        <time>2016-08-25T18:58:43Z</time>
      </trkpt>
      <trkpt lat="47.54334" lon="-2.89456">
        <ele>2.06</ele>
        <time>2016-08-25T18:59:05Z</time>
      </trkpt>
      <trkpt lat="47.54334" lon="-2.89457">
        <ele>1.58</ele>
        <time>2016-08-25T18:59:37Z</time>
      </trkpt>
      <trkpt lat="47.54334" lon="-2.89457">
        <ele>1.58</ele>
        <time>2016-08-25T18:59:40Z</time>
      </trkpt>
    </trkseg>
  </trk>
</gpx>